Check out our new PWSWeather beta!
PWSweather.com
Personal Weather Stations
Station Observations
FUCECCHIO1
Tetto, FucecchioIT

TettoFucecchioIT

Lat: 43.733958, Lon: 10.795413000000053

Elevation: 25

Station Type: Davis Vantage VUE

www.meteofucecchio.it

High Low Average
Temperature 54.7°F12.6°F 29.1°F-1.6°F 42.4°F5.8°F
Dew Point 46.2°F7.9°F 21.3°F-5.9°F 36.2°F2.3°F
Winds 32.0 mph -51.5 mph - Calm Calm 4.1 mph 6.6 mph
Wind Gusts 34.0 mph54.7 mph -- 8.5 mph13.7 mph
Humidity 97% 40% 81%
Pressure 29.96 in1014.60 in 29.66 in1004.40 in -
Precipitation 61.86 in1571.20 in - -
Hour Temp Dew Point Humidity Winds Wind Gusts Pressure Precip Precip Rate Daily Precip Total
12:00 AM 44.3°F6.8°C 21.5°F-5.8°C 40% Calm Calm 11.0 mph17.7 kmh 29.73 in1006.8 mb 0.00 in0.0 mm 0.00 in0.0 mm 0.00 in0.0 mm
12:01 AM 44.1°F6.7°C 21.3°F-5.9°C 40% Calm Calm 11.0 mph17.7 kmh 29.73 in1006.8 mb 0.00 in0.0 mm 0.00 in0.0 mm 0.00 in0.0 mm
12:02 AM 43.9°F6.6°C 25.5°F-3.6°C 48% 2.0 mph SE3.2 kmh SE 4.0 mph6.4 kmh 29.73 in1006.8 mb 0.00 in0.0 mm 0.00 in0.0 mm 0.00 in0.0 mm
12:03 AM 43.5°F6.4°C 26.6°F-3.0°C 51% 2.0 mph SE3.2 kmh SE 4.0 mph6.4 kmh 29.73 in1006.8 mb 0.00 in0.0 mm 0.00 in0.0 mm 0.00 in0.0 mm
12:04 AM 43.1°F6.2°C 28.0°F-2.2°C 55% 2.0 mph SE3.2 kmh SE 4.0 mph6.4 kmh 29.73 in1006.8 mb 0.00 in0.0 mm 0.00 in0.0 mm 0.00 in0.0 mm
12:05 AM 42.6°F5.9°C 29.3°F-1.5°C 59% 2.0 mph ESE3.2 kmh ESE 4.0 mph6.4 kmh 29.74 in1007.1 mb 0.00 in0.0 mm 0.00 in0.0 mm 0.00 in0.0 mm
12:06 AM 42.2°F5.7°C 29.3°F-1.5°C 60% 3.0 mph E4.8 kmh E 4.0 mph6.4 kmh 29.74 in1007.1 mb 0.00 in0.0 mm 0.00 in0.0 mm 0.00 in0.0 mm
12:07 AM 41.8°F5.4°C 29.4°F-1.4°C 61% 2.0 mph E3.2 kmh E 4.0 mph6.4 kmh 29.74 in1007.1 mb 0.00 in0.0 mm 0.00 in0.0 mm 0.00 in0.0 mm
12:08 AM 41.5°F5.3°C 29.5°F-1.4°C 62% 3.0 mph E4.8 kmh E 4.0 mph6.4 kmh 29.74 in1007.1 mb 0.00 in0.0 mm 0.00 in0.0 mm 0.00 in0.0 mm
12:09 AM 41.3°F5.2°C 29.3°F-1.5°C 62% Calm Calm 4.0 mph6.4 kmh 29.74 in1007.1 mb 0.00 in0.0 mm 0.00 in0.0 mm 0.00 in0.0 mm
12:10 AM 41.2°F5.1°C 29.2°F-1.6°C 62% Calm Calm 4.0 mph6.4 kmh 29.74 in1007.1 mb 0.00 in0.0 mm 0.00 in0.0 mm 0.00 in0.0 mm
12:11 AM 41.1°F5.1°C 29.1°F-1.6°C 62% 3.0 mph ESE4.8 kmh ESE 4.0 mph6.4 kmh 29.74 in1007.1 mb 0.00 in0.0 mm 0.00 in0.0 mm 0.00 in0.0 mm
12:12 AM 41.0°F5.0°C 29.4°F-1.4°C 63% 3.0 mph E4.8 kmh E 3.0 mph4.8 kmh 29.74 in1007.1 mb 0.00 in0.0 mm 0.00 in0.0 mm 0.00 in0.0 mm
12:13 AM 40.9°F4.9°C 28.9°F-1.7°C 62% 2.0 mph E3.2 kmh E 4.0 mph6.4 kmh 29.74 in1007.1 mb 0.00 in0.0 mm 0.00 in0.0 mm 0.00 in0.0 mm
12:14 AM 40.9°F4.9°C 28.5°F-1.9°C 61% 2.0 mph SE3.2 kmh SE 4.0 mph6.4 kmh 29.74 in1007.1 mb 0.00 in0.0 mm 0.00 in0.0 mm 0.00 in0.0 mm
12:15 AM 40.9°F4.9°C 28.5°F-1.9°C 61% 1.0 mph SE1.6 kmh SE 4.0 mph6.4 kmh 29.74 in1007.1 mb 0.00 in0.0 mm 0.00 in0.0 mm 0.00 in0.0 mm
12:16 AM 40.9°F4.9°C 28.5°F-1.9°C 61% 5.0 mph ESE8.0 kmh ESE 5.0 mph8.0 kmh 29.74 in1007.1 mb 0.00 in0.0 mm 0.00 in0.0 mm 0.00 in0.0 mm
12:17 AM 41.0°F5.0°C 27.8°F-2.3°C 59% 4.0 mph SE6.4 kmh SE 5.0 mph8.0 kmh 29.74 in1007.1 mb 0.00 in0.0 mm 0.00 in0.0 mm 0.00 in0.0 mm
12:18 AM 41.2°F5.1°C 27.6°F-2.4°C 58% 3.0 mph ESE4.8 kmh ESE 5.0 mph8.0 kmh 29.74 in1007.1 mb 0.00 in0.0 mm 0.00 in0.0 mm 0.00 in0.0 mm
12:19 AM 41.2°F5.1°C 27.6°F-2.4°C 58% 2.0 mph ESE3.2 kmh ESE 5.0 mph8.0 kmh 29.74 in1007.1 mb 0.00 in0.0 mm 0.00 in0.0 mm 0.00 in0.0 mm
12:20 AM 41.4°F5.2°C 27.3°F-2.6°C 57% 3.0 mph ESE4.8 kmh ESE 5.0 mph8.0 kmh 29.75 in1007.5 mb 0.00 in0.0 mm 0.00 in0.0 mm 0.00 in0.0 mm
12:21 AM 41.6°F5.3°C 26.6°F-3.0°C 55% Calm Calm 5.0 mph8.0 kmh 29.74 in1007.1 mb 0.00 in0.0 mm 0.00 in0.0 mm 0.00 in0.0 mm
12:22 AM 41.7°F5.4°C 26.7°F-2.9°C 55% 1.0 mph SE1.6 kmh SE 5.0 mph8.0 kmh 29.75 in1007.5 mb 0.00 in0.0 mm 0.00 in0.0 mm 0.00 in0.0 mm
12:23 AM 41.8°F5.4°C 25.9°F-3.4°C 53% Calm Calm 5.0 mph8.0 kmh 29.75 in1007.5 mb 0.00 in0.0 mm 0.00 in0.0 mm 0.00 in0.0 mm
12:24 AM 42.0°F5.6°C 26.1°F-3.3°C 53% Calm Calm 5.0 mph8.0 kmh 29.75 in1007.5 mb 0.00 in0.0 mm 0.00 in0.0 mm 0.00 in0.0 mm
12:25 AM 42.1°F5.6°C 25.8°F-3.4°C 52% Calm Calm 5.0 mph8.0 kmh 29.75 in1007.5 mb 0.00 in0.0 mm 0.00 in0.0 mm 0.00 in0.0 mm
12:26 AM 42.3°F5.7°C 25.0°F-3.9°C 50% Calm Calm 4.0 mph6.4 kmh 29.75 in1007.5 mb 0.00 in0.0 mm 0.00 in0.0 mm 0.00 in0.0 mm
12:27 AM 42.4°F5.8°C 24.1°F-4.4°C 48% Calm Calm 3.0 mph4.8 kmh 29.75 in1007.5 mb 0.00 in0.0 mm 0.00 in0.0 mm 0.00 in0.0 mm
12:28 AM 42.5°F5.8°C 25.2°F-3.8°C 50% Calm Calm 3.0 mph4.8 kmh 29.75 in1007.5 mb 0.00 in0.0 mm 0.00 in0.0 mm 0.00 in0.0 mm
12:29 AM 42.5°F5.8°C 25.7°F-3.5°C 51% Calm Calm 3.0 mph4.8 kmh 29.75 in1007.5 mb 0.00 in0.0 mm 0.00 in0.0 mm 0.00 in0.0 mm
12:30 AM 42.5°F5.8°C 26.1°F-3.3°C 52% Calm Calm 2.0 mph3.2 kmh 29.75 in1007.5 mb 0.00 in0.0 mm 0.00 in0.0 mm 0.00 in0.0 mm
12:31 AM 42.4°F5.8°C 26.0°F-3.3°C 52% Calm Calm 2.0 mph3.2 kmh 29.75 in1007.5 mb 0.00 in0.0 mm 0.00 in0.0 mm 0.00 in0.0 mm
12:32 AM 42.4°F5.8°C 26.0°F-3.3°C 52% Calm Calm 1.0 mph1.6 kmh 29.75 in1007.5 mb 0.00 in0.0 mm 0.00 in0.0 mm 0.00 in0.0 mm
12:33 AM 42.2°F5.7°C 26.3°F-3.2°C 53% 2.0 mph S3.2 kmh S 2.0 mph3.2 kmh 29.75 in1007.5 mb 0.00 in0.0 mm 0.00 in0.0 mm 0.00 in0.0 mm
12:34 AM 42.2°F5.7°C 25.9°F-3.4°C 52% Calm Calm 2.0 mph3.2 kmh 29.76 in1007.8 mb 0.00 in0.0 mm 0.00 in0.0 mm 0.00 in0.0 mm
12:35 AM 42.2°F5.7°C 26.3°F-3.2°C 53% 2.0 mph SSW3.2 kmh SSW 3.0 mph4.8 kmh 29.76 in1007.8 mb 0.00 in0.0 mm 0.00 in0.0 mm 0.00 in0.0 mm
12:36 AM 42.1°F5.6°C 26.7°F-2.9°C 54% 3.0 mph S4.8 kmh S 5.0 mph8.0 kmh 29.76 in1007.8 mb 0.00 in0.0 mm 0.00 in0.0 mm 0.00 in0.0 mm
12:37 AM 42.3°F5.7°C 26.9°F-2.8°C 54% 3.0 mph S4.8 kmh S 5.0 mph8.0 kmh 29.76 in1007.8 mb 0.00 in0.0 mm 0.00 in0.0 mm 0.00 in0.0 mm
12:38 AM 42.8°F6.0°C 21.9°F-5.6°C 43% 1.0 mph SSW1.6 kmh SSW 5.0 mph8.0 kmh 29.76 in1007.8 mb 0.00 in0.0 mm 0.00 in0.0 mm 0.00 in0.0 mm
12:39 AM 42.9°F6.1°C 22.0°F-5.6°C 43% 2.0 mph SSE3.2 kmh SSE 5.0 mph8.0 kmh 29.76 in1007.8 mb 0.00 in0.0 mm 0.00 in0.0 mm 0.00 in0.0 mm
12:40 AM 43.0°F6.1°C 24.7°F-4.1°C 48% Calm Calm 5.0 mph8.0 kmh 29.76 in1007.8 mb 0.00 in0.0 mm 0.00 in0.0 mm 0.00 in0.0 mm
12:41 AM 43.0°F6.1°C 26.1°F-3.3°C 51% Calm Calm 5.0 mph8.0 kmh 29.76 in1007.8 mb 0.00 in0.0 mm 0.00 in0.0 mm 0.00 in0.0 mm
12:42 AM 42.9°F6.1°C 27.0°F-2.8°C 53% Calm Calm 5.0 mph8.0 kmh 29.76 in1007.8 mb 0.00 in0.0 mm 0.00 in0.0 mm 0.00 in0.0 mm
12:43 AM 42.7°F5.9°C 26.8°F-2.9°C 53% 3.0 mph NW4.8 kmh NW 5.0 mph8.0 kmh 29.76 in1007.8 mb 0.00 in0.0 mm 0.00 in0.0 mm 0.00 in0.0 mm
12:44 AM 42.0°F5.6°C 27.0°F-2.8°C 55% Calm Calm 5.0 mph8.0 kmh 29.76 in1007.8 mb 0.00 in0.0 mm 0.00 in0.0 mm 0.00 in0.0 mm
12:45 AM 41.4°F5.2°C 27.3°F-2.6°C 57% Calm Calm 4.0 mph6.4 kmh 29.76 in1007.8 mb 0.00 in0.0 mm 0.00 in0.0 mm 0.00 in0.0 mm
12:46 AM 41.0°F5.0°C 27.4°F-2.6°C 58% Calm Calm 4.0 mph6.4 kmh 29.76 in1007.8 mb 0.00 in0.0 mm 0.00 in0.0 mm 0.00 in0.0 mm
12:47 AM 40.7°F4.8°C 27.5°F-2.5°C 59% Calm Calm 4.0 mph6.4 kmh 29.76 in1007.8 mb 0.00 in0.0 mm 0.00 in0.0 mm 0.00 in0.0 mm
12:48 AM 40.4°F4.7°C 27.2°F-2.7°C 59% 1.0 mph WSW1.6 kmh WSW 4.0 mph6.4 kmh 29.76 in1007.8 mb 0.00 in0.0 mm 0.00 in0.0 mm 0.00 in0.0 mm
12:49 AM 40.1°F4.5°C 27.3°F-2.6°C 60% Calm Calm 4.0 mph6.4 kmh 29.76 in1007.8 mb 0.00 in0.0 mm 0.00 in0.0 mm 0.00 in0.0 mm
12:50 AM 39.8°F4.3°C 27.5°F-2.5°C 61% Calm Calm 4.0 mph6.4 kmh 29.76 in1007.8 mb 0.00 in0.0 mm 0.00 in0.0 mm 0.00 in0.0 mm
12:51 AM 39.6°F4.2°C 27.3°F-2.6°C 61% Calm Calm 4.0 mph6.4 kmh 29.76 in1007.8 mb 0.00 in0.0 mm 0.00 in0.0 mm 0.00 in0.0 mm
12:52 AM 39.4°F4.1°C 27.5°F-2.5°C 62% Calm Calm 4.0 mph6.4 kmh 29.76 in1007.8 mb 0.00 in0.0 mm 0.00 in0.0 mm 0.00 in0.0 mm
12:53 AM 39.3°F4.1°C 27.8°F-2.3°C 63% Calm Calm 1.0 mph1.6 kmh 29.76 in1007.8 mb 0.00 in0.0 mm 0.00 in0.0 mm 0.00 in0.0 mm
12:54 AM 39.2°F4.0°C 28.1°F-2.2°C 64% Calm Calm 1.0 mph1.6 kmh 29.76 in1007.8 mb 0.00 in0.0 mm 0.00 in0.0 mm 0.00 in0.0 mm
12:55 AM 39.1°F3.9°C 28.0°F-2.2°C 64% 2.0 mph S3.2 kmh S 2.0 mph3.2 kmh 29.76 in1007.8 mb 0.00 in0.0 mm 0.00 in0.0 mm 0.00 in0.0 mm
12:56 AM 39.1°F3.9°C 28.3°F-2.1°C 65% 2.0 mph S3.2 kmh S 2.0 mph3.2 kmh 29.77 in1008.1 mb 0.00 in0.0 mm 0.00 in0.0 mm 0.00 in0.0 mm
12:57 AM 39.1°F3.9°C 28.3°F-2.1°C 65% 2.0 mph SSE3.2 kmh SSE 3.0 mph4.8 kmh 29.76 in1007.8 mb 0.00 in0.0 mm 0.00 in0.0 mm 0.00 in0.0 mm
12:58 AM 39.1°F3.9°C 29.1°F-1.6°C 67% 2.0 mph S3.2 kmh S 3.0 mph4.8 kmh 29.77 in1008.1 mb 0.00 in0.0 mm 0.00 in0.0 mm 0.00 in0.0 mm
12:59 AM 39.0°F3.9°C 29.3°F-1.5°C 68% 3.0 mph SSE4.8 kmh SSE 4.0 mph6.4 kmh 29.77 in1008.1 mb 0.00 in0.0 mm 0.00 in0.0 mm 0.00 in0.0 mm
01:00 AM 39.0°F3.9°C 29.3°F-1.5°C 68% Calm Calm 4.0 mph6.4 kmh 29.77 in1008.1 mb 0.00 in0.0 mm 0.00 in0.0 mm 0.00 in0.0 mm
01:01 AM 38.9°F3.8°C 29.6°F-1.3°C 69% 2.0 mph S3.2 kmh S 4.0 mph6.4 kmh 29.77 in1008.1 mb 0.00 in0.0 mm 0.00 in0.0 mm 0.00 in0.0 mm
01:02 AM 38.9°F3.8°C 30.0°F-1.1°C 70% 2.0 mph SSE3.2 kmh SSE 4.0 mph6.4 kmh 29.77 in1008.1 mb 0.00 in0.0 mm 0.00 in0.0 mm 0.00 in0.0 mm
01:03 AM 38.8°F3.8°C 29.9°F-1.2°C 70% 3.0 mph SSE4.8 kmh SSE 4.0 mph6.4 kmh 29.77 in1008.1 mb 0.00 in0.0 mm 0.00 in0.0 mm 0.00 in0.0 mm
01:04 AM 38.7°F3.7°C 30.5°F-0.8°C 72% 3.0 mph SSE4.8 kmh SSE 4.0 mph6.4 kmh 29.77 in1008.1 mb 0.00 in0.0 mm 0.00 in0.0 mm 0.00 in0.0 mm
01:05 AM 38.6°F3.7°C 30.4°F-0.9°C 72% 4.0 mph SE6.4 kmh SE 6.0 mph9.7 kmh 29.77 in1008.1 mb 0.00 in0.0 mm 0.00 in0.0 mm 0.00 in0.0 mm
01:06 AM 38.6°F3.7°C 30.7°F-0.7°C 73% 1.0 mph SSE1.6 kmh SSE 6.0 mph9.7 kmh 29.77 in1008.1 mb 0.00 in0.0 mm 0.00 in0.0 mm 0.00 in0.0 mm
01:07 AM 38.5°F3.6°C 30.6°F-0.8°C 73% 1.0 mph SSE1.6 kmh SSE 6.0 mph9.7 kmh 29.77 in1008.1 mb 0.00 in0.0 mm 0.00 in0.0 mm 0.00 in0.0 mm
01:08 AM 38.5°F3.6°C 30.6°F-0.8°C 73% 2.0 mph SE3.2 kmh SE 6.0 mph9.7 kmh 29.77 in1008.1 mb 0.00 in0.0 mm 0.00 in0.0 mm 0.00 in0.0 mm
01:09 AM 38.4°F3.6°C 30.8°F-0.7°C 74% 1.0 mph SSE1.6 kmh SSE 6.0 mph9.7 kmh 29.77 in1008.1 mb 0.00 in0.0 mm 0.00 in0.0 mm 0.00 in0.0 mm
01:10 AM 38.4°F3.6°C 30.8°F-0.7°C 74% 1.0 mph SE1.6 kmh SE 6.0 mph9.7 kmh 29.78 in1008.5 mb 0.00 in0.0 mm 0.00 in0.0 mm 0.00 in0.0 mm
01:11 AM 38.3°F3.5°C 30.8°F-0.7°C 74% 4.0 mph SE6.4 kmh SE 6.0 mph9.7 kmh 29.77 in1008.1 mb 0.00 in0.0 mm 0.00 in0.0 mm 0.00 in0.0 mm
01:12 AM 38.2°F3.4°C 31.0°F-0.6°C 75% Calm Calm 6.0 mph9.7 kmh 29.78 in1008.5 mb 0.00 in0.0 mm 0.00 in0.0 mm 0.00 in0.0 mm
01:13 AM 38.2°F3.4°C 31.0°F-0.6°C 75% 2.0 mph SE3.2 kmh SE 6.0 mph9.7 kmh 29.78 in1008.5 mb 0.00 in0.0 mm 0.00 in0.0 mm 0.00 in0.0 mm
01:14 AM 38.1°F3.4°C 30.9°F-0.6°C 75% 2.0 mph SE3.2 kmh SE 5.0 mph8.0 kmh 29.78 in1008.5 mb 0.00 in0.0 mm 0.00 in0.0 mm 0.00 in0.0 mm
01:15 AM 38.0°F3.3°C 31.1°F-0.5°C 76% 2.0 mph SE3.2 kmh SE 5.0 mph8.0 kmh 29.78 in1008.5 mb 0.00 in0.0 mm 0.00 in0.0 mm 0.00 in0.0 mm
01:16 AM 38.0°F3.3°C 31.1°F-0.5°C 76% Calm Calm 5.0 mph8.0 kmh 29.78 in1008.5 mb 0.00 in0.0 mm 0.00 in0.0 mm 0.00 in0.0 mm
01:17 AM 38.0°F3.3°C 31.1°F-0.5°C 76% Calm Calm 4.0 mph6.4 kmh 29.78 in1008.5 mb 0.00 in0.0 mm 0.00 in0.0 mm 0.00 in0.0 mm
01:18 AM 37.9°F3.3°C 31.0°F-0.6°C 76% 3.0 mph SE4.8 kmh SE 4.0 mph6.4 kmh 29.78 in1008.5 mb 0.00 in0.0 mm 0.00 in0.0 mm 0.00 in0.0 mm
01:19 AM 37.9°F3.3°C 31.0°F-0.6°C 76% 3.0 mph SE4.8 kmh SE 4.0 mph6.4 kmh 29.78 in1008.5 mb 0.00 in0.0 mm 0.00 in0.0 mm 0.00 in0.0 mm
01:20 AM 37.9°F3.3°C 31.0°F-0.6°C 76% 1.0 mph SE1.6 kmh SE 4.0 mph6.4 kmh 29.78 in1008.5 mb 0.00 in0.0 mm 0.00 in0.0 mm 0.00 in0.0 mm
01:21 AM 37.9°F3.3°C 31.0°F-0.6°C 76% 1.0 mph SE1.6 kmh SE 4.0 mph6.4 kmh 29.78 in1008.5 mb 0.00 in0.0 mm 0.00 in0.0 mm 0.00 in0.0 mm
01:22 AM 37.8°F3.2°C 30.9°F-0.6°C 76% 2.0 mph SE3.2 kmh SE 4.0 mph6.4 kmh 29.78 in1008.5 mb 0.00 in0.0 mm 0.00 in0.0 mm 0.00 in0.0 mm
01:23 AM 37.8°F3.2°C 30.9°F-0.6°C 76% 4.0 mph SE6.4 kmh SE 4.0 mph6.4 kmh 29.79 in1008.8 mb 0.00 in0.0 mm 0.00 in0.0 mm 0.00 in0.0 mm
01:24 AM 37.7°F3.2°C 30.8°F-0.7°C 76% 2.0 mph SE3.2 kmh SE 4.0 mph6.4 kmh 29.79 in1008.8 mb 0.00 in0.0 mm 0.00 in0.0 mm 0.00 in0.0 mm
01:25 AM 37.7°F3.2°C 31.2°F-0.4°C 77% 2.0 mph SE3.2 kmh SE 4.0 mph6.4 kmh 29.79 in1008.8 mb 0.00 in0.0 mm 0.00 in0.0 mm 0.00 in0.0 mm
01:26 AM 37.6°F3.1°C 31.1°F-0.5°C 77% 5.0 mph SE8.0 kmh SE 5.0 mph8.0 kmh 29.79 in1008.8 mb 0.00 in0.0 mm 0.00 in0.0 mm 0.00 in0.0 mm
01:27 AM 37.5°F3.1°C 31.0°F-0.6°C 77% 3.0 mph SE4.8 kmh SE 5.0 mph8.0 kmh 29.79 in1008.8 mb 0.00 in0.0 mm 0.00 in0.0 mm 0.00 in0.0 mm
01:28 AM 37.5°F3.1°C 31.0°F-0.6°C 77% Calm Calm 5.0 mph8.0 kmh 29.79 in1008.8 mb 0.00 in0.0 mm 0.00 in0.0 mm 0.00 in0.0 mm
01:29 AM 37.4°F3.0°C 30.9°F-0.6°C 77% 2.0 mph ESE3.2 kmh ESE 5.0 mph8.0 kmh 29.79 in1008.8 mb 0.00 in0.0 mm 0.00 in0.0 mm 0.00 in0.0 mm
01:30 AM 37.4°F3.0°C 30.9°F-0.6°C 77% 4.0 mph SE6.4 kmh SE 5.0 mph8.0 kmh 29.79 in1008.8 mb 0.00 in0.0 mm 0.00 in0.0 mm 0.00 in0.0 mm
01:31 AM 37.4°F3.0°C 30.9°F-0.6°C 77% 4.0 mph SE6.4 kmh SE 5.0 mph8.0 kmh 29.79 in1008.8 mb 0.00 in0.0 mm 0.00 in0.0 mm 0.00 in0.0 mm
01:32 AM 37.3°F2.9°C 31.1°F-0.5°C 78% 5.0 mph SE8.0 kmh SE 5.0 mph8.0 kmh 29.79 in1008.8 mb 0.00 in0.0 mm 0.00 in0.0 mm 0.00 in0.0 mm
01:33 AM 37.3°F2.9°C 31.1°F-0.5°C 78% 5.0 mph SE8.0 kmh SE 5.0 mph8.0 kmh 29.79 in1008.8 mb 0.00 in0.0 mm 0.00 in0.0 mm 0.00 in0.0 mm
01:34 AM 37.3°F2.9°C 31.1°F-0.5°C 78% Calm Calm 5.0 mph8.0 kmh 29.79 in1008.8 mb 0.00 in0.0 mm 0.00 in0.0 mm 0.00 in0.0 mm
01:35 AM 37.3°F2.9°C 31.1°F-0.5°C 78% 2.0 mph SE3.2 kmh SE 5.0 mph8.0 kmh 29.79 in1008.8 mb 0.00 in0.0 mm 0.00 in0.0 mm 0.00 in0.0 mm
01:36 AM 37.3°F2.9°C 31.1°F-0.5°C 78% 3.0 mph SE4.8 kmh SE 5.0 mph8.0 kmh 29.79 in1008.8 mb 0.00 in0.0 mm 0.00 in0.0 mm 0.00 in0.0 mm
01:37 AM 37.3°F2.9°C 31.1°F-0.5°C 78% Calm Calm 5.0 mph8.0 kmh 29.79 in1008.8 mb 0.00 in0.0 mm 0.00 in0.0 mm 0.00 in0.0 mm
01:38 AM 37.2°F2.9°C 31.0°F-0.6°C 78% 3.0 mph SE4.8 kmh SE 5.0 mph8.0 kmh 29.79 in1008.8 mb 0.00 in0.0 mm 0.00 in0.0 mm 0.00 in0.0 mm
01:39 AM 37.2°F2.9°C 31.0°F-0.6°C 78% 2.0 mph SE3.2 kmh SE 5.0 mph8.0 kmh 29.79 in1008.8 mb 0.00 in0.0 mm 0.00 in0.0 mm 0.00 in0.0 mm
01:40 AM 37.2°F2.9°C 31.0°F-0.6°C 78% 1.0 mph ESE1.6 kmh ESE 5.0 mph8.0 kmh 29.79 in1008.8 mb 0.00 in0.0 mm 0.00 in0.0 mm 0.00 in0.0 mm
01:41 AM 37.3°F2.9°C 31.1°F-0.5°C 78% Calm Calm 5.0 mph8.0 kmh 29.79 in1008.8 mb 0.00 in0.0 mm 0.00 in0.0 mm 0.00 in0.0 mm
01:42 AM 37.3°F2.9°C 31.1°F-0.5°C 78% Calm Calm 5.0 mph8.0 kmh 29.80 in1009.1 mb 0.00 in0.0 mm 0.00 in0.0 mm 0.00 in0.0 mm
01:43 AM 37.2°F2.9°C 31.0°F-0.6°C 78% Calm Calm 4.0 mph6.4 kmh 29.80 in1009.1 mb 0.00 in0.0 mm 0.00 in0.0 mm 0.00 in0.0 mm
01:44 AM 37.2°F2.9°C 31.0°F-0.6°C 78% Calm Calm 4.0 mph6.4 kmh 29.80 in1009.1 mb 0.00 in0.0 mm 0.00 in0.0 mm 0.00 in0.0 mm
01:45 AM 37.2°F2.9°C 31.0°F-0.6°C 78% Calm Calm 4.0 mph6.4 kmh 29.80 in1009.1 mb 0.00 in0.0 mm 0.00 in0.0 mm 0.00 in0.0 mm
01:46 AM 37.2°F2.9°C 31.0°F-0.6°C 78% 2.0 mph SE3.2 kmh SE 4.0 mph6.4 kmh 29.80 in1009.1 mb 0.00 in0.0 mm 0.00 in0.0 mm 0.00 in0.0 mm
01:47 AM 37.2°F2.9°C 30.7°F-0.7°C 77% 1.0 mph SSE1.6 kmh SSE 4.0 mph6.4 kmh 29.80 in1009.1 mb 0.00 in0.0 mm 0.00 in0.0 mm 0.00 in0.0 mm
01:48 AM 37.2°F2.9°C 30.7°F-0.7°C 77% 1.0 mph SE1.6 kmh SE 3.0 mph4.8 kmh 29.80 in1009.1 mb 0.00 in0.0 mm 0.00 in0.0 mm 0.00 in0.0 mm
01:49 AM 37.1°F2.8°C 30.6°F-0.8°C 77% Calm Calm 3.0 mph4.8 kmh 29.80 in1009.1 mb 0.00 in0.0 mm 0.00 in0.0 mm 0.00 in0.0 mm
01:50 AM 37.1°F2.8°C 30.6°F-0.8°C 77% Calm Calm 3.0 mph4.8 kmh 29.80 in1009.1 mb 0.00 in0.0 mm 0.00 in0.0 mm 0.00 in0.0 mm
01:51 AM 37.2°F2.9°C 30.7°F-0.7°C 77% Calm Calm 3.0 mph4.8 kmh 29.80 in1009.1 mb 0.00 in0.0 mm 0.00 in0.0 mm 0.00 in0.0 mm
01:52 AM 37.2°F2.9°C 30.7°F-0.7°C 77% Calm Calm 3.0 mph4.8 kmh 29.80 in1009.1 mb 0.00 in0.0 mm 0.00 in0.0 mm 0.00 in0.0 mm
01:53 AM 37.2°F2.9°C 30.7°F-0.7°C 77% Calm Calm 3.0 mph4.8 kmh 29.80 in1009.1 mb 0.00 in0.0 mm 0.00 in0.0 mm 0.00 in0.0 mm
01:54 AM 37.2°F2.9°C 30.7°F-0.7°C 77% Calm Calm 3.0 mph4.8 kmh 29.80 in1009.1 mb 0.00 in0.0 mm 0.00 in0.0 mm 0.00 in0.0 mm
01:55 AM 37.1°F2.8°C 30.6°F-0.8°C 77% 1.0 mph SSE1.6 kmh SSE 3.0 mph4.8 kmh 29.80 in1009.1 mb 0.00 in0.0 mm 0.00 in0.0 mm 0.00 in0.0 mm
01:56 AM 37.1°F2.8°C 30.6°F-0.8°C 77% 2.0 mph SSE3.2 kmh SSE 3.0 mph4.8 kmh 29.80 in1009.1 mb 0.00 in0.0 mm 0.00 in0.0 mm 0.00 in0.0 mm
01:57 AM 37.0°F2.8°C 30.5°F-0.8°C 77% 2.0 mph SSE3.2 kmh SSE 3.0 mph4.8 kmh 29.80 in1009.1 mb 0.00 in0.0 mm 0.00 in0.0 mm 0.00 in0.0 mm
01:58 AM 37.0°F2.8°C 30.5°F-0.8°C 77% 2.0 mph SE3.2 kmh SE 3.0 mph4.8 kmh 29.81 in1009.5 mb 0.00 in0.0 mm 0.00 in0.0 mm 0.00 in0.0 mm
01:59 AM 37.0°F2.8°C 30.5°F-0.8°C 77% 2.0 mph SE3.2 kmh SE 3.0 mph4.8 kmh 29.81 in1009.5 mb 0.00 in0.0 mm 0.00 in0.0 mm 0.00 in0.0 mm
02:00 AM 37.1°F2.8°C 30.6°F-0.8°C 77% 2.0 mph SE3.2 kmh SE 3.0 mph4.8 kmh 29.81 in1009.5 mb 0.00 in0.0 mm 0.00 in0.0 mm 0.00 in0.0 mm
02:01 AM 37.2°F2.9°C 30.3°F-0.9°C 76% 3.0 mph SE4.8 kmh SE 4.0 mph6.4 kmh 29.81 in1009.5 mb 0.00 in0.0 mm 0.00 in0.0 mm 0.00 in0.0 mm
02:02 AM 37.3°F2.9°C 30.4°F-0.9°C 76% 1.0 mph SE1.6 kmh SE 4.0 mph6.4 kmh 29.81 in1009.5 mb 0.00 in0.0 mm 0.00 in0.0 mm 0.00 in0.0 mm
02:03 AM 37.4°F3.0°C 30.5°F-0.8°C 76% 1.0 mph SE1.6 kmh SE 4.0 mph6.4 kmh 29.81 in1009.5 mb 0.00 in0.0 mm 0.00 in0.0 mm 0.00 in0.0 mm
02:04 AM 37.5°F3.1°C 30.6°F-0.8°C 76% Calm Calm 4.0 mph6.4 kmh 29.81 in1009.5 mb 0.00 in0.0 mm 0.00 in0.0 mm 0.00 in0.0 mm
02:05 AM 37.5°F3.1°C 30.6°F-0.8°C 76% Calm Calm 4.0 mph6.4 kmh 29.81 in1009.5 mb 0.00 in0.0 mm 0.00 in0.0 mm 0.00 in0.0 mm
02:06 AM 37.4°F3.0°C 30.5°F-0.8°C 76% 2.0 mph SSE3.2 kmh SSE 4.0 mph6.4 kmh 29.81 in1009.5 mb 0.00 in0.0 mm 0.00 in0.0 mm 0.00 in0.0 mm
02:07 AM 37.4°F3.0°C 30.5°F-0.8°C 76% Calm Calm 4.0 mph6.4 kmh 29.81 in1009.5 mb 0.00 in0.0 mm 0.00 in0.0 mm 0.00 in0.0 mm
02:08 AM 37.4°F3.0°C 30.5°F-0.8°C 76% Calm Calm 4.0 mph6.4 kmh 29.81 in1009.5 mb 0.00 in0.0 mm 0.00 in0.0 mm 0.00 in0.0 mm
02:09 AM 37.3°F2.9°C 30.4°F-0.9°C 76% Calm Calm 4.0 mph6.4 kmh 29.81 in1009.5 mb 0.00 in0.0 mm 0.00 in0.0 mm 0.00 in0.0 mm
02:10 AM 37.3°F2.9°C 30.4°F-0.9°C 76% Calm Calm 3.0 mph4.8 kmh 29.81 in1009.5 mb 0.00 in0.0 mm 0.00 in0.0 mm 0.00 in0.0 mm
02:11 AM 37.2°F2.9°C 30.3°F-0.9°C 76% Calm Calm 3.0 mph4.8 kmh 29.81 in1009.5 mb 0.00 in0.0 mm 0.00 in0.0 mm 0.00 in0.0 mm
02:12 AM 37.2°F2.9°C 30.3°F-0.9°C 76% Calm Calm 3.0 mph4.8 kmh 29.81 in1009.5 mb 0.00 in0.0 mm 0.00 in0.0 mm 0.00 in0.0 mm
02:13 AM 37.1°F2.8°C 30.2°F-1.0°C 76% Calm Calm 3.0 mph4.8 kmh 29.81 in1009.5 mb 0.00 in0.0 mm 0.00 in0.0 mm 0.00 in0.0 mm
02:14 AM 37.0°F2.8°C 30.2°F-1.0°C 76% Calm Calm 2.0 mph3.2 kmh 29.81 in1009.5 mb 0.00 in0.0 mm 0.00 in0.0 mm 0.00 in0.0 mm
02:15 AM 36.9°F2.7°C 30.1°F-1.1°C 76% Calm Calm 1.0 mph1.6 kmh 29.81 in1009.5 mb 0.00 in0.0 mm 0.00 in0.0 mm 0.00 in0.0 mm
02:16 AM 36.8°F2.7°C 30.3°F-0.9°C 77% 1.0 mph SSE1.6 kmh SSE 1.0 mph1.6 kmh 29.81 in1009.5 mb 0.00 in0.0 mm 0.00 in0.0 mm 0.00 in0.0 mm
02:17 AM 36.8°F2.7°C 30.0°F-1.1°C 76% 1.0 mph SSE1.6 kmh SSE 2.0 mph3.2 kmh 29.81 in1009.5 mb 0.00 in0.0 mm 0.00 in0.0 mm 0.00 in0.0 mm
02:18 AM 36.7°F2.6°C 29.9°F-1.2°C 76% 1.0 mph W1.6 kmh W 2.0 mph3.2 kmh 29.81 in1009.5 mb 0.00 in0.0 mm 0.00 in0.0 mm 0.00 in0.0 mm
02:19 AM 36.4°F2.4°C 29.2°F-1.6°C 75% Calm Calm 2.0 mph3.2 kmh 29.81 in1009.5 mb 0.00 in0.0 mm 0.00 in0.0 mm 0.00 in0.0 mm
02:20 AM 36.3°F2.4°C 29.5°F-1.4°C 76% 1.0 mph SSW1.6 kmh SSW 2.0 mph3.2 kmh 29.81 in1009.5 mb 0.00 in0.0 mm 0.00 in0.0 mm 0.00 in0.0 mm
02:21 AM 36.2°F2.3°C 29.7°F-1.3°C 77% 3.0 mph S4.8 kmh S 3.0 mph4.8 kmh 29.81 in1009.5 mb 0.00 in0.0 mm 0.00 in0.0 mm 0.00 in0.0 mm
02:22 AM 36.3°F2.4°C 29.5°F-1.4°C 76% 2.0 mph SSW3.2 kmh SSW 3.0 mph4.8 kmh 29.81 in1009.5 mb 0.00 in0.0 mm 0.00 in0.0 mm 0.00 in0.0 mm
02:23 AM 36.6°F2.6°C 29.1°F-1.6°C 74% Calm Calm 3.0 mph4.8 kmh 29.81 in1009.5 mb 0.00 in0.0 mm 0.00 in0.0 mm 0.00 in0.0 mm
02:24 AM 36.8°F2.7°C 29.0°F-1.7°C 73% Calm Calm 3.0 mph4.8 kmh 29.81 in1009.5 mb 0.00 in0.0 mm 0.00 in0.0 mm 0.00 in0.0 mm
02:25 AM 36.9°F2.7°C 29.1°F-1.6°C 73% Calm Calm 3.0 mph4.8 kmh 29.81 in1009.5 mb 0.00 in0.0 mm 0.00 in0.0 mm 0.00 in0.0 mm
02:26 AM 36.9°F2.7°C 29.4°F-1.4°C 74% Calm Calm 3.0 mph4.8 kmh 29.81 in1009.5 mb 0.00 in0.0 mm 0.00 in0.0 mm 0.00 in0.0 mm
02:27 AM 36.9°F2.7°C 29.4°F-1.4°C 74% Calm Calm 3.0 mph4.8 kmh 29.81 in1009.5 mb 0.00 in0.0 mm 0.00 in0.0 mm 0.00 in0.0 mm
02:28 AM 36.8°F2.7°C 29.3°F-1.5°C 74% 1.0 mph SSW1.6 kmh SSW 3.0 mph4.8 kmh 29.81 in1009.5 mb 0.00 in0.0 mm 0.00 in0.0 mm 0.00 in0.0 mm
02:29 AM 36.7°F2.6°C 29.5°F-1.4°C 75% 1.0 mph SSW1.6 kmh SSW 3.0 mph4.8 kmh 29.81 in1009.5 mb 0.00 in0.0 mm 0.00 in0.0 mm 0.00 in0.0 mm
02:30 AM 36.6°F2.6°C 29.4°F-1.4°C 75% Calm Calm 3.0 mph4.8 kmh 29.81 in1009.5 mb 0.00 in0.0 mm 0.00 in0.0 mm 0.00 in0.0 mm
02:31 AM 36.5°F2.5°C 29.3°F-1.5°C 75% Calm Calm 2.0 mph3.2 kmh 29.81 in1009.5 mb 0.00 in0.0 mm 0.00 in0.0 mm 0.00 in0.0 mm
02:32 AM 36.5°F2.5°C 29.3°F-1.5°C 75% Calm Calm 2.0 mph3.2 kmh 29.81 in1009.5 mb 0.00 in0.0 mm 0.00 in0.0 mm 0.00 in0.0 mm
02:33 AM 36.4°F2.4°C 29.2°F-1.6°C 75% Calm Calm 2.0 mph3.2 kmh 29.81 in1009.5 mb 0.00 in0.0 mm 0.00 in0.0 mm 0.00 in0.0 mm
02:34 AM 36.4°F2.4°C 29.6°F-1.3°C 76% Calm Calm 2.0 mph3.2 kmh 29.81 in1009.5 mb 0.00 in0.0 mm 0.00 in0.0 mm 0.00 in0.0 mm
02:35 AM 36.3°F2.4°C 29.5°F-1.4°C 76% Calm Calm 2.0 mph3.2 kmh 29.81 in1009.5 mb 0.00 in0.0 mm 0.00 in0.0 mm 0.00 in0.0 mm
02:36 AM 36.2°F2.3°C 29.4°F-1.4°C 76% 2.0 mph NE3.2 kmh NE 2.0 mph3.2 kmh 29.81 in1009.5 mb 0.00 in0.0 mm 0.00 in0.0 mm 0.00 in0.0 mm
02:37 AM 36.0°F2.2°C 29.2°F-1.6°C 76% Calm Calm 2.0 mph3.2 kmh 29.82 in1009.8 mb 0.00 in0.0 mm 0.00 in0.0 mm 0.00 in0.0 mm
02:38 AM 35.8°F2.1°C 29.0°F-1.7°C 76% Calm Calm 2.0 mph3.2 kmh 29.82 in1009.8 mb 0.00 in0.0 mm 0.00 in0.0 mm 0.00 in0.0 mm
02:39 AM 35.6°F2.0°C 29.1°F-1.6°C 77% Calm Calm 2.0 mph3.2 kmh 29.82 in1009.8 mb 0.00 in0.0 mm 0.00 in0.0 mm 0.00 in0.0 mm
02:40 AM 35.5°F1.9°C 29.0°F-1.7°C 77% Calm Calm 2.0 mph3.2 kmh 29.82 in1009.8 mb 0.00 in0.0 mm 0.00 in0.0 mm 0.00 in0.0 mm
02:41 AM 35.4°F1.9°C 28.9°F-1.7°C 77% Calm Calm 2.0 mph3.2 kmh 29.82 in1009.8 mb 0.00 in0.0 mm 0.00 in0.0 mm 0.00 in0.0 mm
02:42 AM 35.3°F1.8°C 28.8°F-1.8°C 77% Calm Calm 2.0 mph3.2 kmh 29.82 in1009.8 mb 0.00 in0.0 mm 0.00 in0.0 mm 0.00 in0.0 mm
02:43 AM 35.2°F1.8°C 29.0°F-1.7°C 78% Calm Calm 2.0 mph3.2 kmh 29.82 in1009.8 mb 0.00 in0.0 mm 0.00 in0.0 mm 0.00 in0.0 mm
02:44 AM 35.1°F1.7°C 28.9°F-1.7°C 78% Calm Calm 2.0 mph3.2 kmh 29.82 in1009.8 mb 0.00 in0.0 mm 0.00 in0.0 mm 0.00 in0.0 mm
02:45 AM 35.1°F1.7°C 28.9°F-1.7°C 78% Calm Calm 2.0 mph3.2 kmh 29.82 in1009.8 mb 0.00 in0.0 mm 0.00 in0.0 mm 0.00 in0.0 mm
02:46 AM 35.0°F1.7°C 28.8°F-1.8°C 78% Calm Calm -- 29.82 in1009.8 mb 0.00 in0.0 mm 0.00 in0.0 mm 0.00 in0.0 mm
02:47 AM 34.9°F1.6°C 28.8°F-1.8°C 78% Calm Calm -- 29.82 in1009.8 mb 0.00 in0.0 mm 0.00 in0.0 mm 0.00 in0.0 mm
02:48 AM 34.9°F1.6°C 28.8°F-1.8°C 78% Calm Calm -- 29.82 in1009.8 mb 0.00 in0.0 mm 0.00 in0.0 mm 0.00 in0.0 mm
02:49 AM 34.9°F1.6°C 29.1°F-1.6°C 79% 1.0 mph SSE1.6 kmh SSE 1.0 mph1.6 kmh 29.82 in1009.8 mb 0.00 in0.0 mm 0.00 in0.0 mm 0.00 in0.0 mm
02:50 AM 34.9°F1.6°C 29.1°F-1.6°C 79% 1.0 mph SSE1.6 kmh SSE 3.0 mph4.8 kmh 29.82 in1009.8 mb 0.00 in0.0 mm 0.00 in0.0 mm 0.00 in0.0 mm
02:51 AM 34.9°F1.6°C 29.1°F-1.6°C 79% Calm Calm 3.0 mph4.8 kmh 29.82 in1009.8 mb 0.00 in0.0 mm 0.00 in0.0 mm 0.00 in0.0 mm
02:52 AM 34.9°F1.6°C 29.1°F-1.6°C 79% Calm Calm 3.0 mph4.8 kmh 29.82 in1009.8 mb 0.00 in0.0 mm 0.00 in0.0 mm 0.00 in0.0 mm
02:53 AM 34.9°F1.6°C 29.1°F-1.6°C 79% Calm Calm 3.0 mph4.8 kmh 29.82 in1009.8 mb 0.00 in0.0 mm 0.00 in0.0 mm 0.00 in0.0 mm
02:54 AM 34.9°F1.6°C 29.1°F-1.6°C 79% Calm Calm 3.0 mph4.8 kmh 29.82 in1009.8 mb 0.00 in0.0 mm 0.00 in0.0 mm 0.00 in0.0 mm
02:55 AM 34.9°F1.6°C 29.4°F-1.4°C 80% Calm Calm 3.0 mph4.8 kmh 29.82 in1009.8 mb 0.00 in0.0 mm 0.00 in0.0 mm 0.00 in0.0 mm
02:56 AM 35.0°F1.7°C 29.5°F-1.4°C 80% Calm Calm 3.0 mph4.8 kmh 29.82 in1009.8 mb 0.00 in0.0 mm 0.00 in0.0 mm 0.00 in0.0 mm
02:57 AM 35.0°F1.7°C 29.5°F-1.4°C 80% 1.0 mph SE1.6 kmh SE 3.0 mph4.8 kmh 29.82 in1009.8 mb 0.00 in0.0 mm 0.00 in0.0 mm 0.00 in0.0 mm
02:58 AM 35.0°F1.7°C 29.5°F-1.4°C 80% Calm Calm 3.0 mph4.8 kmh 29.82 in1009.8 mb 0.00 in0.0 mm 0.00 in0.0 mm 0.00 in0.0 mm
02:59 AM 35.0°F1.7°C 29.5°F-1.4°C 80% Calm Calm 2.0 mph3.2 kmh 29.82 in1009.8 mb 0.00 in0.0 mm 0.00 in0.0 mm 0.00 in0.0 mm
03:00 AM 35.0°F1.7°C 29.5°F-1.4°C 80% Calm Calm 2.0 mph3.2 kmh 29.82 in1009.8 mb 0.00 in0.0 mm 0.00 in0.0 mm 0.00 in0.0 mm
03:01 AM 34.9°F1.6°C 29.4°F-1.4°C 80% Calm Calm 2.0 mph3.2 kmh 29.82 in1009.8 mb 0.00 in0.0 mm 0.00 in0.0 mm 0.00 in0.0 mm
03:02 AM 34.9°F1.6°C 29.4°F-1.4°C 80% 1.0 mph SSE1.6 kmh SSE 2.0 mph3.2 kmh 29.82 in1009.8 mb 0.00 in0.0 mm 0.00 in0.0 mm 0.00 in0.0 mm
03:03 AM 34.9°F1.6°C 29.4°F-1.4°C 80% Calm Calm 2.0 mph3.2 kmh 29.82 in1009.8 mb 0.00 in0.0 mm 0.00 in0.0 mm 0.00 in0.0 mm
03:04 AM 34.9°F1.6°C 29.4°F-1.4°C 80% Calm Calm 2.0 mph3.2 kmh 29.82 in1009.8 mb 0.00 in0.0 mm 0.00 in0.0 mm 0.00 in0.0 mm
03:05 AM 34.9°F1.6°C 29.7°F-1.3°C 81% Calm Calm 2.0 mph3.2 kmh 29.82 in1009.8 mb 0.00 in0.0 mm 0.00 in0.0 mm 0.00 in0.0 mm
03:06 AM 34.9°F1.6°C 29.7°F-1.3°C 81% 1.0 mph SE1.6 kmh SE 2.0 mph3.2 kmh 29.82 in1009.8 mb 0.00 in0.0 mm 0.00 in0.0 mm 0.00 in0.0 mm
03:07 AM 34.9°F1.6°C 29.7°F-1.3°C 81% 1.0 mph SE1.6 kmh SE 2.0 mph3.2 kmh 29.82 in1009.8 mb 0.00 in0.0 mm 0.00 in0.0 mm 0.00 in0.0 mm
03:08 AM 34.9°F1.6°C 29.7°F-1.3°C 81% 1.0 mph SE1.6 kmh SE 2.0 mph3.2 kmh 29.82 in1009.8 mb 0.00 in0.0 mm 0.00 in0.0 mm 0.00 in0.0 mm
03:09 AM 34.9°F1.6°C 29.7°F-1.3°C 81% Calm Calm 2.0 mph3.2 kmh 29.82 in1009.8 mb 0.00 in0.0 mm 0.00 in0.0 mm 0.00 in0.0 mm
03:10 AM 34.9°F1.6°C 29.7°F-1.3°C 81% Calm Calm 2.0 mph3.2 kmh 29.82 in1009.8 mb 0.00 in0.0 mm 0.00 in0.0 mm 0.00 in0.0 mm
03:11 AM 34.8°F1.6°C 29.6°F-1.3°C 81% Calm Calm 2.0 mph3.2 kmh 29.82 in1009.8 mb 0.00 in0.0 mm 0.00 in0.0 mm 0.00 in0.0 mm
03:12 AM 34.8°F1.6°C 29.9°F-1.2°C 82% Calm Calm 2.0 mph3.2 kmh 29.82 in1009.8 mb 0.00 in0.0 mm 0.00 in0.0 mm 0.00 in0.0 mm
03:13 AM 34.8°F1.6°C 29.9°F-1.2°C 82% Calm Calm 2.0 mph3.2 kmh 29.82 in1009.8 mb 0.00 in0.0 mm 0.00 in0.0 mm 0.00 in0.0 mm
03:14 AM 34.8°F1.6°C 29.9°F-1.2°C 82% 1.0 mph SE1.6 kmh SE 2.0 mph3.2 kmh 29.82 in1009.8 mb 0.00 in0.0 mm 0.00 in0.0 mm 0.00 in0.0 mm
03:15 AM 34.7°F1.5°C 29.8°F-1.2°C 82% Calm Calm 2.0 mph3.2 kmh 29.82 in1009.8 mb 0.00 in0.0 mm 0.00 in0.0 mm 0.00 in0.0 mm
03:16 AM 34.7°F1.5°C 29.8°F-1.2°C 82% Calm Calm 2.0 mph3.2 kmh 29.83 in1010.2 mb 0.00 in0.0 mm 0.00 in0.0 mm 0.00 in0.0 mm
03:17 AM 34.7°F1.5°C 29.8°F-1.2°C 82% Calm Calm 2.0 mph3.2 kmh 29.83 in1010.2 mb 0.00 in0.0 mm 0.00 in0.0 mm 0.00 in0.0 mm
03:18 AM 34.7°F1.5°C 30.1°F-1.1°C 83% 1.0 mph SE1.6 kmh SE 2.0 mph3.2 kmh 29.82 in1009.8 mb 0.00 in0.0 mm 0.00 in0.0 mm 0.00 in0.0 mm
03:19 AM 34.7°F1.5°C 30.1°F-1.1°C 83% 1.0 mph SE1.6 kmh SE 2.0 mph3.2 kmh 29.82 in1009.8 mb 0.00 in0.0 mm 0.00 in0.0 mm 0.00 in0.0 mm
03:20 AM 34.7°F1.5°C 30.1°F-1.1°C 83% 1.0 mph SE1.6 kmh SE 2.0 mph3.2 kmh 29.82 in1009.8 mb 0.00 in0.0 mm 0.00 in0.0 mm 0.00 in0.0 mm
03:21 AM 34.7°F1.5°C 30.1°F-1.1°C 83% Calm Calm 2.0 mph3.2 kmh 29.82 in1009.8 mb 0.00 in0.0 mm 0.00 in0.0 mm 0.00 in0.0 mm
03:22 AM 34.7°F1.5°C 30.1°F-1.1°C 83% Calm Calm 2.0 mph3.2 kmh 29.82 in1009.8 mb 0.00 in0.0 mm 0.00 in0.0 mm 0.00 in0.0 mm
03:23 AM 34.6°F1.4°C 30.0°F-1.1°C 83% Calm Calm 2.0 mph3.2 kmh 29.83 in1010.2 mb 0.00 in0.0 mm 0.00 in0.0 mm 0.00 in0.0 mm
03:24 AM 34.6°F1.4°C 30.0°F-1.1°C 83% Calm Calm 2.0 mph3.2 kmh 29.83 in1010.2 mb 0.00 in0.0 mm 0.00 in0.0 mm 0.00 in0.0 mm
03:25 AM 34.5°F1.4°C 29.9°F-1.2°C 83% Calm Calm 2.0 mph3.2 kmh 29.83 in1010.2 mb 0.00 in0.0 mm 0.00 in0.0 mm 0.00 in0.0 mm
03:26 AM 34.5°F1.4°C 29.9°F-1.2°C 83% 2.0 mph SE3.2 kmh SE 2.0 mph3.2 kmh 29.83 in1010.2 mb 0.00 in0.0 mm 0.00 in0.0 mm 0.00 in0.0 mm
03:27 AM 34.5°F1.4°C 29.9°F-1.2°C 83% Calm Calm 2.0 mph3.2 kmh 29.83 in1010.2 mb 0.00 in0.0 mm 0.00 in0.0 mm 0.00 in0.0 mm
03:28 AM 34.4°F1.3°C 29.8°F-1.2°C 83% Calm Calm 2.0 mph3.2 kmh 29.83 in1010.2 mb 0.00 in0.0 mm 0.00 in0.0 mm 0.00 in0.0 mm
03:29 AM 34.4°F1.3°C 30.1°F-1.1°C 84% 3.0 mph SE4.8 kmh SE 3.0 mph4.8 kmh 29.83 in1010.2 mb 0.00 in0.0 mm 0.00 in0.0 mm 0.00 in0.0 mm
03:30 AM 34.4°F1.3°C 30.1°F-1.1°C 84% 2.0 mph SE3.2 kmh SE 4.0 mph6.4 kmh 29.83 in1010.2 mb 0.00 in0.0 mm 0.00 in0.0 mm 0.00 in0.0 mm
03:31 AM 34.4°F1.3°C 30.1°F-1.1°C 84% Calm Calm 4.0 mph6.4 kmh 29.83 in1010.2 mb 0.00 in0.0 mm 0.00 in0.0 mm 0.00 in0.0 mm
03:32 AM 34.3°F1.3°C 30.0°F-1.1°C 84% Calm Calm 4.0 mph6.4 kmh 29.83 in1010.2 mb 0.00 in0.0 mm 0.00 in0.0 mm 0.00 in0.0 mm
03:33 AM 34.3°F1.3°C 30.0°F-1.1°C 84% 2.0 mph SE3.2 kmh SE 4.0 mph6.4 kmh 29.83 in1010.2 mb 0.00 in0.0 mm 0.00 in0.0 mm 0.00 in0.0 mm
03:34 AM 34.2°F1.2°C 29.9°F-1.2°C 84% 3.0 mph SE4.8 kmh SE 4.0 mph6.4 kmh 29.83 in1010.2 mb 0.00 in0.0 mm 0.00 in0.0 mm 0.00 in0.0 mm
03:35 AM 34.2°F1.2°C 29.9°F-1.2°C 84% Calm Calm 4.0 mph6.4 kmh 29.83 in1010.2 mb 0.00 in0.0 mm 0.00 in0.0 mm 0.00 in0.0 mm
03:36 AM 34.1°F1.2°C 30.1°F-1.1°C 85% Calm Calm 4.0 mph6.4 kmh 29.83 in1010.2 mb 0.00 in0.0 mm 0.00 in0.0 mm 0.00 in0.0 mm
03:37 AM 34.1°F1.2°C 30.1°F-1.1°C 85% Calm Calm 4.0 mph6.4 kmh 29.83 in1010.2 mb 0.00 in0.0 mm 0.00 in0.0 mm 0.00 in0.0 mm
03:38 AM 34.0°F1.1°C 30.0°F-1.1°C 85% 3.0 mph SE4.8 kmh SE 4.0 mph6.4 kmh 29.83 in1010.2 mb 0.00 in0.0 mm 0.00 in0.0 mm 0.00 in0.0 mm
03:39 AM 34.0°F1.1°C 30.0°F-1.1°C 85% 2.0 mph SE3.2 kmh SE 4.0 mph6.4 kmh 29.83 in1010.2 mb 0.00 in0.0 mm 0.00 in0.0 mm 0.00 in0.0 mm
03:40 AM 34.0°F1.1°C 30.0°F-1.1°C 85% Calm Calm 4.0 mph6.4 kmh 29.83 in1010.2 mb 0.00 in0.0 mm 0.00 in0.0 mm 0.00 in0.0 mm
03:41 AM 34.0°F1.1°C 30.0°F-1.1°C 85% Calm Calm 4.0 mph6.4 kmh 29.83 in1010.2 mb 0.00 in0.0 mm 0.00 in0.0 mm 0.00 in0.0 mm
03:42 AM 33.9°F1.1°C 30.2°F-1.0°C 86% 2.0 mph SE3.2 kmh SE 4.0 mph6.4 kmh 29.83 in1010.2 mb 0.00 in0.0 mm 0.00 in0.0 mm 0.00 in0.0 mm
03:43 AM 33.9°F1.1°C 30.2°F-1.0°C 86% 1.0 mph SE1.6 kmh SE 3.0 mph4.8 kmh 29.84 in1010.5 mb 0.00 in0.0 mm 0.00 in0.0 mm 0.00 in0.0 mm
03:44 AM 33.8°F1.0°C 30.1°F-1.1°C 86% 1.0 mph ESE1.6 kmh ESE 3.0 mph4.8 kmh 29.83 in1010.2 mb 0.00 in0.0 mm 0.00 in0.0 mm 0.00 in0.0 mm
03:45 AM 33.8°F1.0°C 30.1°F-1.1°C 86% Calm Calm 3.0 mph4.8 kmh 29.83 in1010.2 mb 0.00 in0.0 mm 0.00 in0.0 mm 0.00 in0.0 mm
03:46 AM 33.8°F1.0°C 30.1°F-1.1°C 86% Calm Calm 3.0 mph4.8 kmh 29.83 in1010.2 mb 0.00 in0.0 mm 0.00 in0.0 mm 0.00 in0.0 mm
03:47 AM 33.7°F0.9°C 30.0°F-1.1°C 86% Calm Calm 3.0 mph4.8 kmh 29.83 in1010.2 mb 0.00 in0.0 mm 0.00 in0.0 mm 0.00 in0.0 mm
03:48 AM 33.7°F0.9°C 30.0°F-1.1°C 86% Calm Calm 3.0 mph4.8 kmh 29.83 in1010.2 mb 0.00 in0.0 mm 0.00 in0.0 mm 0.00 in0.0 mm
03:49 AM 33.7°F0.9°C 30.0°F-1.1°C 86% Calm Calm 3.0 mph4.8 kmh 29.83 in1010.2 mb 0.00 in0.0 mm 0.00 in0.0 mm 0.00 in0.0 mm
03:50 AM 33.6°F0.9°C 29.9°F-1.2°C 86% Calm Calm 3.0 mph4.8 kmh 29.83 in1010.2 mb 0.00 in0.0 mm 0.00 in0.0 mm 0.00 in0.0 mm
03:51 AM 33.6°F0.9°C 29.9°F-1.2°C 86% Calm Calm 3.0 mph4.8 kmh 29.83 in1010.2 mb 0.00 in0.0 mm 0.00 in0.0 mm 0.00 in0.0 mm
03:52 AM 33.6°F0.9°C 29.9°F-1.2°C 86% Calm Calm 3.0 mph4.8 kmh 29.83 in1010.2 mb 0.00 in0.0 mm 0.00 in0.0 mm 0.00 in0.0 mm
03:53 AM 33.5°F0.8°C 29.8°F-1.2°C 86% Calm Calm 1.0 mph1.6 kmh 29.83 in1010.2 mb 0.00 in0.0 mm 0.00 in0.0 mm 0.00 in0.0 mm
03:54 AM 33.5°F0.8°C 29.8°F-1.2°C 86% Calm Calm 1.0 mph1.6 kmh 29.83 in1010.2 mb 0.00 in0.0 mm 0.00 in0.0 mm 0.00 in0.0 mm
03:55 AM 33.4°F0.8°C 29.7°F-1.3°C 86% Calm Calm 1.0 mph1.6 kmh 29.83 in1010.2 mb 0.00 in0.0 mm 0.00 in0.0 mm 0.00 in0.0 mm
03:56 AM 33.4°F0.8°C 29.7°F-1.3°C 86% Calm Calm 1.0 mph1.6 kmh 29.83 in1010.2 mb 0.00 in0.0 mm 0.00 in0.0 mm 0.00 in0.0 mm
03:57 AM 33.3°F0.7°C 29.6°F-1.3°C 86% Calm Calm 1.0 mph1.6 kmh 29.83 in1010.2 mb 0.00 in0.0 mm 0.00 in0.0 mm 0.00 in0.0 mm
03:58 AM 33.3°F0.7°C 29.6°F-1.3°C 86% Calm Calm 1.0 mph1.6 kmh 29.84 in1010.5 mb 0.00 in0.0 mm 0.00 in0.0 mm 0.00 in0.0 mm
03:59 AM 33.2°F0.7°C 29.5°F-1.4°C 86% Calm Calm 1.0 mph1.6 kmh 29.84 in1010.5 mb 0.00 in0.0 mm 0.00 in0.0 mm 0.00 in0.0 mm
04:00 AM 33.1°F0.6°C 29.4°F-1.4°C 86% Calm Calm 1.0 mph1.6 kmh 29.83 in1010.2 mb 0.00 in0.0 mm 0.00 in0.0 mm 0.00 in0.0 mm
04:01 AM 33.0°F0.6°C 29.3°F-1.5°C 86% Calm Calm 1.0 mph1.6 kmh 29.83 in1010.2 mb 0.00 in0.0 mm 0.00 in0.0 mm 0.00 in0.0 mm
04:02 AM 32.9°F0.5°C 29.2°F-1.6°C 86% Calm Calm 1.0 mph1.6 kmh 29.83 in1010.2 mb 0.00 in0.0 mm 0.00 in0.0 mm 0.00 in0.0 mm
04:03 AM 32.8°F0.4°C 29.1°F-1.6°C 86% Calm Calm 1.0 mph1.6 kmh 29.83 in1010.2 mb 0.00 in0.0 mm 0.00 in0.0 mm 0.00 in0.0 mm
04:04 AM 32.7°F0.4°C 29.0°F-1.7°C 86% Calm Calm -- 29.84 in1010.5 mb 0.00 in0.0 mm 0.00 in0.0 mm 0.00 in0.0 mm
04:05 AM 32.5°F0.3°C 28.8°F-1.8°C 86% Calm Calm -- 29.84 in1010.5 mb 0.00 in0.0 mm 0.00 in0.0 mm 0.00 in0.0 mm
04:06 AM 32.4°F0.2°C 28.7°F-1.8°C 86% Calm Calm -- 29.84 in1010.5 mb 0.00 in0.0 mm 0.00 in0.0 mm 0.00 in0.0 mm
04:07 AM 32.3°F0.2°C 28.6°F-1.9°C 86% Calm Calm -- 29.84 in1010.5 mb 0.00 in0.0 mm 0.00 in0.0 mm 0.00 in0.0 mm
04:08 AM 32.1°F0.1°C 28.4°F-2.0°C 86% Calm Calm -- 29.84 in1010.5 mb 0.00 in0.0 mm 0.00 in0.0 mm 0.00 in0.0 mm
04:09 AM 32.0°F0.0°C 28.3°F-2.1°C 86% Calm Calm -- 29.84 in1010.5 mb 0.00 in0.0 mm 0.00 in0.0 mm 0.00 in0.0 mm
04:10 AM 31.9°F-0.1°C 28.2°F-2.1°C 86% Calm Calm -- 29.84 in1010.5 mb 0.00 in0.0 mm 0.00 in0.0 mm 0.00 in0.0 mm
04:11 AM 31.8°F-0.1°C 28.1°F-2.2°C 86% Calm Calm -- 29.84 in1010.5 mb 0.00 in0.0 mm 0.00 in0.0 mm 0.00 in0.0 mm
04:12 AM 31.7°F-0.2°C 28.3°F-2.1°C 87% Calm Calm -- 29.84 in1010.5 mb 0.00 in0.0 mm 0.00 in0.0 mm 0.00 in0.0 mm
04:13 AM 31.6°F-0.2°C 28.2°F-2.1°C 87% Calm Calm -- 29.84 in1010.5 mb 0.00 in0.0 mm 0.00 in0.0 mm 0.00 in0.0 mm
04:14 AM 31.6°F-0.2°C 28.2°F-2.1°C 87% Calm Calm -- 29.84 in1010.5 mb 0.00 in0.0 mm 0.00 in0.0 mm 0.00 in0.0 mm
04:15 AM 31.6°F-0.2°C 28.2°F-2.1°C 87% 2.0 mph NW3.2 kmh NW 2.0 mph3.2 kmh 29.84 in1010.5 mb 0.00 in0.0 mm 0.00 in0.0 mm 0.00 in0.0 mm
04:16 AM 31.4°F-0.3°C 28.0°F-2.2°C 87% 2.0 mph NW3.2 kmh NW 3.0 mph4.8 kmh 29.84 in1010.5 mb 0.00 in0.0 mm 0.00 in0.0 mm 0.00 in0.0 mm
04:17 AM 31.3°F-0.4°C 27.9°F-2.3°C 87% Calm Calm 3.0 mph4.8 kmh 29.84 in1010.5 mb 0.00 in0.0 mm 0.00 in0.0 mm 0.00 in0.0 mm
04:18 AM 31.2°F-0.4°C 27.8°F-2.3°C 87% Calm Calm 3.0 mph4.8 kmh 29.84 in1010.5 mb 0.00 in0.0 mm 0.00 in0.0 mm 0.00 in0.0 mm
04:19 AM 31.1°F-0.5°C 28.0°F-2.2°C 88% Calm Calm 3.0 mph4.8 kmh 29.84 in1010.5 mb 0.00 in0.0 mm 0.00 in0.0 mm 0.00 in0.0 mm
04:20 AM 31.1°F-0.5°C 28.0°F-2.2°C 88% Calm Calm 3.0 mph4.8 kmh 29.84 in1010.5 mb 0.00 in0.0 mm 0.00 in0.0 mm 0.00 in0.0 mm
04:21 AM 31.0°F-0.6°C 27.9°F-2.3°C 88% Calm Calm 3.0 mph4.8 kmh 29.84 in1010.5 mb 0.00 in0.0 mm 0.00 in0.0 mm 0.00 in0.0 mm
04:22 AM 31.0°F-0.6°C 27.9°F-2.3°C 88% Calm Calm 3.0 mph4.8 kmh 29.85 in1010.8 mb 0.00 in0.0 mm 0.00 in0.0 mm 0.00 in0.0 mm
04:23 AM 31.0°F-0.6°C 28.1°F-2.2°C 89% Calm Calm 3.0 mph4.8 kmh 29.85 in1010.8 mb 0.00 in0.0 mm 0.00 in0.0 mm 0.00 in0.0 mm
04:24 AM 31.0°F-0.6°C 28.1°F-2.2°C 89% Calm Calm 3.0 mph4.8 kmh 29.85 in1010.8 mb 0.00 in0.0 mm 0.00 in0.0 mm 0.00 in0.0 mm
04:25 AM 31.0°F-0.6°C 28.1°F-2.2°C 89% Calm Calm 2.0 mph3.2 kmh 29.85 in1010.8 mb 0.00 in0.0 mm 0.00 in0.0 mm 0.00 in0.0 mm
04:26 AM 31.0°F-0.6°C 28.1°F-2.2°C 89% Calm Calm -- 29.85 in1010.8 mb 0.00 in0.0 mm 0.00 in0.0 mm 0.00 in0.0 mm
04:27 AM 31.1°F-0.5°C 28.2°F-2.1°C 89% Calm Calm -- 29.85 in1010.8 mb 0.00 in0.0 mm 0.00 in0.0 mm 0.00 in0.0 mm
04:28 AM 31.1°F-0.5°C 28.2°F-2.1°C 89% Calm Calm -- 29.85 in1010.8 mb 0.00 in0.0 mm 0.00 in0.0 mm 0.00 in0.0 mm
04:29 AM 31.1°F-0.5°C 28.2°F-2.1°C 89% Calm Calm -- 29.85 in1010.8 mb 0.00 in0.0 mm 0.00 in0.0 mm 0.00 in0.0 mm
04:30 AM 31.1°F-0.5°C 28.2°F-2.1°C 89% Calm Calm -- 29.85 in1010.8 mb 0.00 in0.0 mm 0.00 in0.0 mm 0.00 in0.0 mm
04:31 AM 31.1°F-0.5°C 28.2°F-2.1°C 89% Calm Calm -- 29.85 in1010.8 mb 0.00 in0.0 mm 0.00 in0.0 mm 0.00 in0.0 mm
04:32 AM 31.0°F-0.6°C 28.1°F-2.2°C 89% Calm Calm -- 29.85 in1010.8 mb 0.00 in0.0 mm 0.00 in0.0 mm 0.00 in0.0 mm
04:33 AM 31.0°F-0.6°C 28.1°F-2.2°C 89% Calm Calm -- 29.85 in1010.8 mb 0.00 in0.0 mm 0.00 in0.0 mm 0.00 in0.0 mm
04:34 AM 30.9°F-0.6°C 28.0°F-2.2°C 89% Calm Calm -- 29.85 in1010.8 mb 0.00 in0.0 mm 0.00 in0.0 mm 0.00 in0.0 mm
04:35 AM 30.9°F-0.6°C 28.0°F-2.2°C 89% Calm Calm -- 29.85 in1010.8 mb 0.00 in0.0 mm 0.00 in0.0 mm 0.00 in0.0 mm
04:36 AM 30.8°F-0.7°C 27.9°F-2.3°C 89% Calm Calm -- 29.85 in1010.8 mb 0.00 in0.0 mm 0.00 in0.0 mm 0.00 in0.0 mm
04:37 AM 30.7°F-0.7°C 27.8°F-2.3°C 89% Calm Calm -- 29.85 in1010.8 mb 0.00 in0.0 mm 0.00 in0.0 mm 0.00 in0.0 mm
04:38 AM 30.7°F-0.7°C 27.8°F-2.3°C 89% Calm Calm -- 29.85 in1010.8 mb 0.00 in0.0 mm 0.00 in0.0 mm 0.00 in0.0 mm
04:39 AM 30.6°F-0.8°C 27.8°F-2.3°C 89% Calm Calm -- 29.85 in1010.8 mb 0.00 in0.0 mm 0.00 in0.0 mm 0.00 in0.0 mm
04:40 AM 30.6°F-0.8°C 27.8°F-2.3°C 89% Calm Calm -- 29.85 in1010.8 mb 0.00 in0.0 mm 0.00 in0.0 mm 0.00 in0.0 mm
04:41 AM 30.6°F-0.8°C 27.8°F-2.3°C 89% Calm Calm -- 29.85 in1010.8 mb 0.00 in0.0 mm 0.00 in0.0 mm 0.00 in0.0 mm
04:42 AM 30.6°F-0.8°C 27.8°F-2.3°C 89% Calm Calm -- 29.85 in1010.8 mb 0.00 in0.0 mm 0.00 in0.0 mm 0.00 in0.0 mm
04:43 AM 30.6°F-0.8°C 27.8°F-2.3°C 89% Calm Calm -- 29.85 in1010.8 mb 0.00 in0.0 mm 0.00 in0.0 mm 0.00 in0.0 mm
04:44 AM 30.6°F-0.8°C 28.0°F-2.2°C 90% Calm Calm -- 29.85 in1010.8 mb 0.00 in0.0 mm 0.00 in0.0 mm 0.00 in0.0 mm
04:45 AM 30.6°F-0.8°C 27.8°F-2.3°C 89% Calm Calm -- 29.85 in1010.8 mb 0.00 in0.0 mm 0.00 in0.0 mm 0.00 in0.0 mm
04:46 AM 30.7°F-0.7°C 28.1°F-2.2°C 90% Calm Calm -- 29.85 in1010.8 mb 0.00 in0.0 mm 0.00 in0.0 mm 0.00 in0.0 mm
04:47 AM 30.7°F-0.7°C 28.1°F-2.2°C 90% Calm Calm 1.0 mph1.6 kmh 29.85 in1010.8 mb 0.00 in0.0 mm 0.00 in0.0 mm 0.00 in0.0 mm
04:48 AM 30.8°F-0.7°C 28.2°F-2.1°C 90% Calm Calm -- 29.85 in1010.8 mb 0.00 in0.0 mm 0.00 in0.0 mm 0.00 in0.0 mm
04:49 AM 30.9°F-0.6°C 28.3°F-2.1°C 90% Calm Calm -- 29.85 in1010.8 mb 0.00 in0.0 mm 0.00 in0.0 mm 0.00 in0.0 mm
04:50 AM 31.0°F-0.6°C 28.4°F-2.0°C 90% Calm Calm -- 29.85 in1010.8 mb 0.00 in0.0 mm 0.00 in0.0 mm 0.00 in0.0 mm
04:51 AM 31.0°F-0.6°C 28.4°F-2.0°C 90% Calm Calm -- 29.85 in1010.8 mb 0.00 in0.0 mm 0.00 in0.0 mm 0.00 in0.0 mm
04:52 AM 31.1°F-0.5°C 28.5°F-1.9°C 90% Calm Calm -- 29.85 in1010.8 mb 0.00 in0.0 mm 0.00 in0.0 mm 0.00 in0.0 mm
04:53 AM 31.0°F-0.6°C 28.4°F-2.0°C 90% Calm Calm -- 29.85 in1010.8 mb 0.00 in0.0 mm 0.00 in0.0 mm 0.00 in0.0 mm
04:54 AM 30.9°F-0.6°C 28.0°F-2.2°C 89% Calm Calm -- 29.86 in1011.2 mb 0.00 in0.0 mm 0.00 in0.0 mm 0.00 in0.0 mm
04:55 AM 30.8°F-0.7°C 27.9°F-2.3°C 89% Calm Calm -- 29.86 in1011.2 mb 0.00 in0.0 mm 0.00 in0.0 mm 0.00 in0.0 mm
04:56 AM 30.8°F-0.7°C 27.9°F-2.3°C 89% Calm Calm -- 29.85 in1010.8 mb 0.00 in0.0 mm 0.00 in0.0 mm 0.00 in0.0 mm
04:57 AM 30.7°F-0.7°C 27.8°F-2.3°C 89% Calm Calm -- 29.86 in1011.2 mb 0.00 in0.0 mm 0.00 in0.0 mm 0.00 in0.0 mm
04:58 AM 30.6°F-0.8°C 27.8°F-2.3°C 89% Calm Calm -- 29.85 in1010.8 mb 0.00 in0.0 mm 0.00 in0.0 mm 0.00 in0.0 mm
04:59 AM 30.6°F-0.8°C 27.8°F-2.3°C 89% Calm Calm -- 29.85 in1010.8 mb 0.00 in0.0 mm 0.00 in0.0 mm 0.00 in0.0 mm
05:00 AM 30.6°F-0.8°C 27.8°F-2.3°C 89% Calm Calm -- 29.85 in1010.8 mb 0.00 in0.0 mm 0.00 in0.0 mm 0.00 in0.0 mm
05:01 AM 30.5°F-0.8°C 27.7°F-2.4°C 89% Calm Calm -- 29.85 in1010.8 mb 0.00 in0.0 mm 0.00 in0.0 mm 0.00 in0.0 mm
05:02 AM 30.4°F-0.9°C 27.6°F-2.4°C 89% 1.0 mph W1.6 kmh W 1.0 mph1.6 kmh 29.85 in1010.8 mb 0.00 in0.0 mm 0.00 in0.0 mm 0.00 in0.0 mm
05:03 AM 30.2°F-1.0°C 27.4°F-2.6°C 89% Calm Calm 1.0 mph1.6 kmh 29.86 in1011.2 mb 0.00 in0.0 mm 0.00 in0.0 mm 0.00 in0.0 mm
05:04 AM 30.0°F-1.1°C 26.9°F-2.8°C 88% 1.0 mph W1.6 kmh W 1.0 mph1.6 kmh 29.86 in1011.2 mb 0.00 in0.0 mm 0.00 in0.0 mm 0.00 in0.0 mm
05:05 AM 29.9°F-1.2°C 27.1°F-2.7°C 89% Calm Calm 1.0 mph1.6 kmh 29.86 in1011.2 mb 0.00 in0.0 mm 0.00 in0.0 mm 0.00 in0.0 mm
05:06 AM 29.8°F-1.2°C 27.0°F-2.8°C 89% Calm Calm 1.0 mph1.6 kmh 29.86 in1011.2 mb 0.00 in0.0 mm 0.00 in0.0 mm 0.00 in0.0 mm
05:07 AM 29.8°F-1.2°C 27.0°F-2.8°C 89% Calm Calm 1.0 mph1.6 kmh 29.86 in1011.2 mb 0.00 in0.0 mm 0.00 in0.0 mm 0.00 in0.0 mm
05:08 AM 29.7°F-1.3°C 26.9°F-2.8°C 89% Calm Calm 1.0 mph1.6 kmh 29.86 in1011.2 mb 0.00 in0.0 mm 0.00 in0.0 mm 0.00 in0.0 mm
05:09 AM 29.7°F-1.3°C 27.1°F-2.7°C 90% Calm Calm 1.0 mph1.6 kmh 29.86 in1011.2 mb 0.00 in0.0 mm 0.00 in0.0 mm 0.00 in0.0 mm
05:10 AM 29.8°F-1.2°C 27.2°F-2.7°C 90% Calm Calm 1.0 mph1.6 kmh 29.86 in1011.2 mb 0.00 in0.0 mm 0.00 in0.0 mm 0.00 in0.0 mm
05:11 AM 29.8°F-1.2°C 27.2°F-2.7°C 90% Calm Calm 1.0 mph1.6 kmh 29.86 in1011.2 mb 0.00 in0.0 mm 0.00 in0.0 mm 0.00 in0.0 mm
05:12 AM 29.9°F-1.2°C 27.3°F-2.6°C 90% Calm Calm 1.0 mph1.6 kmh 29.86 in1011.2 mb 0.00 in0.0 mm 0.00 in0.0 mm 0.00 in0.0 mm
05:13 AM 30.0°F-1.1°C 27.4°F-2.6°C 90% Calm Calm 1.0 mph1.6 kmh 29.86 in1011.2 mb 0.00 in0.0 mm 0.00 in0.0 mm 0.00 in0.0 mm
05:14 AM 30.1°F-1.1°C 27.5°F-2.5°C 90% Calm Calm -- 29.86 in1011.2 mb 0.00 in0.0 mm 0.00 in0.0 mm 0.00 in0.0 mm
05:15 AM 30.1°F-1.1°C 27.5°F-2.5°C 90% Calm Calm -- 29.86 in1011.2 mb 0.00 in0.0 mm 0.00 in0.0 mm 0.00 in0.0 mm
05:16 AM 30.0°F-1.1°C 27.4°F-2.6°C 90% Calm Calm -- 29.86 in1011.2 mb 0.00 in0.0 mm 0.00 in0.0 mm 0.00 in0.0 mm
05:17 AM 30.0°F-1.1°C 27.4°F-2.6°C 90% Calm Calm -- 29.86 in1011.2 mb 0.00 in0.0 mm 0.00 in0.0 mm 0.00 in0.0 mm
05:18 AM 29.9°F-1.2°C 27.3°F-2.6°C 90% Calm Calm -- 29.86 in1011.2 mb 0.00 in0.0 mm 0.00 in0.0 mm 0.00 in0.0 mm
05:19 AM 29.8°F-1.2°C 27.2°F-2.7°C 90% Calm Calm -- 29.86 in1011.2 mb 0.00 in0.0 mm 0.00 in0.0 mm 0.00 in0.0 mm
05:20 AM 29.8°F-1.2°C 27.2°F-2.7°C 90% Calm Calm -- 29.86 in1011.2 mb 0.00 in0.0 mm 0.00 in0.0 mm 0.00 in0.0 mm
05:21 AM 29.7°F-1.3°C 27.1°F-2.7°C 90% Calm Calm -- 29.86 in1011.2 mb 0.00 in0.0 mm 0.00 in0.0 mm 0.00 in0.0 mm
05:22 AM 29.8°F-1.2°C 27.2°F-2.7°C 90% Calm Calm -- 29.86 in1011.2 mb 0.00 in0.0 mm 0.00 in0.0 mm 0.00 in0.0 mm
05:23 AM 29.8°F-1.2°C 27.2°F-2.7°C 90% Calm Calm -- 29.86 in1011.2 mb 0.00 in0.0 mm 0.00 in0.0 mm 0.00 in0.0 mm
05:24 AM 29.7°F-1.3°C 27.1°F-2.7°C 90% Calm Calm -- 29.86 in1011.2 mb 0.00 in0.0 mm 0.00 in0.0 mm 0.00 in0.0 mm
05:25 AM 29.7°F-1.3°C 27.1°F-2.7°C 90% Calm Calm -- 29.86 in1011.2 mb 0.00 in0.0 mm 0.00 in0.0 mm 0.00 in0.0 mm
05:26 AM 29.6°F-1.3°C 27.0°F-2.8°C 90% Calm Calm -- 29.86 in1011.2 mb 0.00 in0.0 mm 0.00 in0.0 mm 0.00 in0.0 mm
05:27 AM 29.6°F-1.3°C 27.0°F-2.8°C 90% Calm Calm -- 29.87 in1011.5 mb 0.00 in0.0 mm 0.00 in0.0 mm 0.00 in0.0 mm
05:28 AM 29.6°F-1.3°C 27.0°F-2.8°C 90% Calm Calm -- 29.87 in1011.5 mb 0.00 in0.0 mm 0.00 in0.0 mm 0.00 in0.0 mm
05:29 AM 29.5°F-1.4°C 26.9°F-2.8°C 90% Calm Calm -- 29.87 in1011.5 mb 0.00 in0.0 mm 0.00 in0.0 mm 0.00 in0.0 mm
05:30 AM 29.5°F-1.4°C 26.9°F-2.8°C 90% Calm Calm -- 29.87 in1011.5 mb 0.00 in0.0 mm 0.00 in0.0 mm 0.00 in0.0 mm
05:31 AM 29.5°F-1.4°C 26.9°F-2.8°C 90% Calm Calm -- 29.87 in1011.5 mb 0.00 in0.0 mm 0.00 in0.0 mm 0.00 in0.0 mm
05:32 AM 29.4°F-1.4°C 26.8°F-2.9°C 90% Calm Calm -- 29.87 in1011.5 mb 0.00 in0.0 mm 0.00 in0.0 mm 0.00 in0.0 mm
05:33 AM 29.4°F-1.4°C 26.8°F-2.9°C 90% Calm Calm -- 29.87 in1011.5 mb 0.00 in0.0 mm 0.00 in0.0 mm 0.00 in0.0 mm
05:34 AM 29.4°F-1.4°C 26.8°F-2.9°C 90% Calm Calm -- 29.87 in1011.5 mb 0.00 in0.0 mm 0.00 in0.0 mm 0.00 in0.0 mm
05:35 AM 29.4°F-1.4°C 26.8°F-2.9°C 90% Calm Calm -- 29.87 in1011.5 mb 0.00 in0.0 mm 0.00 in0.0 mm 0.00 in0.0 mm
05:36 AM 29.4°F-1.4°C 26.8°F-2.9°C 90% Calm Calm -- 29.87 in1011.5 mb 0.00 in0.0 mm 0.00 in0.0 mm 0.00 in0.0 mm
05:37 AM 29.4°F-1.4°C 26.8°F-2.9°C 90% Calm Calm -- 29.87 in1011.5 mb 0.00 in0.0 mm 0.00 in0.0 mm 0.00 in0.0 mm
05:38 AM 29.4°F-1.4°C 26.8°F-2.9°C 90% Calm Calm -- 29.87 in1011.5 mb 0.00 in0.0 mm 0.00 in0.0 mm 0.00 in0.0 mm
05:39 AM 29.4°F-1.4°C 26.8°F-2.9°C 90% Calm Calm -- 29.87 in1011.5 mb 0.00 in0.0 mm 0.00 in0.0 mm 0.00 in0.0 mm
05:40 AM 29.5°F-1.4°C 26.9°F-2.8°C 90% Calm Calm -- 29.87 in1011.5 mb 0.00 in0.0 mm 0.00 in0.0 mm 0.00 in0.0 mm
05:41 AM 29.5°F-1.4°C 26.9°F-2.8°C 90% Calm Calm -- 29.87 in1011.5 mb 0.00 in0.0 mm 0.00 in0.0 mm 0.00 in0.0 mm
05:42 AM 29.5°F-1.4°C 26.9°F-2.8°C 90% Calm Calm -- 29.87 in1011.5 mb 0.00 in0.0 mm 0.00 in0.0 mm 0.00 in0.0 mm
05:43 AM 29.6°F-1.3°C 27.3°F-2.6°C 91% Calm Calm -- 29.88 in1011.9 mb 0.00 in0.0 mm 0.00 in0.0 mm 0.00 in0.0 mm
05:44 AM 29.6°F-1.3°C 27.3°F-2.6°C 91% Calm Calm -- 29.88 in1011.9 mb 0.00 in0.0 mm 0.00 in0.0 mm 0.00 in0.0 mm
05:45 AM 29.6°F-1.3°C 27.3°F-2.6°C 91% Calm Calm -- 29.88 in1011.9 mb 0.00 in0.0 mm 0.00 in0.0 mm 0.00 in0.0 mm
05:46 AM 29.6°F-1.3°C 27.0°F-2.8°C 90% Calm Calm -- 29.88 in1011.9 mb 0.00 in0.0 mm 0.00 in0.0 mm 0.00 in0.0 mm
05:47 AM 29.6°F-1.3°C 27.0°F-2.8°C 90% Calm Calm -- 29.88 in1011.9 mb 0.00 in0.0 mm 0.00 in0.0 mm 0.00 in0.0 mm
05:48 AM 29.7°F-1.3°C 27.1°F-2.7°C 90% Calm Calm -- 29.87 in1011.5 mb 0.00 in0.0 mm 0.00 in0.0 mm 0.00 in0.0 mm
05:49 AM 29.7°F-1.3°C 27.4°F-2.6°C 91% Calm Calm -- 29.87 in1011.5 mb 0.00 in0.0 mm 0.00 in0.0 mm 0.00 in0.0 mm
05:50 AM 29.7°F-1.3°C 27.4°F-2.6°C 91% Calm Calm -- 29.87 in1011.5 mb 0.00 in0.0 mm 0.00 in0.0 mm 0.00 in0.0 mm
05:51 AM 29.8°F-1.2°C 27.5°F-2.5°C 91% Calm Calm -- 29.88 in1011.9 mb 0.00 in0.0 mm 0.00 in0.0 mm 0.00 in0.0 mm
05:52 AM 29.8°F-1.2°C 27.5°F-2.5°C 91% Calm Calm -- 29.88 in1011.9 mb 0.00 in0.0 mm 0.00 in0.0 mm 0.00 in0.0 mm
05:53 AM 29.8°F-1.2°C 27.5°F-2.5°C 91% Calm Calm 1.0 mph1.6 kmh 29.88 in1011.9 mb 0.00 in0.0 mm 0.00 in0.0 mm 0.00 in0.0 mm
05:54 AM 29.8°F-1.2°C 27.2°F-2.7°C 90% Calm Calm 1.0 mph1.6 kmh 29.88 in1011.9 mb 0.00 in0.0 mm 0.00 in0.0 mm 0.00 in0.0 mm
05:55 AM 29.8°F-1.2°C 27.2°F-2.7°C 90% 1.0 mph NW1.6 kmh NW 2.0 mph3.2 kmh 29.88 in1011.9 mb 0.00 in0.0 mm 0.00 in0.0 mm 0.00 in0.0 mm
05:56 AM 29.8°F-1.2°C 27.2°F-2.7°C 90% Calm Calm 2.0 mph3.2 kmh 29.88 in1011.9 mb 0.00 in0.0 mm 0.00 in0.0 mm 0.00 in0.0 mm
05:57 AM 29.7°F-1.3°C 27.1°F-2.7°C 90% Calm Calm 2.0 mph3.2 kmh 29.88 in1011.9 mb 0.00 in0.0 mm 0.00 in0.0 mm 0.00 in0.0 mm
05:58 AM 29.6°F-1.3°C 27.0°F-2.8°C 90% Calm Calm 2.0 mph3.2 kmh 29.88 in1011.9 mb 0.00 in0.0 mm 0.00 in0.0 mm 0.00 in0.0 mm
05:59 AM 29.6°F-1.3°C 27.0°F-2.8°C 90% Calm Calm 2.0 mph3.2 kmh 29.88 in1011.9 mb 0.00 in0.0 mm 0.00 in0.0 mm 0.00 in0.0 mm
06:00 AM 29.5°F-1.4°C 26.9°F-2.8°C 90% Calm Calm 2.0 mph3.2 kmh 29.88 in1011.9 mb 0.00 in0.0 mm 0.00 in0.0 mm 0.00 in0.0 mm
06:01 AM 29.4°F-1.4°C 26.8°F-2.9°C 90% Calm Calm 2.0 mph3.2 kmh 29.88 in1011.9 mb 0.00 in0.0 mm 0.00 in0.0 mm 0.00 in0.0 mm
06:02 AM 29.4°F-1.4°C 26.8°F-2.9°C 90% Calm Calm 2.0 mph3.2 kmh 29.88 in1011.9 mb 0.00 in0.0 mm 0.00 in0.0 mm 0.00 in0.0 mm
06:03 AM 29.4°F-1.4°C 26.8°F-2.9°C 90% Calm Calm 2.0 mph3.2 kmh 29.88 in1011.9 mb 0.00 in0.0 mm 0.00 in0.0 mm 0.00 in0.0 mm
06:04 AM 29.4°F-1.4°C 26.8°F-2.9°C 90% Calm Calm 1.0 mph1.6 kmh 29.88 in1011.9 mb 0.00 in0.0 mm 0.00 in0.0 mm 0.00 in0.0 mm
06:05 AM 29.4°F-1.4°C 26.8°F-2.9°C 90% Calm Calm -- 29.88 in1011.9 mb 0.00 in0.0 mm 0.00 in0.0 mm 0.00 in0.0 mm
06:06 AM 29.4°F-1.4°C 26.8°F-2.9°C 90% Calm Calm -- 29.88 in1011.9 mb 0.00 in0.0 mm 0.00 in0.0 mm 0.00 in0.0 mm
06:07 AM 29.4°F-1.4°C 26.8°F-2.9°C 90% Calm Calm -- 29.88 in1011.9 mb 0.00 in0.0 mm 0.00 in0.0 mm 0.00 in0.0 mm
06:08 AM 29.3°F-1.5°C 26.7°F-2.9°C 90% Calm Calm -- 29.88 in1011.9 mb 0.00 in0.0 mm 0.00 in0.0 mm 0.00 in0.0 mm
06:09 AM 29.3°F-1.5°C 26.7°F-2.9°C 90% Calm Calm -- 29.89 in1012.2 mb 0.00 in0.0 mm 0.00 in0.0 mm 0.00 in0.0 mm
06:10 AM 29.4°F-1.4°C 26.8°F-2.9°C 90% Calm Calm -- 29.89 in1012.2 mb 0.00 in0.0 mm 0.00 in0.0 mm 0.00 in0.0 mm
06:11 AM 29.4°F-1.4°C 26.8°F-2.9°C 90% Calm Calm -- 29.89 in1012.2 mb 0.00 in0.0 mm 0.00 in0.0 mm 0.00 in0.0 mm
06:12 AM 29.4°F-1.4°C 27.1°F-2.7°C 91% Calm Calm -- 29.89 in1012.2 mb 0.00 in0.0 mm 0.00 in0.0 mm 0.00 in0.0 mm
06:13 AM 29.5°F-1.4°C 27.2°F-2.7°C 91% Calm Calm -- 29.89 in1012.2 mb 0.00 in0.0 mm 0.00 in0.0 mm 0.00 in0.0 mm
06:14 AM 29.5°F-1.4°C 27.2°F-2.7°C 91% Calm Calm -- 29.89 in1012.2 mb 0.00 in0.0 mm 0.00 in0.0 mm 0.00 in0.0 mm
06:15 AM 29.6°F-1.3°C 27.3°F-2.6°C 91% Calm Calm -- 29.89 in1012.2 mb 0.00 in0.0 mm 0.00 in0.0 mm 0.00 in0.0 mm
06:16 AM 29.6°F-1.3°C 27.3°F-2.6°C 91% Calm Calm -- 29.89 in1012.2 mb 0.00 in0.0 mm 0.00 in0.0 mm 0.00 in0.0 mm
06:17 AM 29.6°F-1.3°C 27.3°F-2.6°C 91% Calm Calm -- 29.89 in1012.2 mb 0.00 in0.0 mm 0.00 in0.0 mm 0.00 in0.0 mm
06:18 AM 29.6°F-1.3°C 27.3°F-2.6°C 91% Calm Calm -- 29.89 in1012.2 mb 0.00 in0.0 mm 0.00 in0.0 mm 0.00 in0.0 mm
06:19 AM 29.7°F-1.3°C 27.4°F-2.6°C 91% Calm Calm -- 29.89 in1012.2 mb 0.00 in0.0 mm 0.00 in0.0 mm 0.00 in0.0 mm
06:20 AM 29.7°F-1.3°C 27.4°F-2.6°C 91% Calm Calm -- 29.89 in1012.2 mb 0.00 in0.0 mm 0.00 in0.0 mm 0.00 in0.0 mm
06:21 AM 29.8°F-1.2°C 27.5°F-2.5°C 91% Calm Calm -- 29.89 in1012.2 mb 0.00 in0.0 mm 0.00 in0.0 mm 0.00 in0.0 mm
06:22 AM 29.8°F-1.2°C 27.5°F-2.5°C 91% Calm Calm -- 29.89 in1012.2 mb 0.00 in0.0 mm 0.00 in0.0 mm 0.00 in0.0 mm
06:23 AM 29.8°F-1.2°C 27.5°F-2.5°C 91% Calm Calm -- 29.89 in1012.2 mb 0.00 in0.0 mm 0.00 in0.0 mm 0.00 in0.0 mm
06:24 AM 29.9°F-1.2°C 27.6°F-2.4°C 91% Calm Calm -- 29.89 in1012.2 mb 0.00 in0.0 mm 0.00 in0.0 mm 0.00 in0.0 mm
06:25 AM 30.0°F-1.1°C 27.7°F-2.4°C 91% Calm Calm -- 29.89 in1012.2 mb 0.00 in0.0 mm 0.00 in0.0 mm 0.00 in0.0 mm
06:26 AM 29.9°F-1.2°C 27.6°F-2.4°C 91% Calm Calm -- 29.89 in1012.2 mb 0.00 in0.0 mm 0.00 in0.0 mm 0.00 in0.0 mm
06:27 AM 29.9°F-1.2°C 27.6°F-2.4°C 91% Calm Calm -- 29.89 in1012.2 mb 0.00 in0.0 mm 0.00 in0.0 mm 0.00 in0.0 mm
06:28 AM 29.8°F-1.2°C 27.5°F-2.5°C 91% Calm Calm -- 29.89 in1012.2 mb 0.00 in0.0 mm 0.00 in0.0 mm 0.00 in0.0 mm
06:29 AM 29.8°F-1.2°C 27.5°F-2.5°C 91% Calm Calm -- 29.89 in1012.2 mb 0.00 in0.0 mm 0.00 in0.0 mm 0.00 in0.0 mm
06:30 AM 29.8°F-1.2°C 27.5°F-2.5°C 91% Calm Calm -- 29.89 in1012.2 mb 0.00 in0.0 mm 0.00 in0.0 mm 0.00 in0.0 mm
06:31 AM 29.7°F-1.3°C 27.4°F-2.6°C 91% Calm Calm -- 29.89 in1012.2 mb 0.00 in0.0 mm 0.00 in0.0 mm 0.00 in0.0 mm
06:32 AM 29.7°F-1.3°C 27.4°F-2.6°C 91% Calm Calm -- 29.89 in1012.2 mb 0.00 in0.0 mm 0.00 in0.0 mm 0.00 in0.0 mm
06:33 AM 29.8°F-1.2°C 27.5°F-2.5°C 91% Calm Calm -- 29.89 in1012.2 mb 0.00 in0.0 mm 0.00 in0.0 mm 0.00 in0.0 mm
06:34 AM 29.7°F-1.3°C 27.4°F-2.6°C 91% Calm Calm -- 29.89 in1012.2 mb 0.00 in0.0 mm 0.00 in0.0 mm 0.00 in0.0 mm
06:35 AM 29.8°F-1.2°C 27.5°F-2.5°C 91% Calm Calm -- 29.89 in1012.2 mb 0.00 in0.0 mm 0.00 in0.0 mm 0.00 in0.0 mm
06:36 AM 29.8°F-1.2°C 27.5°F-2.5°C 91% Calm Calm -- 29.89 in1012.2 mb 0.00 in0.0 mm 0.00 in0.0 mm 0.00 in0.0 mm
06:37 AM 29.7°F-1.3°C 27.4°F-2.6°C 91% Calm Calm -- 29.89 in1012.2 mb 0.00 in0.0 mm 0.00 in0.0 mm 0.00 in0.0 mm
06:38 AM 29.7°F-1.3°C 27.4°F-2.6°C 91% Calm Calm -- 29.90 in1012.5 mb 0.00 in0.0 mm 0.00 in0.0 mm 0.00 in0.0 mm
06:39 AM 29.7°F-1.3°C 27.4°F-2.6°C 91% Calm Calm -- 29.89 in1012.2 mb 0.00 in0.0 mm 0.00 in0.0 mm 0.00 in0.0 mm
06:40 AM 29.7°F-1.3°C 27.4°F-2.6°C 91% Calm Calm -- 29.90 in1012.5 mb 0.00 in0.0 mm 0.00 in0.0 mm 0.00 in0.0 mm
06:41 AM 29.7°F-1.3°C 27.4°F-2.6°C 91% Calm Calm -- 29.90 in1012.5 mb 0.00 in0.0 mm 0.00 in0.0 mm 0.00 in0.0 mm
06:42 AM 29.6°F-1.3°C 27.3°F-2.6°C 91% Calm Calm -- 29.90 in1012.5 mb 0.00 in0.0 mm 0.00 in0.0 mm 0.00 in0.0 mm
06:43 AM 29.6°F-1.3°C 27.0°F-2.8°C 90% Calm Calm -- 29.90 in1012.5 mb 0.00 in0.0 mm 0.00 in0.0 mm 0.00 in0.0 mm
06:44 AM 29.5°F-1.4°C 26.9°F-2.8°C 90% Calm Calm -- 29.90 in1012.5 mb 0.00 in0.0 mm 0.00 in0.0 mm 0.00 in0.0 mm
06:45 AM 29.5°F-1.4°C 26.9°F-2.8°C 90% Calm Calm 1.0 mph1.6 kmh 29.90 in1012.5 mb 0.00 in0.0 mm 0.00 in0.0 mm 0.00 in0.0 mm
06:46 AM 29.4°F-1.4°C 26.8°F-2.9°C 90% Calm Calm 1.0 mph1.6 kmh 29.90 in1012.5 mb 0.00 in0.0 mm 0.00 in0.0 mm 0.00 in0.0 mm
06:47 AM 29.2°F-1.6°C 26.6°F-3.0°C 90% 1.0 mph SW1.6 kmh SW 1.0 mph1.6 kmh 29.90 in1012.5 mb 0.00 in0.0 mm 0.00 in0.0 mm 0.00 in0.0 mm
06:48 AM 29.2°F-1.6°C 26.6°F-3.0°C 90% Calm Calm 1.0 mph1.6 kmh 29.90 in1012.5 mb 0.00 in0.0 mm 0.00 in0.0 mm 0.00 in0.0 mm
06:49 AM 29.1°F-1.6°C 26.5°F-3.1°C 90% Calm Calm 1.0 mph1.6 kmh 29.90 in1012.5 mb 0.00 in0.0 mm 0.00 in0.0 mm 0.00 in0.0 mm
06:50 AM 29.1°F-1.6°C 26.5°F-3.1°C 90% Calm Calm 1.0 mph1.6 kmh 29.90 in1012.5 mb 0.00 in0.0 mm 0.00 in0.0 mm 0.00 in0.0 mm
06:51 AM 29.2°F-1.6°C 26.6°F-3.0°C 90% Calm Calm 1.0 mph1.6 kmh 29.90 in1012.5 mb 0.00 in0.0 mm 0.00 in0.0 mm 0.00 in0.0 mm
06:52 AM 29.2°F-1.6°C 26.9°F-2.8°C 91% Calm Calm 1.0 mph1.6 kmh 29.90 in1012.5 mb 0.00 in0.0 mm 0.00 in0.0 mm 0.00 in0.0 mm
06:53 AM 29.2°F-1.6°C 26.9°F-2.8°C 91% Calm Calm 1.0 mph1.6 kmh 29.90 in1012.5 mb 0.00 in0.0 mm 0.00 in0.0 mm 0.00 in0.0 mm
06:54 AM 29.2°F-1.6°C 26.9°F-2.8°C 91% Calm Calm 1.0 mph1.6 kmh 29.90 in1012.5 mb 0.00 in0.0 mm 0.00 in0.0 mm 0.00 in0.0 mm
06:55 AM 29.3°F-1.5°C 27.0°F-2.8°C 91% Calm Calm 1.0 mph1.6 kmh 29.90 in1012.5 mb 0.00 in0.0 mm 0.00 in0.0 mm 0.00 in0.0 mm
06:56 AM 29.4°F-1.4°C 27.1°F-2.7°C 91% Calm Calm -- 29.90 in1012.5 mb 0.00 in0.0 mm 0.00 in0.0 mm 0.00 in0.0 mm
06:57 AM 29.5°F-1.4°C 27.2°F-2.7°C 91% Calm Calm -- 29.90 in1012.5 mb 0.00 in0.0 mm 0.00 in0.0 mm 0.00 in0.0 mm
06:58 AM 29.6°F-1.3°C 27.3°F-2.6°C 91% Calm Calm 1.0 mph1.6 kmh 29.90 in1012.5 mb 0.00 in0.0 mm 0.00 in0.0 mm 0.00 in0.0 mm
06:59 AM 29.7°F-1.3°C 27.4°F-2.6°C 91% Calm Calm 1.0 mph1.6 kmh 29.90 in1012.5 mb 0.00 in0.0 mm 0.00 in0.0 mm 0.00 in0.0 mm
07:00 AM 29.8°F-1.2°C 27.5°F-2.5°C 91% Calm Calm 1.0 mph1.6 kmh 29.90 in1012.5 mb 0.00 in0.0 mm 0.00 in0.0 mm 0.00 in0.0 mm
07:01 AM 30.0°F-1.1°C 27.7°F-2.4°C 91% Calm Calm 1.0 mph1.6 kmh 29.90 in1012.5 mb 0.00 in0.0 mm 0.00 in0.0 mm 0.00 in0.0 mm
07:02 AM 30.0°F-1.1°C 27.7°F-2.4°C 91% Calm Calm 1.0 mph1.6 kmh 29.90 in1012.5 mb 0.00 in0.0 mm 0.00 in0.0 mm 0.00 in0.0 mm
07:03 AM 30.2°F-1.0°C 27.9°F-2.3°C 91% Calm Calm 1.0 mph1.6 kmh 29.90 in1012.5 mb 0.00 in0.0 mm 0.00 in0.0 mm 0.00 in0.0 mm
07:04 AM 30.2°F-1.0°C 27.9°F-2.3°C 91% Calm Calm 1.0 mph1.6 kmh 29.90 in1012.5 mb 0.00 in0.0 mm 0.00 in0.0 mm 0.00 in0.0 mm
07:05 AM 30.3°F-0.9°C 28.0°F-2.2°C 91% Calm Calm 1.0 mph1.6 kmh 29.90 in1012.5 mb 0.00 in0.0 mm 0.00 in0.0 mm 0.00 in0.0 mm
07:06 AM 30.4°F-0.9°C 28.1°F-2.2°C 91% Calm Calm 1.0 mph1.6 kmh 29.90 in1012.5 mb 0.00 in0.0 mm 0.00 in0.0 mm 0.00 in0.0 mm
07:07 AM 30.4°F-0.9°C 28.1°F-2.2°C 91% Calm Calm 1.0 mph1.6 kmh 29.90 in1012.5 mb 0.00 in0.0 mm 0.00 in0.0 mm 0.00 in0.0 mm
07:08 AM 30.4°F-0.9°C 27.8°F-2.3°C 90% Calm Calm 1.0 mph1.6 kmh 29.90 in1012.5 mb 0.00 in0.0 mm 0.00 in0.0 mm 0.00 in0.0 mm
07:09 AM 30.5°F-0.8°C 27.9°F-2.3°C 90% Calm Calm 1.0 mph1.6 kmh 29.91 in1012.9 mb 0.00 in0.0 mm 0.00 in0.0 mm 0.00 in0.0 mm
07:10 AM 30.6°F-0.8°C 28.0°F-2.2°C 90% Calm Calm 1.0 mph1.6 kmh 29.91 in1012.9 mb 0.00 in0.0 mm 0.00 in0.0 mm 0.00 in0.0 mm
07:11 AM 30.6°F-0.8°C 28.0°F-2.2°C 90% Calm Calm 1.0 mph1.6 kmh 29.91 in1012.9 mb 0.00 in0.0 mm 0.00 in0.0 mm 0.00 in0.0 mm
07:12 AM 30.6°F-0.8°C 28.0°F-2.2°C 90% Calm Calm 1.0 mph1.6 kmh 29.91 in1012.9 mb 0.00 in0.0 mm 0.00 in0.0 mm 0.00 in0.0 mm
07:13 AM 30.5°F-0.8°C 27.7°F-2.4°C 89% Calm Calm -- 29.91 in1012.9 mb 0.00 in0.0 mm 0.00 in0.0 mm 0.00 in0.0 mm
07:14 AM 30.4°F-0.9°C 27.6°F-2.4°C 89% Calm Calm -- 29.91 in1012.9 mb 0.00 in0.0 mm 0.00 in0.0 mm 0.00 in0.0 mm
07:15 AM 30.3°F-0.9°C 27.5°F-2.5°C 89% Calm Calm -- 29.91 in1012.9 mb 0.00 in0.0 mm 0.00 in0.0 mm 0.00 in0.0 mm
07:16 AM 30.2°F-1.0°C 27.4°F-2.6°C 89% Calm Calm -- 29.91 in1012.9 mb 0.00 in0.0 mm 0.00 in0.0 mm 0.00 in0.0 mm
07:17 AM 30.3°F-0.9°C 27.5°F-2.5°C 89% Calm Calm -- 29.91 in1012.9 mb 0.00 in0.0 mm 0.00 in0.0 mm 0.00 in0.0 mm
07:18 AM 30.4°F-0.9°C 27.6°F-2.4°C 89% Calm Calm -- 29.91 in1012.9 mb 0.00 in0.0 mm 0.00 in0.0 mm 0.00 in0.0 mm
07:19 AM 30.6°F-0.8°C 28.0°F-2.2°C 90% Calm Calm -- 29.91 in1012.9 mb 0.00 in0.0 mm 0.00 in0.0 mm 0.00 in0.0 mm
07:20 AM 30.8°F-0.7°C 28.2°F-2.1°C 90% Calm Calm -- 29.91 in1012.9 mb 0.00 in0.0 mm 0.00 in0.0 mm 0.00 in0.0 mm
07:21 AM 31.0°F-0.6°C 28.4°F-2.0°C 90% Calm Calm -- 29.91 in1012.9 mb 0.00 in0.0 mm 0.00 in0.0 mm 0.00 in0.0 mm
07:22 AM 31.1°F-0.5°C 28.5°F-1.9°C 90% Calm Calm -- 29.91 in1012.9 mb 0.00 in0.0 mm 0.00 in0.0 mm 0.00 in0.0 mm
07:23 AM 30.9°F-0.6°C 28.0°F-2.2°C 89% Calm Calm -- 29.91 in1012.9 mb 0.00 in0.0 mm 0.00 in0.0 mm 0.00 in0.0 mm
07:24 AM 30.7°F-0.7°C 27.6°F-2.4°C 88% Calm Calm -- 29.91 in1012.9 mb 0.00 in0.0 mm 0.00 in0.0 mm 0.00 in0.0 mm
07:25 AM 30.5°F-0.8°C 27.1°F-2.7°C 87% Calm Calm -- 29.92 in1013.2 mb 0.00 in0.0 mm 0.00 in0.0 mm 0.00 in0.0 mm
07:26 AM 30.3°F-0.9°C 26.9°F-2.8°C 87% Calm Calm -- 29.92 in1013.2 mb 0.00 in0.0 mm 0.00 in0.0 mm 0.00 in0.0 mm
07:27 AM 30.2°F-1.0°C 26.8°F-2.9°C 87% Calm Calm -- 29.92 in1013.2 mb 0.00 in0.0 mm 0.00 in0.0 mm 0.00 in0.0 mm
07:28 AM 30.2°F-1.0°C 27.1°F-2.7°C 88% Calm Calm -- 29.92 in1013.2 mb 0.00 in0.0 mm 0.00 in0.0 mm 0.00 in0.0 mm
07:29 AM 30.2°F-1.0°C 27.1°F-2.7°C 88% Calm Calm -- 29.92 in1013.2 mb 0.00 in0.0 mm 0.00 in0.0 mm 0.00 in0.0 mm
07:30 AM 30.2°F-1.0°C 27.1°F-2.7°C 88% Calm Calm -- 29.92 in1013.2 mb 0.00 in0.0 mm 0.00 in0.0 mm 0.00 in0.0 mm
07:31 AM 30.0°F-1.1°C 26.9°F-2.8°C 88% Calm Calm 1.0 mph1.6 kmh 29.92 in1013.2 mb 0.00 in0.0 mm 0.00 in0.0 mm 0.00 in0.0 mm
07:32 AM 29.9°F-1.2°C 26.5°F-3.1°C 87% Calm Calm 1.0 mph1.6 kmh 29.92 in1013.2 mb 0.00 in0.0 mm 0.00 in0.0 mm 0.00 in0.0 mm
07:33 AM 29.8°F-1.2°C 26.4°F-3.1°C 87% Calm Calm 1.0 mph1.6 kmh 29.92 in1013.2 mb 0.00 in0.0 mm 0.00 in0.0 mm 0.00 in0.0 mm
07:34 AM 29.8°F-1.2°C 26.7°F-2.9°C 88% Calm Calm 1.0 mph1.6 kmh 29.92 in1013.2 mb 0.00 in0.0 mm 0.00 in0.0 mm 0.00 in0.0 mm
07:35 AM 29.9°F-1.2°C 26.8°F-2.9°C 88% Calm Calm 1.0 mph1.6 kmh 29.92 in1013.2 mb 0.00 in0.0 mm 0.00 in0.0 mm 0.00 in0.0 mm
07:36 AM 30.0°F-1.1°C 26.9°F-2.8°C 88% Calm Calm 1.0 mph1.6 kmh 29.92 in1013.2 mb 0.00 in0.0 mm 0.00 in0.0 mm 0.00 in0.0 mm
07:37 AM 30.2°F-1.0°C 27.4°F-2.6°C 89% Calm Calm 1.0 mph1.6 kmh 29.92 in1013.2 mb 0.00 in0.0 mm 0.00 in0.0 mm 0.00 in0.0 mm
07:38 AM 30.3°F-0.9°C 27.5°F-2.5°C 89% Calm Calm 1.0 mph1.6 kmh 29.92 in1013.2 mb 0.00 in0.0 mm 0.00 in0.0 mm 0.00 in0.0 mm
07:39 AM 30.4°F-0.9°C 27.6°F-2.4°C 89% Calm Calm 1.0 mph1.6 kmh 29.92 in1013.2 mb 0.00 in0.0 mm 0.00 in0.0 mm 0.00 in0.0 mm
07:40 AM 30.4°F-0.9°C 27.3°F-2.6°C 88% Calm Calm 1.0 mph1.6 kmh 29.92 in1013.2 mb 0.00 in0.0 mm 0.00 in0.0 mm 0.00 in0.0 mm
07:41 AM 30.4°F-0.9°C 27.3°F-2.6°C 88% Calm Calm -- 29.92 in1013.2 mb 0.00 in0.0 mm 0.00 in0.0 mm 0.00 in0.0 mm
07:42 AM 30.4°F-0.9°C 27.3°F-2.6°C 88% Calm Calm -- 29.92 in1013.2 mb 0.00 in0.0 mm 0.00 in0.0 mm 0.00 in0.0 mm
07:43 AM 30.4°F-0.9°C 27.3°F-2.6°C 88% Calm Calm -- 29.92 in1013.2 mb 0.00 in0.0 mm 0.00 in0.0 mm 0.00 in0.0 mm
07:44 AM 30.2°F-1.0°C 26.8°F-2.9°C 87% Calm Calm -- 29.93 in1013.5 mb 0.00 in0.0 mm 0.00 in0.0 mm 0.00 in0.0 mm
07:45 AM 30.2°F-1.0°C 26.8°F-2.9°C 87% Calm Calm -- 29.92 in1013.2 mb 0.00 in0.0 mm 0.00 in0.0 mm 0.00 in0.0 mm
07:46 AM 30.2°F-1.0°C 26.8°F-2.9°C 87% Calm Calm 1.0 mph1.6 kmh 29.93 in1013.5 mb 0.00 in0.0 mm 0.00 in0.0 mm 0.00 in0.0 mm
07:47 AM 30.2°F-1.0°C 27.1°F-2.7°C 88% Calm Calm 1.0 mph1.6 kmh 29.93 in1013.5 mb 0.00 in0.0 mm 0.00 in0.0 mm 0.00 in0.0 mm
07:48 AM 30.2°F-1.0°C 27.1°F-2.7°C 88% Calm Calm 1.0 mph1.6 kmh 29.93 in1013.5 mb 0.00 in0.0 mm 0.00 in0.0 mm 0.00 in0.0 mm
07:49 AM 30.2°F-1.0°C 26.8°F-2.9°C 87% Calm Calm 1.0 mph1.6 kmh 29.93 in1013.5 mb 0.00 in0.0 mm 0.00 in0.0 mm 0.00 in0.0 mm
07:50 AM 30.1°F-1.1°C 26.7°F-2.9°C 87% Calm Calm 1.0 mph1.6 kmh 29.93 in1013.5 mb 0.00 in0.0 mm 0.00 in0.0 mm 0.00 in0.0 mm
07:51 AM 30.1°F-1.1°C 26.7°F-2.9°C 87% Calm Calm 1.0 mph1.6 kmh 29.93 in1013.5 mb 0.00 in0.0 mm 0.00 in0.0 mm 0.00 in0.0 mm
07:52 AM 30.2°F-1.0°C 27.1°F-2.7°C 88% Calm Calm 1.0 mph1.6 kmh 29.93 in1013.5 mb 0.00 in0.0 mm 0.00 in0.0 mm 0.00 in0.0 mm
07:53 AM 30.2°F-1.0°C 27.1°F-2.7°C 88% Calm Calm 1.0 mph1.6 kmh 29.93 in1013.5 mb 0.00 in0.0 mm 0.00 in0.0 mm 0.00 in0.0 mm
07:54 AM 30.3°F-0.9°C 27.2°F-2.7°C 88% Calm Calm 1.0 mph1.6 kmh 29.93 in1013.5 mb 0.00 in0.0 mm 0.00 in0.0 mm 0.00 in0.0 mm
07:55 AM 30.3°F-0.9°C 27.2°F-2.7°C 88% Calm Calm 1.0 mph1.6 kmh 29.93 in1013.5 mb 0.00 in0.0 mm 0.00 in0.0 mm 0.00 in0.0 mm
07:56 AM 30.4°F-0.9°C 27.3°F-2.6°C 88% Calm Calm -- 29.93 in1013.5 mb 0.00 in0.0 mm 0.00 in0.0 mm 0.00 in0.0 mm
07:57 AM 30.4°F-0.9°C 27.3°F-2.6°C 88% Calm Calm 2.0 mph3.2 kmh 29.93 in1013.5 mb 0.00 in0.0 mm 0.00 in0.0 mm 0.00 in0.0 mm
07:58 AM 30.4°F-0.9°C 27.0°F-2.8°C 87% 1.0 mph NE1.6 kmh NE 2.0 mph3.2 kmh 29.93 in1013.5 mb 0.00 in0.0 mm 0.00 in0.0 mm 0.00 in0.0 mm
07:59 AM 30.5°F-0.8°C 27.4°F-2.6°C 88% 1.0 mph NE1.6 kmh NE 2.0 mph3.2 kmh 29.93 in1013.5 mb 0.00 in0.0 mm 0.00 in0.0 mm 0.00 in0.0 mm
08:00 AM 30.6°F-0.8°C 27.5°F-2.5°C 88% 2.0 mph NE3.2 kmh NE 2.0 mph3.2 kmh 29.93 in1013.5 mb 0.00 in0.0 mm 0.00 in0.0 mm 0.00 in0.0 mm
08:01 AM 30.6°F-0.8°C 27.5°F-2.5°C 88% Calm Calm 2.0 mph3.2 kmh 29.93 in1013.5 mb 0.00 in0.0 mm 0.00 in0.0 mm 0.00 in0.0 mm
08:02 AM 30.7°F-0.7°C 27.6°F-2.4°C 88% Calm Calm 2.0 mph3.2 kmh 29.93 in1013.5 mb 0.00 in0.0 mm 0.00 in0.0 mm 0.00 in0.0 mm
08:03 AM 30.8°F-0.7°C 27.7°F-2.4°C 88% Calm Calm 2.0 mph3.2 kmh 29.93 in1013.5 mb 0.00 in0.0 mm 0.00 in0.0 mm 0.00 in0.0 mm
08:04 AM 30.9°F-0.6°C 27.8°F-2.3°C 88% Calm Calm 2.0 mph3.2 kmh 29.93 in1013.5 mb 0.00 in0.0 mm 0.00 in0.0 mm 0.00 in0.0 mm
08:05 AM 31.0°F-0.6°C 27.9°F-2.3°C 88% Calm Calm 2.0 mph3.2 kmh 29.93 in1013.5 mb 0.00 in0.0 mm 0.00 in0.0 mm 0.00 in0.0 mm
08:06 AM 31.1°F-0.5°C 28.0°F-2.2°C 88% Calm Calm 2.0 mph3.2 kmh 29.93 in1013.5 mb 0.00 in0.0 mm 0.00 in0.0 mm 0.00 in0.0 mm
08:07 AM 31.2°F-0.4°C 28.1°F-2.2°C 88% Calm Calm 2.0 mph3.2 kmh 29.93 in1013.5 mb 0.00 in0.0 mm 0.00 in0.0 mm 0.00 in0.0 mm
08:08 AM 31.2°F-0.4°C 28.1°F-2.2°C 88% Calm Calm 2.0 mph3.2 kmh 29.93 in1013.5 mb 0.00 in0.0 mm 0.00 in0.0 mm 0.00 in0.0 mm
08:09 AM 31.3°F-0.4°C 28.2°F-2.1°C 88% Calm Calm 2.0 mph3.2 kmh 29.93 in1013.5 mb 0.00 in0.0 mm 0.00 in0.0 mm 0.00 in0.0 mm
08:10 AM 31.4°F-0.3°C 28.3°F-2.1°C 88% Calm Calm -- 29.93 in1013.5 mb 0.00 in0.0 mm 0.00 in0.0 mm 0.00 in0.0 mm
08:11 AM 31.4°F-0.3°C 28.3°F-2.1°C 88% Calm Calm -- 29.93 in1013.5 mb 0.00 in0.0 mm 0.00 in0.0 mm 0.00 in0.0 mm
08:12 AM 31.6°F-0.2°C 28.5°F-1.9°C 88% Calm Calm -- 29.93 in1013.5 mb 0.00 in0.0 mm 0.00 in0.0 mm 0.00 in0.0 mm
08:13 AM 31.7°F-0.2°C 28.6°F-1.9°C 88% Calm Calm -- 29.93 in1013.5 mb 0.00 in0.0 mm 0.00 in0.0 mm 0.00 in0.0 mm
08:14 AM 31.7°F-0.2°C 28.6°F-1.9°C 88% Calm Calm -- 29.93 in1013.5 mb 0.00 in0.0 mm 0.00 in0.0 mm 0.00 in0.0 mm
08:15 AM 31.9°F-0.1°C 28.8°F-1.8°C 88% Calm Calm -- 29.93 in1013.5 mb 0.00 in0.0 mm 0.00 in0.0 mm 0.00 in0.0 mm
08:16 AM 32.0°F0.0°C 28.9°F-1.7°C 88% Calm Calm -- 29.93 in1013.5 mb 0.00 in0.0 mm 0.00 in0.0 mm 0.00 in0.0 mm
08:17 AM 32.2°F0.1°C 29.1°F-1.6°C 88% Calm Calm -- 29.94 in1013.9 mb 0.00 in0.0 mm 0.00 in0.0 mm 0.00 in0.0 mm
08:18 AM 32.2°F0.1°C 29.1°F-1.6°C 88% Calm Calm -- 29.94 in1013.9 mb 0.00 in0.0 mm 0.00 in0.0 mm 0.00 in0.0 mm
08:19 AM 32.4°F0.2°C 29.3°F-1.5°C 88% Calm Calm -- 29.94 in1013.9 mb 0.00 in0.0 mm 0.00 in0.0 mm 0.00 in0.0 mm
08:20 AM 32.5°F0.3°C 29.3°F-1.5°C 88% Calm Calm -- 29.94 in1013.9 mb 0.00 in0.0 mm 0.00 in0.0 mm 0.00 in0.0 mm
08:21 AM 32.8°F0.4°C 29.6°F-1.3°C 88% Calm Calm -- 29.94 in1013.9 mb 0.00 in0.0 mm 0.00 in0.0 mm 0.00 in0.0 mm
08:22 AM 33.0°F0.6°C 29.8°F-1.2°C 88% Calm Calm -- 29.94 in1013.9 mb 0.00 in0.0 mm 0.00 in0.0 mm 0.00 in0.0 mm
08:23 AM 33.2°F0.7°C 30.0°F-1.1°C 88% Calm Calm -- 29.93 in1013.5 mb 0.00 in0.0 mm 0.00 in0.0 mm 0.00 in0.0 mm
08:24 AM 33.3°F0.7°C 29.9°F-1.2°C 87% Calm Calm -- 29.94 in1013.9 mb 0.00 in0.0 mm 0.00 in0.0 mm 0.00 in0.0 mm
08:25 AM 33.5°F0.8°C 30.1°F-1.1°C 87% Calm Calm -- 29.94 in1013.9 mb 0.00 in0.0 mm 0.00 in0.0 mm 0.00 in0.0 mm
08:26 AM 33.6°F0.9°C 30.2°F-1.0°C 87% Calm Calm -- 29.94 in1013.9 mb 0.00 in0.0 mm 0.00 in0.0 mm 0.00 in0.0 mm
08:27 AM 33.6°F0.9°C 29.9°F-1.2°C 86% Calm Calm -- 29.94 in1013.9 mb 0.00 in0.0 mm 0.00 in0.0 mm 0.00 in0.0 mm
08:28 AM 33.6°F0.9°C 29.9°F-1.2°C 86% Calm Calm -- 29.94 in1013.9 mb 0.00 in0.0 mm 0.00 in0.0 mm 0.00 in0.0 mm
08:29 AM 33.7°F0.9°C 30.0°F-1.1°C 86% Calm Calm -- 29.94 in1013.9 mb 0.00 in0.0 mm 0.00 in0.0 mm 0.00 in0.0 mm
08:30 AM 33.7°F0.9°C 30.0°F-1.1°C 86% Calm Calm -- 29.94 in1013.9 mb 0.00 in0.0 mm 0.00 in0.0 mm 0.00 in0.0 mm
08:31 AM 33.8°F1.0°C 30.1°F-1.1°C 86% Calm Calm -- 29.94 in1013.9 mb 0.00 in0.0 mm 0.00 in0.0 mm 0.00 in0.0 mm
08:32 AM 33.8°F1.0°C 30.1°F-1.1°C 86% Calm Calm -- 29.94 in1013.9 mb 0.00 in0.0 mm 0.00 in0.0 mm 0.00 in0.0 mm
08:33 AM 33.9°F1.1°C 30.2°F-1.0°C 86% Calm Calm -- 29.94 in1013.9 mb 0.00 in0.0 mm 0.00 in0.0 mm 0.00 in0.0 mm
08:34 AM 34.0°F1.1°C 30.3°F-0.9°C 86% Calm Calm -- 29.94 in1013.9 mb 0.00 in0.0 mm 0.00 in0.0 mm 0.00 in0.0 mm
08:35 AM 34.1°F1.2°C 30.4°F-0.9°C 86% Calm Calm -- 29.93 in1013.5 mb 0.00 in0.0 mm 0.00 in0.0 mm 0.00 in0.0 mm
08:36 AM 34.3°F1.3°C 30.6°F-0.8°C 86% Calm Calm 1.0 mph1.6 kmh 29.93 in1013.5 mb 0.00 in0.0 mm 0.00 in0.0 mm 0.00 in0.0 mm
08:37 AM 34.4°F1.3°C 30.7°F-0.7°C 86% Calm Calm 1.0 mph1.6 kmh 29.93 in1013.5 mb 0.00 in0.0 mm 0.00 in0.0 mm 0.00 in0.0 mm
08:38 AM 34.6°F1.4°C 30.9°F-0.6°C 86% Calm Calm 1.0 mph1.6 kmh 29.93 in1013.5 mb 0.00 in0.0 mm 0.00 in0.0 mm 0.00 in0.0 mm
08:39 AM 34.7°F1.5°C 30.7°F-0.7°C 85% Calm Calm 1.0 mph1.6 kmh 29.94 in1013.9 mb 0.00 in0.0 mm 0.00 in0.0 mm 0.00 in0.0 mm
08:40 AM 34.8°F1.6°C 30.8°F-0.7°C 85% Calm Calm 1.0 mph1.6 kmh 29.94 in1013.9 mb 0.00 in0.0 mm 0.00 in0.0 mm 0.00 in0.0 mm
08:41 AM 34.9°F1.6°C 30.9°F-0.6°C 85% Calm Calm 1.0 mph1.6 kmh 29.94 in1013.9 mb 0.00 in0.0 mm 0.00 in0.0 mm 0.00 in0.0 mm
08:42 AM 35.1°F1.7°C 31.1°F-0.5°C 85% Calm Calm 1.0 mph1.6 kmh 29.94 in1013.9 mb 0.00 in0.0 mm 0.00 in0.0 mm 0.00 in0.0 mm
08:43 AM 35.4°F1.9°C 31.3°F-0.4°C 85% Calm Calm 1.0 mph1.6 kmh 29.94 in1013.9 mb 0.00 in0.0 mm 0.00 in0.0 mm 0.00 in0.0 mm
08:44 AM 35.7°F2.1°C 31.6°F-0.2°C 85% Calm Calm 1.0 mph1.6 kmh 29.93 in1013.5 mb 0.00 in0.0 mm 0.00 in0.0 mm 0.00 in0.0 mm
08:45 AM 35.9°F2.2°C 31.8°F-0.1°C 85% Calm Calm 1.0 mph1.6 kmh 29.93 in1013.5 mb 0.00 in0.0 mm 0.00 in0.0 mm 0.00 in0.0 mm
08:46 AM 36.2°F2.3°C 32.1°F0.1°C 85% Calm Calm 1.0 mph1.6 kmh 29.93 in1013.5 mb 0.00 in0.0 mm 0.00 in0.0 mm 0.00 in0.0 mm
08:47 AM 36.4°F2.4°C 32.0°F0.0°C 84% Calm Calm -- 29.93 in1013.5 mb 0.00 in0.0 mm 0.00 in0.0 mm 0.00 in0.0 mm
08:48 AM 36.6°F2.6°C 32.2°F0.1°C 84% Calm Calm -- 29.93 in1013.5 mb 0.00 in0.0 mm 0.00 in0.0 mm 0.00 in0.0 mm
08:49 AM 36.7°F2.6°C 32.0°F0.0°C 83% Calm Calm 1.0 mph1.6 kmh 29.93 in1013.5 mb 0.00 in0.0 mm 0.00 in0.0 mm 0.00 in0.0 mm
08:50 AM 36.8°F2.7°C 32.1°F0.1°C 83% Calm Calm 1.0 mph1.6 kmh 29.93 in1013.5 mb 0.00 in0.0 mm 0.00 in0.0 mm 0.00 in0.0 mm
08:51 AM 36.9°F2.7°C 31.9°F-0.1°C 82% Calm Calm 1.0 mph1.6 kmh 29.93 in1013.5 mb 0.00 in0.0 mm 0.00 in0.0 mm 0.00 in0.0 mm
08:52 AM 36.9°F2.7°C 31.6°F-0.2°C 81% Calm Calm 1.0 mph1.6 kmh 29.93 in1013.5 mb 0.00 in0.0 mm 0.00 in0.0 mm 0.00 in0.0 mm
08:53 AM 37.1°F2.8°C 31.8°F-0.1°C 81% Calm Calm 1.0 mph1.6 kmh 29.93 in1013.5 mb 0.00 in0.0 mm 0.00 in0.0 mm 0.00 in0.0 mm
08:54 AM 37.2°F2.9°C 31.9°F-0.1°C 81% Calm Calm 1.0 mph1.6 kmh 29.93 in1013.5 mb 0.00 in0.0 mm 0.00 in0.0 mm 0.00 in0.0 mm
08:55 AM 37.3°F2.9°C 32.0°F0.0°C 81% 1.0 mph E1.6 kmh E 2.0 mph3.2 kmh 29.93 in1013.5 mb 0.00 in0.0 mm 0.00 in0.0 mm 0.00 in0.0 mm
08:56 AM 37.4°F3.0°C 31.8°F-0.1°C 80% Calm Calm 2.0 mph3.2 kmh 29.93 in1013.5 mb 0.00 in0.0 mm 0.00 in0.0 mm 0.00 in0.0 mm
08:57 AM 37.4°F3.0°C 31.8°F-0.1°C 80% Calm Calm 2.0 mph3.2 kmh 29.93 in1013.5 mb 0.00 in0.0 mm 0.00 in0.0 mm 0.00 in0.0 mm
08:58 AM 37.5°F3.1°C 31.9°F-0.1°C 80% Calm Calm 2.0 mph3.2 kmh 29.93 in1013.5 mb 0.00 in0.0 mm 0.00 in0.0 mm 0.00 in0.0 mm
08:59 AM 37.7°F3.2°C 32.1°F0.1°C 80% Calm Calm 2.0 mph3.2 kmh 29.93 in1013.5 mb 0.00 in0.0 mm 0.00 in0.0 mm 0.00 in0.0 mm
09:00 AM 37.8°F3.2°C 32.2°F0.1°C 80% Calm Calm 2.0 mph3.2 kmh 29.93 in1013.5 mb 0.00 in0.0 mm 0.00 in0.0 mm 0.00 in0.0 mm
09:01 AM 38.0°F3.3°C 32.4°F0.2°C 80% Calm Calm 2.0 mph3.2 kmh 29.93 in1013.5 mb 0.00 in0.0 mm 0.00 in0.0 mm 0.00 in0.0 mm
09:02 AM 38.1°F3.4°C 32.2°F0.1°C 79% Calm Calm 2.0 mph3.2 kmh 29.93 in1013.5 mb 0.00 in0.0 mm 0.00 in0.0 mm 0.00 in0.0 mm
09:03 AM 38.1°F3.4°C 32.2°F0.1°C 79% Calm Calm 2.0 mph3.2 kmh 29.93 in1013.5 mb 0.00 in0.0 mm 0.00 in0.0 mm 0.00 in0.0 mm
09:04 AM 38.2°F3.4°C 32.0°F0.0°C 78% Calm Calm 2.0 mph3.2 kmh 29.93 in1013.5 mb 0.00 in0.0 mm 0.00 in0.0 mm 0.00 in0.0 mm
09:05 AM 38.2°F3.4°C 32.0°F0.0°C 78% Calm Calm 2.0 mph3.2 kmh 29.93 in1013.5 mb 0.00 in0.0 mm 0.00 in0.0 mm 0.00 in0.0 mm
09:06 AM 38.2°F3.4°C 32.0°F0.0°C 78% Calm Calm -- 29.93 in1013.5 mb 0.00 in0.0 mm 0.00 in0.0 mm 0.00 in0.0 mm
09:07 AM 38.3°F3.5°C 32.1°F0.1°C 78% Calm Calm -- 29.93 in1013.5 mb 0.00 in0.0 mm 0.00 in0.0 mm 0.00 in0.0 mm
09:08 AM 38.4°F3.6°C 32.2°F0.1°C 78% Calm Calm -- 29.93 in1013.5 mb 0.00 in0.0 mm 0.00 in0.0 mm 0.00 in0.0 mm
09:09 AM 38.6°F3.7°C 32.7°F0.4°C 79% Calm Calm -- 29.93 in1013.5 mb 0.00 in0.0 mm 0.00 in0.0 mm 0.00 in0.0 mm
09:10 AM 38.9°F3.8°C 33.0°F0.6°C 79% Calm Calm -- 29.93 in1013.5 mb 0.00 in0.0 mm 0.00 in0.0 mm 0.00 in0.0 mm
09:11 AM 39.1°F3.9°C 33.1°F0.6°C 79% Calm Calm -- 29.93 in1013.5 mb 0.00 in0.0 mm 0.00 in0.0 mm 0.00 in0.0 mm
09:12 AM 39.3°F4.1°C 33.0°F0.6°C 78% Calm Calm -- 29.93 in1013.5 mb 0.00 in0.0 mm 0.00 in0.0 mm 0.00 in0.0 mm
09:13 AM 39.6°F4.2°C 33.3°F0.7°C 78% Calm Calm -- 29.93 in1013.5 mb 0.00 in0.0 mm 0.00 in0.0 mm 0.00 in0.0 mm
09:14 AM 39.8°F4.3°C 33.5°F0.8°C 78% 2.0 mph E3.2 kmh E 3.0 mph4.8 kmh 29.93 in1013.5 mb 0.00 in0.0 mm 0.00 in0.0 mm 0.00 in0.0 mm
09:15 AM 39.8°F4.3°C 33.2°F0.7°C 77% Calm Calm 3.0 mph4.8 kmh 29.93 in1013.5 mb 0.00 in0.0 mm 0.00 in0.0 mm 0.00 in0.0 mm
09:16 AM 39.8°F4.3°C 32.5°F0.3°C 75% Calm Calm 3.0 mph4.8 kmh 29.93 in1013.5 mb 0.00 in0.0 mm 0.00 in0.0 mm 0.00 in0.0 mm
09:17 AM 39.9°F4.4°C 33.0°F0.6°C 76% 1.0 mph ESE1.6 kmh ESE 3.0 mph4.8 kmh 29.94 in1013.9 mb 0.00 in0.0 mm 0.00 in0.0 mm 0.00 in0.0 mm
09:18 AM 40.0°F4.4°C 33.1°F0.6°C 76% Calm Calm 3.0 mph4.8 kmh 29.94 in1013.9 mb 0.00 in0.0 mm 0.00 in0.0 mm 0.00 in0.0 mm
09:19 AM 40.1°F4.5°C 33.2°F0.7°C 76% Calm Calm 3.0 mph4.8 kmh 29.94 in1013.9 mb 0.00 in0.0 mm 0.00 in0.0 mm 0.00 in0.0 mm
09:20 AM 40.3°F4.6°C 33.7°F0.9°C 77% Calm Calm 3.0 mph4.8 kmh 29.94 in1013.9 mb 0.00 in0.0 mm 0.00 in0.0 mm 0.00 in0.0 mm
09:21 AM 40.4°F4.7°C 33.4°F0.8°C 76% Calm Calm 3.0 mph4.8 kmh 29.94 in1013.9 mb 0.00 in0.0 mm 0.00 in0.0 mm 0.00 in0.0 mm
09:22 AM 40.4°F4.7°C 33.8°F1.0°C 77% Calm Calm 3.0 mph4.8 kmh 29.94 in1013.9 mb 0.00 in0.0 mm 0.00 in0.0 mm 0.00 in0.0 mm
09:23 AM 40.6°F4.8°C 34.0°F1.1°C 77% Calm Calm 1.0 mph1.6 kmh 29.94 in1013.9 mb 0.00 in0.0 mm 0.00 in0.0 mm 0.00 in0.0 mm
09:24 AM 40.7°F4.8°C 34.1°F1.2°C 77% Calm Calm 1.0 mph1.6 kmh 29.94 in1013.9 mb 0.00 in0.0 mm 0.00 in0.0 mm 0.00 in0.0 mm
09:25 AM 40.8°F4.9°C 34.2°F1.2°C 77% Calm Calm 1.0 mph1.6 kmh 29.94 in1013.9 mb 0.00 in0.0 mm 0.00 in0.0 mm 0.00 in0.0 mm
09:26 AM 40.8°F4.9°C 33.8°F1.0°C 76% 1.0 mph SW1.6 kmh SW 1.0 mph1.6 kmh 29.94 in1013.9 mb 0.00 in0.0 mm 0.00 in0.0 mm 0.00 in0.0 mm
09:27 AM 40.8°F4.9°C 33.8°F1.0°C 76% Calm Calm 2.0 mph3.2 kmh 29.94 in1013.9 mb 0.00 in0.0 mm 0.00 in0.0 mm 0.00 in0.0 mm
09:28 AM 40.7°F4.8°C 33.1°F0.6°C 74% 1.0 mph SW1.6 kmh SW 2.0 mph3.2 kmh 29.95 in1014.2 mb 0.00 in0.0 mm 0.00 in0.0 mm 0.00 in0.0 mm
09:29 AM 40.6°F4.8°C 33.3°F0.7°C 75% 1.0 mph SSW1.6 kmh SSW 3.0 mph4.8 kmh 29.95 in1014.2 mb 0.00 in0.0 mm 0.00 in0.0 mm 0.00 in0.0 mm
09:30 AM 40.6°F4.8°C 33.3°F0.7°C 75% Calm Calm 3.0 mph4.8 kmh 29.95 in1014.2 mb 0.00 in0.0 mm 0.00 in0.0 mm 0.00 in0.0 mm
09:31 AM 40.7°F4.8°C 33.4°F0.8°C 75% 1.0 mph SSE1.6 kmh SSE 3.0 mph4.8 kmh 29.95 in1014.2 mb 0.00 in0.0 mm 0.00 in0.0 mm 0.00 in0.0 mm
09:32 AM 40.8°F4.9°C 33.5°F0.8°C 75% 1.0 mph SE1.6 kmh SE 3.0 mph4.8 kmh 29.95 in1014.2 mb 0.00 in0.0 mm 0.00 in0.0 mm 0.00 in0.0 mm
09:33 AM 40.9°F4.9°C 33.6°F0.9°C 75% 4.0 mph S6.4 kmh S 5.0 mph8.0 kmh 29.95 in1014.2 mb 0.00 in0.0 mm 0.00 in0.0 mm 0.00 in0.0 mm
09:34 AM 41.0°F5.0°C 33.4°F0.8°C 74% 3.0 mph SSE4.8 kmh SSE 7.0 mph11.3 kmh 29.95 in1014.2 mb 0.00 in0.0 mm 0.00 in0.0 mm 0.00 in0.0 mm
09:35 AM 41.0°F5.0°C 33.0°F0.6°C 73% 3.0 mph S4.8 kmh S 7.0 mph11.3 kmh 29.95 in1014.2 mb 0.00 in0.0 mm 0.00 in0.0 mm 0.00 in0.0 mm
09:36 AM 41.1°F5.1°C 32.8°F0.4°C 72% 2.0 mph SSW3.2 kmh SSW 7.0 mph11.3 kmh 29.96 in1014.6 mb 0.00 in0.0 mm 0.00 in0.0 mm 0.00 in0.0 mm
09:37 AM 41.1°F5.1°C 32.8°F0.4°C 72% 1.0 mph S1.6 kmh S 7.0 mph11.3 kmh 29.96 in1014.6 mb 0.00 in0.0 mm 0.00 in0.0 mm 0.00 in0.0 mm
09:38 AM 41.2°F5.1°C 32.9°F0.5°C 72% 2.0 mph SSE3.2 kmh SSE 7.0 mph11.3 kmh 29.96 in1014.6 mb 0.00 in0.0 mm 0.00 in0.0 mm 0.00 in0.0 mm
09:39 AM 41.3°F5.2°C 33.0°F0.6°C 72% 1.0 mph SE1.6 kmh SE 7.0 mph11.3 kmh 29.96 in1014.6 mb 0.00 in0.0 mm 0.00 in0.0 mm 0.00 in0.0 mm
09:40 AM 41.4°F5.2°C 32.7°F0.4°C 71% 3.0 mph SSE4.8 kmh SSE 7.0 mph11.3 kmh 29.96 in1014.6 mb 0.00 in0.0 mm 0.00 in0.0 mm 0.00 in0.0 mm
09:41 AM 41.5°F5.3°C 32.8°F0.4°C 71% 2.0 mph SSE3.2 kmh SSE 7.0 mph11.3 kmh 29.96 in1014.6 mb 0.00 in0.0 mm 0.00 in0.0 mm 0.00 in0.0 mm
09:42 AM 41.6°F5.3°C 32.6°F0.3°C 70% Calm Calm 7.0 mph11.3 kmh 29.96 in1014.6 mb 0.00 in0.0 mm 0.00 in0.0 mm 0.00 in0.0 mm
09:43 AM 41.6°F5.3°C 32.6°F0.3°C 70% Calm Calm 6.0 mph9.7 kmh 29.96 in1014.6 mb 0.00 in0.0 mm 0.00 in0.0 mm 0.00 in0.0 mm
09:44 AM 41.7°F5.4°C 32.6°F0.3°C 70% Calm Calm 6.0 mph9.7 kmh 29.96 in1014.6 mb 0.00 in0.0 mm 0.00 in0.0 mm 0.00 in0.0 mm
09:45 AM 41.8°F5.4°C 32.4°F0.2°C 69% Calm Calm 5.0 mph8.0 kmh 29.96 in1014.6 mb 0.00 in0.0 mm 0.00 in0.0 mm 0.00 in0.0 mm
09:46 AM 41.9°F5.5°C 32.5°F0.3°C 69% 2.0 mph NE3.2 kmh NE 5.0 mph8.0 kmh 29.96 in1014.6 mb 0.00 in0.0 mm 0.00 in0.0 mm 0.00 in0.0 mm
09:47 AM 42.0°F5.6°C 32.6°F0.3°C 69% 4.0 mph E6.4 kmh E 4.0 mph6.4 kmh 29.95 in1014.2 mb 0.00 in0.0 mm 0.00 in0.0 mm 0.00 in0.0 mm
09:48 AM 42.0°F5.6°C 31.9°F-0.1°C 67% Calm Calm 4.0 mph6.4 kmh 29.95 in1014.2 mb 0.00 in0.0 mm 0.00 in0.0 mm 0.00 in0.0 mm
09:49 AM 42.0°F5.6°C 31.9°F-0.1°C 67% Calm Calm 4.0 mph6.4 kmh 29.95 in1014.2 mb 0.00 in0.0 mm 0.00 in0.0 mm 0.00 in0.0 mm
09:50 AM 42.1°F5.6°C 31.9°F-0.1°C 67% Calm Calm 3.0 mph4.8 kmh 29.96 in1014.6 mb 0.00 in0.0 mm 0.00 in0.0 mm 0.00 in0.0 mm
09:51 AM 42.2°F5.7°C 32.0°F0.0°C 67% Calm Calm 3.0 mph4.8 kmh 29.96 in1014.6 mb 0.00 in0.0 mm 0.00 in0.0 mm 0.00 in0.0 mm
09:52 AM 42.3°F5.7°C 32.1°F0.1°C 67% Calm Calm 3.0 mph4.8 kmh 29.95 in1014.2 mb 0.00 in0.0 mm 0.00 in0.0 mm 0.00 in0.0 mm
09:53 AM 42.4°F5.8°C 31.9°F-0.1°C 66% Calm Calm 3.0 mph4.8 kmh 29.95 in1014.2 mb 0.00 in0.0 mm 0.00 in0.0 mm 0.00 in0.0 mm
09:54 AM 42.5°F5.8°C 32.0°F0.0°C 66% Calm Calm 3.0 mph4.8 kmh 29.95 in1014.2 mb 0.00 in0.0 mm 0.00 in0.0 mm 0.00 in0.0 mm
09:55 AM 42.7°F5.9°C 32.1°F0.1°C 66% Calm Calm 3.0 mph4.8 kmh 29.95 in1014.2 mb 0.00 in0.0 mm 0.00 in0.0 mm 0.00 in0.0 mm
09:56 AM 42.9°F6.1°C 32.3°F0.2°C 66% Calm Calm 2.0 mph3.2 kmh 29.95 in1014.2 mb 0.00 in0.0 mm 0.00 in0.0 mm 0.00 in0.0 mm
09:57 AM 43.1°F6.2°C 31.8°F-0.1°C 64% 3.0 mph ESE4.8 kmh ESE 3.0 mph4.8 kmh 29.95 in1014.2 mb 0.00 in0.0 mm 0.00 in0.0 mm 0.00 in0.0 mm
09:58 AM 43.2°F6.2°C 31.5°F-0.3°C 63% 2.0 mph E3.2 kmh E 3.0 mph4.8 kmh 29.95 in1014.2 mb 0.00 in0.0 mm 0.00 in0.0 mm 0.00 in0.0 mm
09:59 AM 43.4°F6.3°C 32.0°F0.0°C 64% Calm Calm 3.0 mph4.8 kmh 29.95 in1014.2 mb 0.00 in0.0 mm 0.00 in0.0 mm 0.00 in0.0 mm
10:00 AM 43.5°F6.4°C 31.8°F-0.1°C 63% 3.0 mph E4.8 kmh E 3.0 mph4.8 kmh 29.95 in1014.2 mb 0.00 in0.0 mm 0.00 in0.0 mm 0.00 in0.0 mm
10:01 AM 43.6°F6.4°C 31.8°F-0.1°C 63% 2.0 mph ENE3.2 kmh ENE 4.0 mph6.4 kmh 29.95 in1014.2 mb 0.00 in0.0 mm 0.00 in0.0 mm 0.00 in0.0 mm
10:02 AM 43.5°F6.4°C 31.4°F-0.3°C 62% 2.0 mph E3.2 kmh E 4.0 mph6.4 kmh 29.95 in1014.2 mb 0.00 in0.0 mm 0.00 in0.0 mm 0.00 in0.0 mm
10:03 AM 43.5°F6.4°C 31.0°F-0.6°C 61% Calm Calm 4.0 mph6.4 kmh 29.95 in1014.2 mb 0.00 in0.0 mm 0.00 in0.0 mm 0.00 in0.0 mm
10:04 AM 43.5°F6.4°C 31.4°F-0.3°C 62% Calm Calm 4.0 mph6.4 kmh 29.95 in1014.2 mb 0.00 in0.0 mm 0.00 in0.0 mm 0.00 in0.0 mm
10:05 AM 43.6°F6.4°C 31.5°F-0.3°C 62% 2.0 mph SE3.2 kmh SE 4.0 mph6.4 kmh 29.95 in1014.2 mb 0.00 in0.0 mm 0.00 in0.0 mm 0.00 in0.0 mm
10:06 AM 43.8°F6.6°C 32.0°F0.0°C 63% Calm Calm 4.0 mph6.4 kmh 29.95 in1014.2 mb 0.00 in0.0 mm 0.00 in0.0 mm 0.00 in0.0 mm
10:07 AM 44.0°F6.7°C 32.2°F0.1°C 63% Calm Calm 4.0 mph6.4 kmh 29.95 in1014.2 mb 0.00 in0.0 mm 0.00 in0.0 mm 0.00 in0.0 mm
10:08 AM 44.3°F6.8°C 32.5°F0.3°C 63% Calm Calm 4.0 mph6.4 kmh 29.95 in1014.2 mb 0.00 in0.0 mm 0.00 in0.0 mm 0.00 in0.0 mm
10:09 AM 44.4°F6.9°C 32.6°F0.3°C 63% 1.0 mph SE1.6 kmh SE 4.0 mph6.4 kmh 29.95 in1014.2 mb 0.00 in0.0 mm 0.00 in0.0 mm 0.00 in0.0 mm
10:10 AM 44.7°F7.1°C 32.5°F0.3°C 62% Calm Calm 2.0 mph3.2 kmh 29.95 in1014.2 mb 0.00 in0.0 mm 0.00 in0.0 mm 0.00 in0.0 mm
10:11 AM 45.0°F7.2°C 32.4°F0.2°C 61% 2.0 mph SE3.2 kmh SE 3.0 mph4.8 kmh 29.95 in1014.2 mb 0.00 in0.0 mm 0.00 in0.0 mm 0.00 in0.0 mm
10:12 AM 45.1°F7.3°C 31.6°F-0.2°C 59% 2.0 mph E3.2 kmh E 4.0 mph6.4 kmh 29.95 in1014.2 mb 0.00 in0.0 mm 0.00 in0.0 mm 0.00 in0.0 mm
10:13 AM 45.1°F7.3°C 30.8°F-0.7°C 57% 1.0 mph E1.6 kmh E 3.0 mph4.8 kmh 29.95 in1014.2 mb 0.00 in0.0 mm 0.00 in0.0 mm 0.00 in0.0 mm
10:14 AM 45.1°F7.3°C 31.2°F-0.4°C 58% 4.0 mph NE6.4 kmh NE 4.0 mph6.4 kmh 29.95 in1014.2 mb 0.00 in0.0 mm 0.00 in0.0 mm 0.00 in0.0 mm
10:15 AM 45.1°F7.3°C 31.2°F-0.4°C 58% 1.0 mph NE1.6 kmh NE 4.0 mph6.4 kmh 29.94 in1013.9 mb 0.00 in0.0 mm 0.00 in0.0 mm 0.00 in0.0 mm
10:16 AM 45.2°F7.3°C 31.7°F-0.2°C 59% 2.0 mph E3.2 kmh E 4.0 mph6.4 kmh 29.94 in1013.9 mb 0.00 in0.0 mm 0.00 in0.0 mm 0.00 in0.0 mm
10:17 AM 45.2°F7.3°C 30.9°F-0.6°C 57% 2.0 mph E3.2 kmh E 4.0 mph6.4 kmh 29.95 in1014.2 mb 0.00 in0.0 mm 0.00 in0.0 mm 0.00 in0.0 mm
10:18 AM 45.3°F7.4°C 31.4°F-0.3°C 58% Calm Calm 4.0 mph6.4 kmh 29.95 in1014.2 mb 0.00 in0.0 mm 0.00 in0.0 mm 0.00 in0.0 mm
10:19 AM 45.5°F7.5°C 32.0°F0.0°C 59% Calm Calm 4.0 mph6.4 kmh 29.95 in1014.2 mb 0.00 in0.0 mm 0.00 in0.0 mm 0.00 in0.0 mm
10:20 AM 45.6°F7.6°C 32.1°F0.1°C 59% Calm Calm 4.0 mph6.4 kmh 29.95 in1014.2 mb 0.00 in0.0 mm 0.00 in0.0 mm 0.00 in0.0 mm
10:21 AM 45.8°F7.7°C 32.7°F0.4°C 60% Calm Calm 4.0 mph6.4 kmh 29.95 in1014.2 mb 0.00 in0.0 mm 0.00 in0.0 mm 0.00 in0.0 mm
10:22 AM 46.1°F7.8°C 33.0°F0.6°C 60% Calm Calm 4.0 mph6.4 kmh 29.95 in1014.2 mb 0.00 in0.0 mm 0.00 in0.0 mm 0.00 in0.0 mm
10:23 AM 46.3°F7.9°C 33.2°F0.7°C 60% Calm Calm 4.0 mph6.4 kmh 29.95 in1014.2 mb 0.00 in0.0 mm 0.00 in0.0 mm 0.00 in0.0 mm
10:24 AM 46.4°F8.0°C 32.4°F0.2°C 58% 1.0 mph SE1.6 kmh SE 3.0 mph4.8 kmh 29.95 in1014.2 mb 0.00 in0.0 mm 0.00 in0.0 mm 0.00 in0.0 mm
10:25 AM 46.6°F8.1°C 32.2°F0.1°C 57% 1.0 mph ESE1.6 kmh ESE 3.0 mph4.8 kmh 29.95 in1014.2 mb 0.00 in0.0 mm 0.00 in0.0 mm 0.00 in0.0 mm
10:26 AM 46.8°F8.2°C 31.9°F-0.1°C 56% Calm Calm 2.0 mph3.2 kmh 29.95 in1014.2 mb 0.00 in0.0 mm 0.00 in0.0 mm 0.00 in0.0 mm
10:27 AM 47.0°F8.3°C 31.7°F-0.2°C 55% Calm Calm 2.0 mph3.2 kmh 29.95 in1014.2 mb 0.00 in0.0 mm 0.00 in0.0 mm 0.00 in0.0 mm
10:28 AM 47.1°F8.4°C 31.3°F-0.4°C 54% Calm Calm 2.0 mph3.2 kmh 29.95 in1014.2 mb 0.00 in0.0 mm 0.00 in0.0 mm 0.00 in0.0 mm
10:29 AM 47.3°F8.5°C 31.5°F-0.3°C 54% Calm Calm 2.0 mph3.2 kmh 29.95 in1014.2 mb 0.00 in0.0 mm 0.00 in0.0 mm 0.00 in0.0 mm
10:30 AM 47.5°F8.6°C 31.7°F-0.2°C 54% Calm Calm 2.0 mph3.2 kmh 29.95 in1014.2 mb 0.00 in0.0 mm 0.00 in0.0 mm 0.00 in0.0 mm
10:31 AM 47.6°F8.7°C 31.3°F-0.4°C 53% Calm Calm 2.0 mph3.2 kmh 29.95 in1014.2 mb 0.00 in0.0 mm 0.00 in0.0 mm 0.00 in0.0 mm
10:32 AM 47.6°F8.7°C 31.3°F-0.4°C 53% 1.0 mph E1.6 kmh E 2.0 mph3.2 kmh 29.95 in1014.2 mb 0.00 in0.0 mm 0.00 in0.0 mm 0.00 in0.0 mm
10:33 AM 47.6°F8.7°C 31.3°F-0.4°C 53% Calm Calm 2.0 mph3.2 kmh 29.95 in1014.2 mb 0.00 in0.0 mm 0.00 in0.0 mm 0.00 in0.0 mm
10:34 AM 47.7°F8.7°C 31.4°F-0.3°C 53% Calm Calm 2.0 mph3.2 kmh 29.95 in1014.2 mb 0.00 in0.0 mm 0.00 in0.0 mm 0.00 in0.0 mm
10:35 AM 47.8°F8.8°C 31.0°F-0.6°C 52% Calm Calm 2.0 mph3.2 kmh 29.95 in1014.2 mb 0.00 in0.0 mm 0.00 in0.0 mm 0.00 in0.0 mm
10:36 AM 47.9°F8.8°C 31.1°F-0.5°C 52% Calm Calm 2.0 mph3.2 kmh 29.95 in1014.2 mb 0.00 in0.0 mm 0.00 in0.0 mm 0.00 in0.0 mm
10:37 AM 48.1°F8.9°C 31.8°F-0.1°C 53% Calm Calm 2.0 mph3.2 kmh 29.95 in1014.2 mb 0.00 in0.0 mm 0.00 in0.0 mm 0.00 in0.0 mm
10:38 AM 48.4°F9.1°C 32.1°F0.1°C 53% Calm Calm 2.0 mph3.2 kmh 29.95 in1014.2 mb 0.00 in0.0 mm 0.00 in0.0 mm 0.00 in0.0 mm
10:39 AM 48.6°F9.2°C 32.7°F0.4°C 54% Calm Calm 2.0 mph3.2 kmh 29.95 in1014.2 mb 0.00 in0.0 mm 0.00 in0.0 mm 0.00 in0.0 mm
10:40 AM 48.9°F9.4°C 33.5°F0.8°C 55% Calm Calm 2.0 mph3.2 kmh 29.95 in1014.2 mb 0.00 in0.0 mm 0.00 in0.0 mm 0.00 in0.0 mm
10:41 AM 49.1°F9.5°C 32.7°F0.4°C 53% Calm Calm 1.0 mph1.6 kmh 29.95 in1014.2 mb 0.00 in0.0 mm 0.00 in0.0 mm 0.00 in0.0 mm
10:42 AM 49.1°F9.5°C 31.8°F-0.1°C 51% Calm Calm 1.0 mph1.6 kmh 29.95 in1014.2 mb 0.00 in0.0 mm 0.00 in0.0 mm 0.00 in0.0 mm
10:43 AM 49.1°F9.5°C 31.3°F-0.4°C 50% Calm Calm 1.0 mph1.6 kmh 29.95 in1014.2 mb 0.00 in0.0 mm 0.00 in0.0 mm 0.00 in0.0 mm
10:44 AM 49.0°F9.4°C 31.7°F-0.2°C 51% Calm Calm 1.0 mph1.6 kmh 29.95 in1014.2 mb 0.00 in0.0 mm 0.00 in0.0 mm 0.00 in0.0 mm
10:45 AM 48.9°F9.4°C 31.1°F-0.5°C 50% Calm Calm 1.0 mph1.6 kmh 29.95 in1014.2 mb 0.00 in0.0 mm 0.00 in0.0 mm 0.00 in0.0 mm
10:46 AM 48.8°F9.3°C 31.5°F-0.3°C 51% Calm Calm 1.0 mph1.6 kmh 29.95 in1014.2 mb 0.00 in0.0 mm 0.00 in0.0 mm 0.00 in0.0 mm
10:47 AM 48.8°F9.3°C 31.5°F-0.3°C 51% Calm Calm 1.0 mph1.6 kmh 29.95 in1014.2 mb 0.00 in0.0 mm 0.00 in0.0 mm 0.00 in0.0 mm
10:48 AM 48.9°F9.4°C 31.6°F-0.2°C 51% Calm Calm 1.0 mph1.6 kmh 29.95 in1014.2 mb 0.00 in0.0 mm 0.00 in0.0 mm 0.00 in0.0 mm
10:49 AM 49.0°F9.4°C 31.7°F-0.2°C 51% Calm Calm 1.0 mph1.6 kmh 29.95 in1014.2 mb 0.00 in0.0 mm 0.00 in0.0 mm 0.00 in0.0 mm
10:50 AM 49.1°F9.5°C 31.8°F-0.1°C 51% Calm Calm 1.0 mph1.6 kmh 29.94 in1013.9 mb 0.00 in0.0 mm 0.00 in0.0 mm 0.00 in0.0 mm
10:51 AM 49.3°F9.6°C 32.4°F0.2°C 52% 4.0 mph NE6.4 kmh NE 4.0 mph6.4 kmh 29.94 in1013.9 mb 0.00 in0.0 mm 0.00 in0.0 mm 0.00 in0.0 mm
10:52 AM 49.3°F9.6°C 31.9°F-0.1°C 51% Calm Calm 4.0 mph6.4 kmh 29.94 in1013.9 mb 0.00 in0.0 mm 0.00 in0.0 mm 0.00 in0.0 mm
10:53 AM 49.2°F9.6°C 31.9°F-0.1°C 51% Calm Calm 4.0 mph6.4 kmh 29.94 in1013.9 mb 0.00 in0.0 mm 0.00 in0.0 mm 0.00 in0.0 mm
10:54 AM 49.2°F9.6°C 32.3°F0.2°C 52% Calm Calm 4.0 mph6.4 kmh 29.94 in1013.9 mb 0.00 in0.0 mm 0.00 in0.0 mm 0.00 in0.0 mm
10:55 AM 49.3°F9.6°C 32.4°F0.2°C 52% 2.0 mph E3.2 kmh E 4.0 mph6.4 kmh 29.94 in1013.9 mb 0.00 in0.0 mm 0.00 in0.0 mm 0.00 in0.0 mm
10:56 AM 49.3°F9.6°C 31.9°F-0.1°C 51% Calm Calm 4.0 mph6.4 kmh 29.94 in1013.9 mb 0.00 in0.0 mm 0.00 in0.0 mm 0.00 in0.0 mm
10:57 AM 49.5°F9.7°C 32.1°F0.1°C 51% 2.0 mph NE3.2 kmh NE 4.0 mph6.4 kmh 29.94 in1013.9 mb 0.00 in0.0 mm 0.00 in0.0 mm 0.00 in0.0 mm
10:58 AM 49.6°F9.8°C 31.2°F-0.4°C 49% Calm Calm 4.0 mph6.4 kmh 29.94 in1013.9 mb 0.00 in0.0 mm 0.00 in0.0 mm 0.00 in0.0 mm
10:59 AM 49.5°F9.7°C 31.1°F-0.5°C 49% Calm Calm 4.0 mph6.4 kmh 29.94 in1013.9 mb 0.00 in0.0 mm 0.00 in0.0 mm 0.00 in0.0 mm
11:00 AM 49.4°F9.7°C 31.1°F-0.5°C 49% Calm Calm 3.0 mph4.8 kmh 29.94 in1013.9 mb 0.00 in0.0 mm 0.00 in0.0 mm 0.00 in0.0 mm
11:01 AM 49.5°F9.7°C 31.6°F-0.2°C 50% Calm Calm 3.0 mph4.8 kmh 29.94 in1013.9 mb 0.00 in0.0 mm 0.00 in0.0 mm 0.00 in0.0 mm
11:02 AM 49.6°F9.8°C 31.7°F-0.2°C 50% Calm Calm 3.0 mph4.8 kmh 29.94 in1013.9 mb 0.00 in0.0 mm 0.00 in0.0 mm 0.00 in0.0 mm
11:03 AM 49.7°F9.8°C 31.8°F-0.1°C 50% Calm Calm 3.0 mph4.8 kmh 29.94 in1013.9 mb 0.00 in0.0 mm 0.00 in0.0 mm 0.00 in0.0 mm
11:04 AM 49.8°F9.9°C 31.9°F-0.1°C 50% Calm Calm 3.0 mph4.8 kmh 29.94 in1013.9 mb 0.00 in0.0 mm 0.00 in0.0 mm 0.00 in0.0 mm
11:05 AM 50.1°F10.1°C 32.2°F0.1°C 50% Calm Calm 2.0 mph3.2 kmh 29.94 in1013.9 mb 0.00 in0.0 mm 0.00 in0.0 mm 0.00 in0.0 mm
11:06 AM 50.2°F10.1°C 32.3°F0.2°C 50% 1.0 mph SE1.6 kmh SE 1.0 mph1.6 kmh 29.94 in1013.9 mb 0.00 in0.0 mm 0.00 in0.0 mm 0.00 in0.0 mm
11:07 AM 50.4°F10.2°C 31.5°F-0.3°C 48% Calm Calm 1.0 mph1.6 kmh 29.94 in1013.9 mb 0.00 in0.0 mm 0.00 in0.0 mm 0.00 in0.0 mm
11:08 AM 50.7°F10.4°C 31.7°F-0.2°C 48% Calm Calm 1.0 mph1.6 kmh 29.94 in1013.9 mb 0.00 in0.0 mm 0.00 in0.0 mm 0.00 in0.0 mm
11:09 AM 50.9°F10.5°C 31.4°F-0.3°C 47% Calm Calm 1.0 mph1.6 kmh 29.94 in1013.9 mb 0.00 in0.0 mm 0.00 in0.0 mm 0.00 in0.0 mm
11:10 AM 51.1°F10.6°C 31.6°F-0.2°C 47% Calm Calm 1.0 mph1.6 kmh 29.94 in1013.9 mb 0.00 in0.0 mm 0.00 in0.0 mm 0.00 in0.0 mm
11:11 AM 51.3°F10.7°C 31.8°F-0.1°C 47% Calm Calm 1.0 mph1.6 kmh 29.94 in1013.9 mb 0.00 in0.0 mm 0.00 in0.0 mm 0.00 in0.0 mm
11:12 AM 51.5°F10.8°C 31.9°F-0.1°C 47% Calm Calm 1.0 mph1.6 kmh 29.94 in1013.9 mb 0.00 in0.0 mm 0.00 in0.0 mm 0.00 in0.0 mm
11:13 AM 51.6°F10.9°C 31.5°F-0.3°C 46% Calm Calm 1.0 mph1.6 kmh 29.94 in1013.9 mb 0.00 in0.0 mm 0.00 in0.0 mm 0.00 in0.0 mm
11:14 AM 51.7°F10.9°C 31.6°F-0.2°C 46% Calm Calm 1.0 mph1.6 kmh 29.94 in1013.9 mb 0.00 in0.0 mm 0.00 in0.0 mm 0.00 in0.0 mm
11:15 AM 51.6°F10.9°C 31.5°F-0.3°C 46% Calm Calm 1.0 mph1.6 kmh 29.94 in1013.9 mb 0.00 in0.0 mm 0.00 in0.0 mm 0.00 in0.0 mm
11:16 AM 51.7°F10.9°C 32.1°F0.1°C 47% Calm Calm 1.0 mph1.6 kmh 29.93 in1013.5 mb 0.00 in0.0 mm 0.00 in0.0 mm 0.00 in0.0 mm
11:17 AM 51.7°F10.9°C 32.1°F0.1°C 47% Calm Calm 1.0 mph1.6 kmh 29.93 in1013.5 mb 0.00 in0.0 mm 0.00 in0.0 mm 0.00 in0.0 mm
11:18 AM 51.7°F10.9°C 31.6°F-0.2°C 46% Calm Calm 1.0 mph1.6 kmh 29.93 in1013.5 mb 0.00 in0.0 mm 0.00 in0.0 mm 0.00 in0.0 mm
11:19 AM 51.8°F11.0°C 31.7°F-0.2°C 46% Calm Calm 1.0 mph1.6 kmh 29.93 in1013.5 mb 0.00 in0.0 mm 0.00 in0.0 mm 0.00 in0.0 mm
11:20 AM 52.0°F11.1°C 31.9°F-0.1°C 46% Calm Calm 1.0 mph1.6 kmh 29.93 in1013.5 mb 0.00 in0.0 mm 0.00 in0.0 mm 0.00 in0.0 mm
11:21 AM 52.2°F11.2°C 32.1°F0.1°C 46% 1.0 mph NNW1.6 kmh NNW 1.0 mph1.6 kmh 29.93 in1013.5 mb 0.00 in0.0 mm 0.00 in0.0 mm 0.00 in0.0 mm
11:22 AM 52.2°F11.2°C 32.1°F0.1°C 46% 1.0 mph NW1.6 kmh NW 4.0 mph6.4 kmh 29.93 in1013.5 mb 0.00 in0.0 mm 0.00 in0.0 mm 0.00 in0.0 mm
11:23 AM 52.1°F11.2°C 31.4°F-0.3°C 45% Calm Calm 4.0 mph6.4 kmh 29.93 in1013.5 mb 0.00 in0.0 mm 0.00 in0.0 mm 0.00 in0.0 mm
11:24 AM 51.9°F11.1°C 31.8°F-0.1°C 46% Calm Calm 4.0 mph6.4 kmh 29.93 in1013.5 mb 0.00 in0.0 mm 0.00 in0.0 mm 0.00 in0.0 mm
11:25 AM 51.9°F11.1°C 31.8°F-0.1°C 46% Calm Calm 4.0 mph6.4 kmh 29.93 in1013.5 mb 0.00 in0.0 mm 0.00 in0.0 mm 0.00 in0.0 mm
11:26 AM 51.9°F11.1°C 32.3°F0.2°C 47% Calm Calm 4.0 mph6.4 kmh 29.93 in1013.5 mb 0.00 in0.0 mm 0.00 in0.0 mm 0.00 in0.0 mm
11:27 AM 51.9°F11.1°C 31.8°F-0.1°C 46% Calm Calm 4.0 mph6.4 kmh 29.93 in1013.5 mb 0.00 in0.0 mm 0.00 in0.0 mm 0.00 in0.0 mm
11:28 AM 51.9°F11.1°C 31.2°F-0.4°C 45% Calm Calm 4.0 mph6.4 kmh 29.93 in1013.5 mb 0.00 in0.0 mm 0.00 in0.0 mm 0.00 in0.0 mm
11:29 AM 51.9°F11.1°C 31.8°F-0.1°C 46% Calm Calm 4.0 mph6.4 kmh 29.93 in1013.5 mb 0.00 in0.0 mm 0.00 in0.0 mm 0.00 in0.0 mm
11:30 AM 51.9°F11.1°C 31.8°F-0.1°C 46% Calm Calm 4.0 mph6.4 kmh 29.93 in1013.5 mb 0.00 in0.0 mm 0.00 in0.0 mm 0.00 in0.0 mm
11:31 AM 51.9°F11.1°C 31.8°F-0.1°C 46% Calm Calm 2.0 mph3.2 kmh 29.93 in1013.5 mb 0.00 in0.0 mm 0.00 in0.0 mm 0.00 in0.0 mm
11:32 AM 52.0°F11.1°C 31.9°F-0.1°C 46% Calm Calm 1.0 mph1.6 kmh 29.93 in1013.5 mb 0.00 in0.0 mm 0.00 in0.0 mm 0.00 in0.0 mm
11:33 AM 52.1°F11.2°C 32.0°F0.0°C 46% Calm Calm 1.0 mph1.6 kmh 29.93 in1013.5 mb 0.00 in0.0 mm 0.00 in0.0 mm 0.00 in0.0 mm
11:34 AM 52.2°F11.2°C 31.5°F-0.3°C 45% 1.0 mph WSW1.6 kmh WSW 1.0 mph1.6 kmh 29.93 in1013.5 mb 0.00 in0.0 mm 0.00 in0.0 mm 0.00 in0.0 mm
11:35 AM 52.3°F11.3°C 32.1°F0.1°C 46% Calm Calm 1.0 mph1.6 kmh 29.93 in1013.5 mb 0.00 in0.0 mm 0.00 in0.0 mm 0.00 in0.0 mm
11:36 AM 52.4°F11.3°C 32.2°F0.1°C 46% 1.0 mph W1.6 kmh W 2.0 mph3.2 kmh 29.93 in1013.5 mb 0.00 in0.0 mm 0.00 in0.0 mm 0.00 in0.0 mm
11:37 AM 52.4°F11.3°C 32.2°F0.1°C 46% Calm Calm 2.0 mph3.2 kmh 29.93 in1013.5 mb 0.00 in0.0 mm 0.00 in0.0 mm 0.00 in0.0 mm
11:38 AM 52.5°F11.4°C 31.8°F-0.1°C 45% 1.0 mph WSW1.6 kmh WSW 2.0 mph3.2 kmh 29.93 in1013.5 mb 0.00 in0.0 mm 0.00 in0.0 mm 0.00 in0.0 mm
11:39 AM 52.5°F11.4°C 31.8°F-0.1°C 45% Calm Calm 2.0 mph3.2 kmh 29.93 in1013.5 mb 0.00 in0.0 mm 0.00 in0.0 mm 0.00 in0.0 mm
11:40 AM 52.5°F11.4°C 31.8°F-0.1°C 45% Calm Calm 2.0 mph3.2 kmh 29.93 in1013.5 mb 0.00 in0.0 mm 0.00 in0.0 mm 0.00 in0.0 mm
11:41 AM 52.5°F11.4°C 31.8°F-0.1°C 45% Calm Calm 2.0 mph3.2 kmh 29.93 in1013.5 mb 0.00 in0.0 mm 0.00 in0.0 mm 0.00 in0.0 mm
11:42 AM 52.5°F11.4°C 31.8°F-0.1°C 45% Calm Calm 2.0 mph3.2 kmh 29.93 in1013.5 mb 0.00 in0.0 mm 0.00 in0.0 mm 0.00 in0.0 mm
11:43 AM 52.6°F11.4°C 32.4°F0.2°C 46% Calm Calm 2.0 mph3.2 kmh 29.93 in1013.5 mb 0.00 in0.0 mm 0.00 in0.0 mm 0.00 in0.0 mm
11:44 AM 52.8°F11.6°C 32.6°F0.3°C 46% Calm Calm 2.0 mph3.2 kmh 29.93 in1013.5 mb 0.00 in0.0 mm 0.00 in0.0 mm 0.00 in0.0 mm
11:45 AM 52.9°F11.6°C 32.1°F0.1°C 45% Calm Calm 2.0 mph3.2 kmh 29.93 in1013.5 mb 0.00 in0.0 mm 0.00 in0.0 mm 0.00 in0.0 mm
11:46 AM 53.1°F11.7°C 32.9°F0.5°C 46% Calm Calm 2.0 mph3.2 kmh 29.93 in1013.5 mb 0.00 in0.0 mm 0.00 in0.0 mm 0.00 in0.0 mm
11:47 AM 53.3°F11.8°C 32.5°F0.3°C 45% Calm Calm 1.0 mph1.6 kmh 29.93 in1013.5 mb 0.00 in0.0 mm 0.00 in0.0 mm 0.00 in0.0 mm
11:48 AM 53.6°F12.0°C 33.9°F1.1°C 47% Calm Calm 1.0 mph1.6 kmh 29.93 in1013.5 mb 0.00 in0.0 mm 0.00 in0.0 mm 0.00 in0.0 mm
11:49 AM 54.0°F12.2°C 34.2°F1.2°C 47% Calm Calm 2.0 mph3.2 kmh 29.93 in1013.5 mb 0.00 in0.0 mm 0.00 in0.0 mm 0.00 in0.0 mm
11:50 AM 54.4°F12.4°C 34.1°F1.2°C 46% 2.0 mph SW3.2 kmh SW 5.0 mph8.0 kmh 29.93 in1013.5 mb 0.00 in0.0 mm 0.00 in0.0 mm 0.00 in0.0 mm
11:51 AM 54.5°F12.5°C 34.1°F1.2°C 46% 3.0 mph S4.8 kmh S 5.0 mph8.0 kmh 29.93 in1013.5 mb 0.00 in0.0 mm 0.00 in0.0 mm 0.00 in0.0 mm
11:52 AM 54.5°F12.5°C 34.7°F1.5°C 47% 5.0 mph SW8.0 kmh SW 5.0 mph8.0 kmh 29.93 in1013.5 mb 0.00 in0.0 mm 0.00 in0.0 mm 0.00 in0.0 mm
11:53 AM 54.4°F12.4°C 34.6°F1.4°C 47% 1.0 mph WSW1.6 kmh WSW 5.0 mph8.0 kmh 29.93 in1013.5 mb 0.00 in0.0 mm 0.00 in0.0 mm 0.00 in0.0 mm
11:54 AM 54.2°F12.3°C 33.9°F1.1°C 46% 6.0 mph WSW9.7 kmh WSW 8.0 mph12.9 kmh 29.93 in1013.5 mb 0.00 in0.0 mm 0.00 in0.0 mm 0.00 in0.0 mm
11:55 AM 54.0°F12.2°C 33.7°F0.9°C 46% 2.0 mph SW3.2 kmh SW 8.0 mph12.9 kmh 29.93 in1013.5 mb 0.00 in0.0 mm 0.00 in0.0 mm 0.00 in0.0 mm
11:56 AM 53.8°F12.1°C 33.5°F0.8°C 46% 1.0 mph S1.6 kmh S 8.0 mph12.9 kmh 29.93 in1013.5 mb 0.00 in0.0 mm 0.00 in0.0 mm 0.00 in0.0 mm
11:57 AM 53.7°F12.1°C 34.0°F1.1°C 47% Calm Calm 8.0 mph12.9 kmh 29.93 in1013.5 mb 0.00 in0.0 mm 0.00 in0.0 mm 0.00 in0.0 mm
11:58 AM 53.6°F12.0°C 34.4°F1.3°C 48% 4.0 mph WSW6.4 kmh WSW 8.0 mph12.9 kmh 29.93 in1013.5 mb 0.00 in0.0 mm 0.00 in0.0 mm 0.00 in0.0 mm
11:59 AM 53.6°F12.0°C 33.9°F1.1°C 47% Calm Calm 8.0 mph12.9 kmh 29.93 in1013.5 mb 0.00 in0.0 mm 0.00 in0.0 mm 0.00 in0.0 mm
12:00 PM 53.7°F12.1°C 34.5°F1.4°C 48% 5.0 mph W8.0 kmh W 8.0 mph12.9 kmh 29.93 in1013.5 mb 0.00 in0.0 mm 0.00 in0.0 mm 0.00 in0.0 mm
12:01 PM 53.7°F12.1°C 34.5°F1.4°C 48% 2.0 mph S3.2 kmh S 8.0 mph12.9 kmh 29.93 in1013.5 mb 0.00 in0.0 mm 0.00 in0.0 mm 0.00 in0.0 mm
12:02 PM 53.9°F12.2°C 34.7°F1.5°C 48% 2.0 mph WSW3.2 kmh WSW 8.0 mph12.9 kmh 29.93 in1013.5 mb 0.00 in0.0 mm 0.00 in0.0 mm 0.00 in0.0 mm
12:03 PM 53.9°F12.2°C 34.7°F1.5°C 48% 3.0 mph W4.8 kmh W 8.0 mph12.9 kmh 29.92 in1013.2 mb 0.00 in0.0 mm 0.00 in0.0 mm 0.00 in0.0 mm
12:04 PM 53.8°F12.1°C 34.0°F1.1°C 47% 4.0 mph WSW6.4 kmh WSW 8.0 mph12.9 kmh 29.92 in1013.2 mb 0.00 in0.0 mm 0.00 in0.0 mm 0.00 in0.0 mm
12:05 PM 53.7°F12.1°C 34.0°F1.1°C 47% 2.0 mph W3.2 kmh W 8.0 mph12.9 kmh 29.92 in1013.2 mb 0.00 in0.0 mm 0.00 in0.0 mm 0.00 in0.0 mm
12:06 PM 53.7°F12.1°C 35.0°F1.7°C 49% Calm Calm 8.0 mph12.9 kmh 29.92 in1013.2 mb 0.00 in0.0 mm 0.00 in0.0 mm 0.00 in0.0 mm
12:07 PM 53.7°F12.1°C 35.5°F1.9°C 50% 5.0 mph W8.0 kmh W 8.0 mph12.9 kmh 29.92 in1013.2 mb 0.00 in0.0 mm 0.00 in0.0 mm 0.00 in0.0 mm
12:08 PM 53.9°F12.2°C 36.2°F2.3°C 51% 6.0 mph W9.7 kmh W 8.0 mph12.9 kmh 29.92 in1013.2 mb 0.00 in0.0 mm 0.00 in0.0 mm 0.00 in0.0 mm
12:09 PM 54.1°F12.3°C 36.4°F2.4°C 51% 5.0 mph WSW8.0 kmh WSW 7.0 mph11.3 kmh 29.92 in1013.2 mb 0.00 in0.0 mm 0.00 in0.0 mm 0.00 in0.0 mm
12:10 PM 54.1°F12.3°C 35.9°F2.2°C 50% 1.0 mph WSW1.6 kmh WSW 7.0 mph11.3 kmh 29.92 in1013.2 mb 0.00 in0.0 mm 0.00 in0.0 mm 0.00 in0.0 mm
12:11 PM 54.2°F12.3°C 36.0°F2.2°C 50% 2.0 mph NNW3.2 kmh NNW 10.0 mph16.1 kmh 29.92 in1013.2 mb 0.00 in0.0 mm 0.00 in0.0 mm 0.00 in0.0 mm
12:12 PM 54.3°F12.4°C 37.1°F2.8°C 52% 8.0 mph SW12.9 kmh SW 11.0 mph17.7 kmh 29.92 in1013.2 mb 0.00 in0.0 mm 0.00 in0.0 mm 0.00 in0.0 mm
12:13 PM 54.4°F12.4°C 37.6°F3.1°C 53% 4.0 mph SE6.4 kmh SE 11.0 mph17.7 kmh 29.92 in1013.2 mb 0.00 in0.0 mm 0.00 in0.0 mm 0.00 in0.0 mm
12:14 PM 54.5°F12.5°C 37.7°F3.2°C 53% 3.0 mph SW4.8 kmh SW 11.0 mph17.7 kmh 29.92 in1013.2 mb 0.00 in0.0 mm 0.00 in0.0 mm 0.00 in0.0 mm
12:15 PM 54.5°F12.5°C 37.2°F2.9°C 52% 7.0 mph W11.3 kmh W 11.0 mph17.7 kmh 29.92 in1013.2 mb 0.00 in0.0 mm 0.00 in0.0 mm 0.00 in0.0 mm
12:16 PM 54.5°F12.5°C 37.7°F3.2°C 53% 9.0 mph WSW14.5 kmh WSW 11.0 mph17.7 kmh 29.92 in1013.2 mb 0.00 in0.0 mm 0.00 in0.0 mm 0.00 in0.0 mm
12:17 PM 54.3°F12.4°C 37.1°F2.8°C 52% 7.0 mph WSW11.3 kmh WSW 11.0 mph17.7 kmh 29.92 in1013.2 mb 0.00 in0.0 mm 0.00 in0.0 mm 0.00 in0.0 mm
12:18 PM 54.2°F12.3°C 37.4°F3.0°C 53% 2.0 mph WSW3.2 kmh WSW 11.0 mph17.7 kmh 29.92 in1013.2 mb 0.00 in0.0 mm 0.00 in0.0 mm 0.00 in0.0 mm
12:19 PM 54.1°F12.3°C 37.8°F3.2°C 54% 3.0 mph WSW4.8 kmh WSW 11.0 mph17.7 kmh 29.92 in1013.2 mb 0.00 in0.0 mm 0.00 in0.0 mm 0.00 in0.0 mm
12:20 PM 54.2°F12.3°C 38.4°F3.6°C 55% 9.0 mph WSW14.5 kmh WSW 11.0 mph17.7 kmh 29.92 in1013.2 mb 0.00 in0.0 mm 0.00 in0.0 mm 0.00 in0.0 mm
12:21 PM 54.2°F12.3°C 38.4°F3.6°C 55% 6.0 mph WSW9.7 kmh WSW 11.0 mph17.7 kmh 29.92 in1013.2 mb 0.00 in0.0 mm 0.00 in0.0 mm 0.00 in0.0 mm
12:22 PM 54.3°F12.4°C 38.5°F3.6°C 55% 5.0 mph SW8.0 kmh SW 9.0 mph14.5 kmh 29.92 in1013.2 mb 0.00 in0.0 mm 0.00 in0.0 mm 0.00 in0.0 mm
12:23 PM 54.3°F12.4°C 38.5°F3.6°C 55% 8.0 mph WSW12.9 kmh WSW 9.0 mph14.5 kmh 29.92 in1013.2 mb 0.00 in0.0 mm 0.00 in0.0 mm 0.00 in0.0 mm
12:24 PM 54.2°F12.3°C 37.9°F3.3°C 54% 10.0 mph WSW16.1 kmh WSW 12.0 mph19.3 kmh 29.92 in1013.2 mb 0.00 in0.0 mm 0.00 in0.0 mm 0.00 in0.0 mm
12:25 PM 54.1°F12.3°C 37.8°F3.2°C 54% 4.0 mph SW6.4 kmh SW 12.0 mph19.3 kmh 29.92 in1013.2 mb 0.00 in0.0 mm 0.00 in0.0 mm 0.00 in0.0 mm
12:26 PM 54.0°F12.2°C 37.7°F3.2°C 54% 11.0 mph WSW17.7 kmh WSW 12.0 mph19.3 kmh 29.92 in1013.2 mb 0.00 in0.0 mm 0.00 in0.0 mm 0.00 in0.0 mm
12:27 PM 53.8°F12.1°C 37.5°F3.1°C 54% 15.0 mph WSW24.1 kmh WSW 16.0 mph25.7 kmh 29.92 in1013.2 mb 0.00 in0.0 mm 0.00 in0.0 mm 0.00 in0.0 mm
12:28 PM 53.7°F12.1°C 37.5°F3.1°C 54% 3.0 mph WSW4.8 kmh WSW 15.0 mph24.1 kmh 29.92 in1013.2 mb 0.00 in0.0 mm 0.00 in0.0 mm 0.00 in0.0 mm
12:29 PM 53.7°F12.1°C 37.9°F3.3°C 55% 7.0 mph WSW11.3 kmh WSW 15.0 mph24.1 kmh 29.92 in1013.2 mb 0.00 in0.0 mm 0.00 in0.0 mm 0.00 in0.0 mm
12:30 PM 53.7°F12.1°C 38.4°F3.6°C 56% 10.0 mph WSW16.1 kmh WSW 15.0 mph24.1 kmh 29.92 in1013.2 mb 0.00 in0.0 mm 0.00 in0.0 mm 0.00 in0.0 mm
12:31 PM 53.8°F12.1°C 38.5°F3.6°C 56% 9.0 mph SW14.5 kmh SW 15.0 mph24.1 kmh 29.92 in1013.2 mb 0.00 in0.0 mm 0.00 in0.0 mm 0.00 in0.0 mm
12:32 PM 53.9°F12.2°C 39.0°F3.9°C 57% 2.0 mph W3.2 kmh W 15.0 mph24.1 kmh 29.91 in1012.9 mb 0.00 in0.0 mm 0.00 in0.0 mm 0.00 in0.0 mm
12:33 PM 53.9°F12.2°C 39.0°F3.9°C 57% 8.0 mph WSW12.9 kmh WSW 15.0 mph24.1 kmh 29.91 in1012.9 mb 0.00 in0.0 mm 0.00 in0.0 mm 0.00 in0.0 mm
12:34 PM 53.9°F12.2°C 38.6°F3.7°C 56% 5.0 mph WSW8.0 kmh WSW 15.0 mph24.1 kmh 29.91 in1012.9 mb 0.00 in0.0 mm 0.00 in0.0 mm 0.00 in0.0 mm
12:35 PM 53.9°F12.2°C 39.0°F3.9°C 57% 13.0 mph SW20.9 kmh SW 15.0 mph24.1 kmh 29.91 in1012.9 mb 0.00 in0.0 mm 0.00 in0.0 mm 0.00 in0.0 mm
12:36 PM 53.8°F12.1°C 38.9°F3.8°C 57% 12.0 mph SW19.3 kmh SW 17.0 mph27.4 kmh 29.91 in1012.9 mb 0.00 in0.0 mm 0.00 in0.0 mm 0.00 in0.0 mm
12:37 PM 53.7°F12.1°C 39.3°F4.1°C 58% 8.0 mph N12.9 kmh N 17.0 mph27.4 kmh 29.91 in1012.9 mb 0.00 in0.0 mm 0.00 in0.0 mm 0.00 in0.0 mm
12:38 PM 53.8°F12.1°C 39.4°F4.1°C 58% 10.0 mph WSW16.1 kmh WSW 17.0 mph27.4 kmh 29.91 in1012.9 mb 0.00 in0.0 mm 0.00 in0.0 mm 0.00 in0.0 mm
12:39 PM 53.8°F12.1°C 38.9°F3.8°C 57% 5.0 mph NE8.0 kmh NE 17.0 mph27.4 kmh 29.91 in1012.9 mb 0.00 in0.0 mm 0.00 in0.0 mm 0.00 in0.0 mm
12:40 PM 53.7°F12.1°C 39.3°F4.1°C 58% 15.0 mph WSW24.1 kmh WSW 17.0 mph27.4 kmh 29.91 in1012.9 mb 0.00 in0.0 mm 0.00 in0.0 mm 0.00 in0.0 mm
12:41 PM 53.7°F12.1°C 39.3°F4.1°C 58% 10.0 mph W16.1 kmh W 17.0 mph27.4 kmh 29.91 in1012.9 mb 0.00 in0.0 mm 0.00 in0.0 mm 0.00 in0.0 mm
12:42 PM 53.7°F12.1°C 39.7°F4.3°C 59% 7.0 mph NNW11.3 kmh NNW 17.0 mph27.4 kmh 29.91 in1012.9 mb 0.00 in0.0 mm 0.00 in0.0 mm 0.00 in0.0 mm
12:43 PM 53.7°F12.1°C 39.7°F4.3°C 59% 9.0 mph WSW14.5 kmh WSW 17.0 mph27.4 kmh 29.91 in1012.9 mb 0.00 in0.0 mm 0.00 in0.0 mm 0.00 in0.0 mm
12:44 PM 53.8°F12.1°C 39.8°F4.3°C 59% 18.0 mph WSW29.0 kmh WSW 20.0 mph32.2 kmh 29.91 in1012.9 mb 0.00 in0.0 mm 0.00 in0.0 mm 0.00 in0.0 mm
12:45 PM 53.8°F12.1°C 39.8°F4.3°C 59% 19.0 mph WSW30.6 kmh WSW 21.0 mph33.8 kmh 29.91 in1012.9 mb 0.00 in0.0 mm 0.00 in0.0 mm 0.00 in0.0 mm
12:46 PM 53.7°F12.1°C 39.7°F4.3°C 59% 19.0 mph W30.6 kmh W 22.0 mph35.4 kmh 29.91 in1012.9 mb 0.00 in0.0 mm 0.00 in0.0 mm 0.00 in0.0 mm
12:47 PM 53.8°F12.1°C 39.4°F4.1°C 58% 18.0 mph W29.0 kmh W 22.0 mph35.4 kmh 29.91 in1012.9 mb 0.00 in0.0 mm 0.00 in0.0 mm 0.00 in0.0 mm
12:48 PM 53.8°F12.1°C 39.4°F4.1°C 58% 13.0 mph W20.9 kmh W 28.0 mph45.1 kmh 29.91 in1012.9 mb 0.00 in0.0 mm 0.00 in0.0 mm 0.00 in0.0 mm
12:49 PM 53.8°F12.1°C 39.4°F4.1°C 58% 16.0 mph SSE25.7 kmh SSE 29.0 mph46.7 kmh 29.91 in1012.9 mb 0.00 in0.0 mm 0.00 in0.0 mm 0.00 in0.0 mm
12:50 PM 53.9°F12.2°C 39.5°F4.2°C 58% 8.0 mph W12.9 kmh W 29.0 mph46.7 kmh 29.91 in1012.9 mb 0.00 in0.0 mm 0.00 in0.0 mm 0.00 in0.0 mm
12:51 PM 53.9°F12.2°C 39.5°F4.2°C 58% 20.0 mph WNW32.2 kmh WNW 29.0 mph46.7 kmh 29.91 in1012.9 mb 0.00 in0.0 mm 0.00 in0.0 mm 0.00 in0.0 mm
12:52 PM 53.9°F12.2°C 39.0°F3.9°C 57% 9.0 mph ESE14.5 kmh ESE 29.0 mph46.7 kmh 29.90 in1012.5 mb 0.00 in0.0 mm 0.00 in0.0 mm 0.00 in0.0 mm
12:53 PM 53.9°F12.2°C 39.5°F4.2°C 58% 23.0 mph WSW37.0 kmh WSW 29.0 mph46.7 kmh 29.91 in1012.9 mb 0.00 in0.0 mm 0.00 in0.0 mm 0.00 in0.0 mm
12:54 PM 53.9°F12.2°C 39.0°F3.9°C 57% 15.0 mph W24.1 kmh W 29.0 mph46.7 kmh 29.90 in1012.5 mb 0.00 in0.0 mm 0.00 in0.0 mm 0.00 in0.0 mm
12:55 PM 53.9°F12.2°C 39.0°F3.9°C 57% 25.0 mph W40.2 kmh W 29.0 mph46.7 kmh 29.90 in1012.5 mb 0.00 in0.0 mm 0.00 in0.0 mm 0.00 in0.0 mm
12:56 PM 53.9°F12.2°C 39.0°F3.9°C 57% 18.0 mph W29.0 kmh W 29.0 mph46.7 kmh 29.90 in1012.5 mb 0.00 in0.0 mm 0.00 in0.0 mm 0.00 in0.0 mm
12:57 PM 53.9°F12.2°C 39.5°F4.2°C 58% 11.0 mph W17.7 kmh W 27.0 mph43.5 kmh 29.90 in1012.5 mb 0.00 in0.0 mm 0.00 in0.0 mm 0.00 in0.0 mm
12:58 PM 54.0°F12.2°C 39.6°F4.2°C 58% 13.0 mph SW20.9 kmh SW 27.0 mph43.5 kmh 29.90 in1012.5 mb 0.00 in0.0 mm 0.00 in0.0 mm 0.00 in0.0 mm
12:59 PM 54.0°F12.2°C 40.0°F4.4°C 59% 16.0 mph WNW25.7 kmh WNW 27.0 mph43.5 kmh 29.90 in1012.5 mb 0.00 in0.0 mm 0.00 in0.0 mm 0.00 in0.0 mm
01:00 PM 54.0°F12.2°C 39.6°F4.2°C 58% 15.0 mph WSW24.1 kmh WSW 27.0 mph43.5 kmh 29.90 in1012.5 mb 0.00 in0.0 mm 0.00 in0.0 mm 0.00 in0.0 mm
01:01 PM 54.0°F12.2°C 39.6°F4.2°C 58% 11.0 mph WNW17.7 kmh WNW 27.0 mph43.5 kmh 29.90 in1012.5 mb 0.00 in0.0 mm 0.00 in0.0 mm 0.00 in0.0 mm
01:02 PM 54.0°F12.2°C 39.6°F4.2°C 58% 16.0 mph WNW25.7 kmh WNW 27.0 mph43.5 kmh 29.90 in1012.5 mb 0.00 in0.0 mm 0.00 in0.0 mm 0.00 in0.0 mm
01:03 PM 54.1°F12.3°C 39.7°F4.3°C 58% 22.0 mph W35.4 kmh W 26.0 mph41.8 kmh 29.90 in1012.5 mb 0.00 in0.0 mm 0.00 in0.0 mm 0.00 in0.0 mm
01:04 PM 54.1°F12.3°C 39.7°F4.3°C 58% 17.0 mph WSW27.4 kmh WSW 26.0 mph41.8 kmh 29.90 in1012.5 mb 0.00 in0.0 mm 0.00 in0.0 mm 0.00 in0.0 mm
01:05 PM 54.1°F12.3°C 39.2°F4.0°C 57% 17.0 mph WSW27.4 kmh WSW 26.0 mph41.8 kmh 29.90 in1012.5 mb 0.00 in0.0 mm 0.00 in0.0 mm 0.00 in0.0 mm
01:06 PM 54.1°F12.3°C 39.2°F4.0°C 57% 18.0 mph WSW29.0 kmh WSW 26.0 mph41.8 kmh 29.90 in1012.5 mb 0.00 in0.0 mm 0.00 in0.0 mm 0.00 in0.0 mm
01:07 PM 54.0°F12.2°C 39.1°F3.9°C 57% 14.0 mph WSW22.5 kmh WSW 26.0 mph41.8 kmh 29.90 in1012.5 mb 0.00 in0.0 mm 0.00 in0.0 mm 0.00 in0.0 mm
01:08 PM 54.0°F12.2°C 39.6°F4.2°C 58% 16.0 mph WSW25.7 kmh WSW 26.0 mph41.8 kmh 29.90 in1012.5 mb 0.00 in0.0 mm 0.00 in0.0 mm 0.00 in0.0 mm
01:09 PM 54.0°F12.2°C 39.1°F3.9°C 57% 12.0 mph WSW19.3 kmh WSW 26.0 mph41.8 kmh 29.90 in1012.5 mb 0.00 in0.0 mm 0.00 in0.0 mm 0.00 in0.0 mm
01:10 PM 54.0°F12.2°C 40.0°F4.4°C 59% 11.0 mph W17.7 kmh W 26.0 mph41.8 kmh 29.90 in1012.5 mb 0.00 in0.0 mm 0.00 in0.0 mm 0.00 in0.0 mm
01:11 PM 54.1°F12.3°C 40.1°F4.5°C 59% 13.0 mph W20.9 kmh W 26.0 mph41.8 kmh 29.90 in1012.5 mb 0.00 in0.0 mm 0.00 in0.0 mm 0.00 in0.0 mm
01:12 PM 54.1°F12.3°C 40.1°F4.5°C 59% 11.0 mph SW17.7 kmh SW 25.0 mph40.2 kmh 29.90 in1012.5 mb 0.00 in0.0 mm 0.00 in0.0 mm 0.00 in0.0 mm
01:13 PM 54.2°F12.3°C 40.2°F4.6°C 59% 12.0 mph W19.3 kmh W 25.0 mph40.2 kmh 29.89 in1012.2 mb 0.00 in0.0 mm 0.00 in0.0 mm 0.00 in0.0 mm
01:14 PM 54.2°F12.3°C 40.2°F4.6°C 59% 19.0 mph WSW30.6 kmh WSW 25.0 mph40.2 kmh 29.89 in1012.2 mb 0.00 in0.0 mm 0.00 in0.0 mm 0.00 in0.0 mm
01:15 PM 54.3°F12.4°C 40.7°F4.8°C 60% 25.0 mph SW40.2 kmh SW 25.0 mph40.2 kmh 29.89 in1012.2 mb 0.00 in0.0 mm 0.00 in0.0 mm 0.00 in0.0 mm
01:16 PM 54.2°F12.3°C 39.7°F4.3°C 58% 9.0 mph WSW14.5 kmh WSW 27.0 mph43.5 kmh 29.89 in1012.2 mb 0.00 in0.0 mm 0.00 in0.0 mm 0.00 in0.0 mm
01:17 PM 54.2°F12.3°C 40.2°F4.6°C 59% 17.0 mph SSW27.4 kmh SSW 27.0 mph43.5 kmh 29.89 in1012.2 mb 0.00 in0.0 mm 0.00 in0.0 mm 0.00 in0.0 mm
01:18 PM 54.3°F12.4°C 40.3°F4.6°C 59% 3.0 mph WSW4.8 kmh WSW 27.0 mph43.5 kmh 29.89 in1012.2 mb 0.00 in0.0 mm 0.00 in0.0 mm 0.00 in0.0 mm
01:19 PM 54.4°F12.4°C 40.4°F4.7°C 59% 19.0 mph W30.6 kmh W 27.0 mph43.5 kmh 29.89 in1012.2 mb 0.00 in0.0 mm 0.00 in0.0 mm 0.00 in0.0 mm
01:20 PM 54.4°F12.4°C 40.4°F4.7°C 59% 6.0 mph SW9.7 kmh SW 27.0 mph43.5 kmh 29.89 in1012.2 mb 0.00 in0.0 mm 0.00 in0.0 mm 0.00 in0.0 mm
01:21 PM 54.5°F12.5°C 40.5°F4.7°C 59% 12.0 mph W19.3 kmh W 27.0 mph43.5 kmh 29.89 in1012.2 mb 0.00 in0.0 mm 0.00 in0.0 mm 0.00 in0.0 mm
01:22 PM 54.6°F12.6°C 40.6°F4.8°C 59% 23.0 mph WSW37.0 kmh WSW 27.0 mph43.5 kmh 29.89 in1012.2 mb 0.00 in0.0 mm 0.00 in0.0 mm 0.00 in0.0 mm
01:23 PM 54.5°F12.5°C 39.1°F3.9°C 56% 17.0 mph WSW27.4 kmh WSW 28.0 mph45.1 kmh 29.89 in1012.2 mb 0.00 in0.0 mm 0.00 in0.0 mm 0.00 in0.0 mm
01:24 PM 54.6°F12.6°C 40.1°F4.5°C 58% 8.0 mph WSW12.9 kmh WSW 28.0 mph45.1 kmh 29.89 in1012.2 mb 0.00 in0.0 mm 0.00 in0.0 mm 0.00 in0.0 mm
01:25 PM 54.6°F12.6°C 39.7°F4.3°C 57% 18.0 mph SW29.0 kmh SW 28.0 mph45.1 kmh 29.89 in1012.2 mb 0.00 in0.0 mm 0.00 in0.0 mm 0.00 in0.0 mm
01:26 PM 54.7°F12.6°C 39.8°F4.3°C 57% 8.0 mph WSW12.9 kmh WSW 28.0 mph45.1 kmh 29.89 in1012.2 mb 0.00 in0.0 mm 0.00 in0.0 mm 0.00 in0.0 mm
01:27 PM 54.7°F12.6°C 39.3°F4.1°C 56% 20.0 mph WSW32.2 kmh WSW 28.0 mph45.1 kmh 29.89 in1012.2 mb 0.00 in0.0 mm 0.00 in0.0 mm 0.00 in0.0 mm
01:28 PM 54.6°F12.6°C 38.8°F3.8°C 55% 17.0 mph W27.4 kmh W 28.0 mph45.1 kmh 29.89 in1012.2 mb 0.00 in0.0 mm 0.00 in0.0 mm 0.00 in0.0 mm
01:29 PM 54.7°F12.6°C 39.3°F4.1°C 56% 21.0 mph W33.8 kmh W 28.0 mph45.1 kmh 29.89 in1012.2 mb 0.00 in0.0 mm 0.00 in0.0 mm 0.00 in0.0 mm
01:30 PM 54.7°F12.6°C 39.3°F4.1°C 56% 19.0 mph WSW30.6 kmh WSW 28.0 mph45.1 kmh 29.88 in1011.9 mb 0.00 in0.0 mm 0.00 in0.0 mm 0.00 in0.0 mm
01:31 PM 54.7°F12.6°C 39.8°F4.3°C 57% 25.0 mph SSW40.2 kmh SSW 28.0 mph45.1 kmh 29.89 in1012.2 mb 0.00 in0.0 mm 0.00 in0.0 mm 0.00 in0.0 mm
01:32 PM 54.6°F12.6°C 39.2°F4.0°C 56% 16.0 mph SW25.7 kmh SW 29.0 mph46.7 kmh 29.88 in1011.9 mb 0.00 in0.0 mm 0.00 in0.0 mm 0.00 in0.0 mm
01:33 PM 54.6°F12.6°C 39.7°F4.3°C 57% 14.0 mph WSW22.5 kmh WSW 29.0 mph46.7 kmh 29.89 in1012.2 mb 0.00 in0.0 mm 0.00 in0.0 mm 0.00 in0.0 mm
01:34 PM 54.6°F12.6°C 39.7°F4.3°C 57% 19.0 mph WSW30.6 kmh WSW 29.0 mph46.7 kmh 29.89 in1012.2 mb 0.00 in0.0 mm 0.00 in0.0 mm 0.00 in0.0 mm
01:35 PM 54.6°F12.6°C 39.7°F4.3°C 57% 28.0 mph W45.1 kmh W 34.0 mph54.7 kmh 29.88 in1011.9 mb 0.00 in0.0 mm 0.00 in0.0 mm 0.00 in0.0 mm
01:36 PM 54.5°F12.5°C 39.6°F4.2°C 57% 28.0 mph SW45.1 kmh SW 34.0 mph54.7 kmh 29.88 in1011.9 mb 0.00 in0.0 mm 0.00 in0.0 mm 0.00 in0.0 mm
01:37 PM 54.3°F12.4°C 39.4°F4.1°C 57% 14.0 mph SW22.5 kmh SW 34.0 mph54.7 kmh 29.88 in1011.9 mb 0.00 in0.0 mm 0.00 in0.0 mm 0.00 in0.0 mm
01:38 PM 54.3°F12.4°C 38.9°F3.8°C 56% 32.0 mph WSW51.5 kmh WSW 34.0 mph54.7 kmh 29.88 in1011.9 mb 0.00 in0.0 mm 0.00 in0.0 mm 0.00 in0.0 mm
01:39 PM 54.2°F12.3°C 38.8°F3.8°C 56% 18.0 mph W29.0 kmh W 34.0 mph54.7 kmh 29.88 in1011.9 mb 0.00 in0.0 mm 0.00 in0.0 mm 0.00 in0.0 mm
01:40 PM 54.1°F12.3°C 38.3°F3.5°C 55% 14.0 mph WSW22.5 kmh WSW 34.0 mph54.7 kmh 29.88 in1011.9 mb 0.00 in0.0 mm 0.00 in0.0 mm 0.00 in0.0 mm
01:41 PM 54.1°F12.3°C 38.8°F3.8°C 56% 19.0 mph WSW30.6 kmh WSW 34.0 mph54.7 kmh 29.88 in1011.9 mb 0.00 in0.0 mm 0.00 in0.0 mm 0.00 in0.0 mm
01:42 PM 54.1°F12.3°C 38.3°F3.5°C 55% 19.0 mph WSW30.6 kmh WSW 34.0 mph54.7 kmh 29.88 in1011.9 mb 0.00 in0.0 mm 0.00 in0.0 mm 0.00 in0.0 mm
01:43 PM 54.1°F12.3°C 37.8°F3.2°C 54% 23.0 mph W37.0 kmh W 34.0 mph54.7 kmh 29.88 in1011.9 mb 0.00 in0.0 mm 0.00 in0.0 mm 0.00 in0.0 mm
01:44 PM 54.1°F12.3°C 38.3°F3.5°C 55% 15.0 mph WSW24.1 kmh WSW 34.0 mph54.7 kmh 29.88 in1011.9 mb 0.00 in0.0 mm 0.00 in0.0 mm 0.00 in0.0 mm
01:45 PM 54.1°F12.3°C 38.8°F3.8°C 56% 20.0 mph SW32.2 kmh SW 33.0 mph53.1 kmh 29.89 in1012.2 mb 0.00 in0.0 mm 0.00 in0.0 mm 0.00 in0.0 mm
01:46 PM 54.1°F12.3°C 39.2°F4.0°C 57% 22.0 mph WSW35.4 kmh WSW 33.0 mph53.1 kmh 29.88 in1011.9 mb 0.00 in0.0 mm 0.00 in0.0 mm 0.00 in0.0 mm
01:47 PM 54.1°F12.3°C 38.3°F3.5°C 55% 30.0 mph WSW48.3 kmh WSW 33.0 mph53.1 kmh 29.88 in1011.9 mb 0.00 in0.0 mm 0.00 in0.0 mm 0.00 in0.0 mm
01:48 PM 54.0°F12.2°C 38.2°F3.4°C 55% 23.0 mph WSW37.0 kmh WSW 33.0 mph53.1 kmh 29.88 in1011.9 mb 0.00 in0.0 mm 0.00 in0.0 mm 0.00 in0.0 mm
01:49 PM 54.0°F12.2°C 38.7°F3.7°C 56% 21.0 mph WSW33.8 kmh WSW 33.0 mph53.1 kmh 29.88 in1011.9 mb 0.00 in0.0 mm 0.00 in0.0 mm 0.00 in0.0 mm
01:50 PM 53.9°F12.2°C 38.6°F3.7°C 56% 26.0 mph WSW41.8 kmh WSW 34.0 mph54.7 kmh 29.88 in1011.9 mb 0.00 in0.0 mm 0.00 in0.0 mm 0.00 in0.0 mm
01:51 PM 53.9°F12.2°C 38.1°F3.4°C 55% 8.0 mph NW12.9 kmh NW 34.0 mph54.7 kmh 29.88 in1011.9 mb 0.00 in0.0 mm 0.00 in0.0 mm 0.00 in0.0 mm
01:52 PM 54.0°F12.2°C 38.7°F3.7°C 56% 18.0 mph WSW29.0 kmh WSW 34.0 mph54.7 kmh 29.88 in1011.9 mb 0.00 in0.0 mm 0.00 in0.0 mm 0.00 in0.0 mm
01:53 PM 54.1°F12.3°C 38.8°F3.8°C 56% 14.0 mph SW22.5 kmh SW 34.0 mph54.7 kmh 29.88 in1011.9 mb 0.00 in0.0 mm 0.00 in0.0 mm 0.00 in0.0 mm
01:54 PM 54.1°F12.3°C 38.8°F3.8°C 56% 14.0 mph WSW22.5 kmh WSW 34.0 mph54.7 kmh 29.88 in1011.9 mb 0.00 in0.0 mm 0.00 in0.0 mm 0.00 in0.0 mm
01:55 PM 54.1°F12.3°C 38.8°F3.8°C 56% 9.0 mph W14.5 kmh W 34.0 mph54.7 kmh 29.88 in1011.9 mb 0.00 in0.0 mm 0.00 in0.0 mm 0.00 in0.0 mm
01:56 PM 54.1°F12.3°C 38.8°F3.8°C 56% 17.0 mph W27.4 kmh W 34.0 mph54.7 kmh 29.88 in1011.9 mb 0.00 in0.0 mm 0.00 in0.0 mm 0.00 in0.0 mm
01:57 PM 54.1°F12.3°C 38.8°F3.8°C 56% 16.0 mph W25.7 kmh W 34.0 mph54.7 kmh 29.88 in1011.9 mb 0.00 in0.0 mm 0.00 in0.0 mm 0.00 in0.0 mm
01:58 PM 54.1°F12.3°C 38.8°F3.8°C 56% 14.0 mph SW22.5 kmh SW 34.0 mph54.7 kmh 29.88 in1011.9 mb 0.00 in0.0 mm 0.00 in0.0 mm 0.00 in0.0 mm
01:59 PM 54.2°F12.3°C 38.8°F3.8°C 56% 17.0 mph SW27.4 kmh SW 28.0 mph45.1 kmh 29.88 in1011.9 mb 0.00 in0.0 mm 0.00 in0.0 mm 0.00 in0.0 mm
02:00 PM 54.1°F12.3°C 38.8°F3.8°C 56% 20.0 mph WSW32.2 kmh WSW 26.0 mph41.8 kmh 29.88 in1011.9 mb 0.00 in0.0 mm 0.00 in0.0 mm 0.00 in0.0 mm
02:01 PM 54.1°F12.3°C 38.8°F3.8°C 56% 32.0 mph W51.5 kmh W 33.0 mph53.1 kmh 29.88 in1011.9 mb 0.00 in0.0 mm 0.00 in0.0 mm 0.00 in0.0 mm
02:02 PM 54.0°F12.2°C 38.2°F3.4°C 55% 16.0 mph WSW25.7 kmh WSW 33.0 mph53.1 kmh 29.88 in1011.9 mb 0.00 in0.0 mm 0.00 in0.0 mm 0.00 in0.0 mm
02:03 PM 54.0°F12.2°C 38.7°F3.7°C 56% 13.0 mph WNW20.9 kmh WNW 33.0 mph53.1 kmh 29.88 in1011.9 mb 0.00 in0.0 mm 0.00 in0.0 mm 0.00 in0.0 mm
02:04 PM 54.0°F12.2°C 38.7°F3.7°C 56% 22.0 mph WSW35.4 kmh WSW 33.0 mph53.1 kmh 29.88 in1011.9 mb 0.00 in0.0 mm 0.00 in0.0 mm 0.00 in0.0 mm
02:05 PM 53.9°F12.2°C 38.6°F3.7°C 56% 17.0 mph W27.4 kmh W 33.0 mph53.1 kmh 29.88 in1011.9 mb 0.00 in0.0 mm 0.00 in0.0 mm 0.00 in0.0 mm
02:06 PM 53.8°F12.1°C 38.5°F3.6°C 56% 16.0 mph NW25.7 kmh NW 33.0 mph53.1 kmh 29.87 in1011.5 mb 0.00 in0.0 mm 0.00 in0.0 mm 0.00 in0.0 mm
02:07 PM 53.8°F12.1°C 38.9°F3.8°C 57% 19.0 mph WSW30.6 kmh WSW 33.0 mph53.1 kmh 29.87 in1011.5 mb 0.00 in0.0 mm 0.00 in0.0 mm 0.00 in0.0 mm
02:08 PM 53.8°F12.1°C 38.9°F3.8°C 57% 8.0 mph WSW12.9 kmh WSW 33.0 mph53.1 kmh 29.87 in1011.5 mb 0.00 in0.0 mm 0.00 in0.0 mm 0.00 in0.0 mm
02:09 PM 53.8°F12.1°C 39.4°F4.1°C 58% 17.0 mph SW27.4 kmh SW 33.0 mph53.1 kmh 29.88 in1011.9 mb 0.00 in0.0 mm 0.00 in0.0 mm 0.00 in0.0 mm
02:10 PM 53.8°F12.1°C 39.4°F4.1°C 58% 15.0 mph S24.1 kmh S 32.0 mph51.5 kmh 29.87 in1011.5 mb 0.00 in0.0 mm 0.00 in0.0 mm 0.00 in0.0 mm
02:11 PM 53.8°F12.1°C 39.4°F4.1°C 58% 16.0 mph WSW25.7 kmh WSW 32.0 mph51.5 kmh 29.87 in1011.5 mb 0.00 in0.0 mm 0.00 in0.0 mm 0.00 in0.0 mm
02:12 PM 53.9°F12.2°C 39.5°F4.2°C 58% 16.0 mph W25.7 kmh W 32.0 mph51.5 kmh 29.87 in1011.5 mb 0.00 in0.0 mm 0.00 in0.0 mm 0.00 in0.0 mm
02:13 PM 53.8°F12.1°C 39.4°F4.1°C 58% 12.0 mph WSW19.3 kmh WSW 32.0 mph51.5 kmh 29.87 in1011.5 mb 0.00 in0.0 mm 0.00 in0.0 mm 0.00 in0.0 mm
02:14 PM 53.8°F12.1°C 38.9°F3.8°C 57% 22.0 mph SW35.4 kmh SW 30.0 mph48.3 kmh 29.87 in1011.5 mb 0.00 in0.0 mm 0.00 in0.0 mm 0.00 in0.0 mm
02:15 PM 53.7°F12.1°C 39.3°F4.1°C 58% 26.0 mph WSW41.8 kmh WSW 29.0 mph46.7 kmh 29.86 in1011.2 mb 0.00 in0.0 mm 0.00 in0.0 mm 0.00 in0.0 mm
02:16 PM 53.7°F12.1°C 39.7°F4.3°C 59% 24.0 mph W38.6 kmh W 29.0 mph46.7 kmh 29.86 in1011.2 mb 0.00 in0.0 mm 0.00 in0.0 mm 0.00 in0.0 mm
02:17 PM 53.6°F12.0°C 39.2°F4.0°C 58% 19.0 mph WSW30.6 kmh WSW 30.0 mph48.3 kmh 29.86 in1011.2 mb 0.00 in0.0 mm 0.00 in0.0 mm 0.00 in0.0 mm
02:18 PM 53.6°F12.0°C 40.1°F4.5°C 60% 25.0 mph WSW40.2 kmh WSW 30.0 mph48.3 kmh 29.86 in1011.2 mb 0.00 in0.0 mm 0.00 in0.0 mm 0.00 in0.0 mm
02:19 PM 53.6°F12.0°C 40.1°F4.5°C 60% 16.0 mph WSW25.7 kmh WSW 30.0 mph48.3 kmh 29.86 in1011.2 mb 0.00 in0.0 mm 0.00 in0.0 mm 0.00 in0.0 mm
02:20 PM 53.6°F12.0°C 40.5°F4.7°C 61% 20.0 mph W32.2 kmh W 30.0 mph48.3 kmh 29.86 in1011.2 mb 0.00 in0.0 mm 0.00 in0.0 mm 0.00 in0.0 mm
02:21 PM 53.5°F11.9°C 40.4°F4.7°C 61% 11.0 mph WNW17.7 kmh WNW 30.0 mph48.3 kmh 29.86 in1011.2 mb 0.00 in0.0 mm 0.00 in0.0 mm 0.00 in0.0 mm
02:22 PM 53.5°F11.9°C 40.4°F4.7°C 61% 16.0 mph SW25.7 kmh SW 30.0 mph48.3 kmh 29.86 in1011.2 mb 0.00 in0.0 mm 0.00 in0.0 mm 0.00 in0.0 mm
02:23 PM 53.5°F11.9°C 40.4°F4.7°C 61% 22.0 mph WSW35.4 kmh WSW 30.0 mph48.3 kmh 29.86 in1011.2 mb 0.00 in0.0 mm 0.00 in0.0 mm 0.00 in0.0 mm
02:24 PM 53.5°F11.9°C 40.8°F4.9°C 62% 15.0 mph W24.1 kmh W 30.0 mph48.3 kmh 29.86 in1011.2 mb 0.00 in0.0 mm 0.00 in0.0 mm 0.00 in0.0 mm
02:25 PM 53.4°F11.9°C 40.7°F4.8°C 62% 19.0 mph WSW30.6 kmh WSW 28.0 mph45.1 kmh 29.86 in1011.2 mb 0.00 in0.0 mm 0.00 in0.0 mm 0.00 in0.0 mm
02:26 PM 53.4°F11.9°C 40.7°F4.8°C 62% 18.0 mph WSW29.0 kmh WSW 28.0 mph45.1 kmh 29.86 in1011.2 mb 0.00 in0.0 mm 0.00 in0.0 mm 0.00 in0.0 mm
02:27 PM 53.4°F11.9°C 41.1°F5.1°C 63% 10.0 mph W16.1 kmh W 28.0 mph45.1 kmh 29.86 in1011.2 mb 0.00 in0.0 mm 0.00 in0.0 mm 0.00 in0.0 mm
02:28 PM 53.4°F11.9°C 41.1°F5.1°C 63% 15.0 mph W24.1 kmh W 28.0 mph45.1 kmh 29.86 in1011.2 mb 0.00 in0.0 mm 0.00 in0.0 mm 0.00 in0.0 mm
02:29 PM 53.4°F11.9°C 41.1°F5.1°C 63% 17.0 mph WSW27.4 kmh WSW 28.0 mph45.1 kmh 29.86 in1011.2 mb 0.00 in0.0 mm 0.00 in0.0 mm 0.00 in0.0 mm
02:30 PM 53.4°F11.9°C 41.1°F5.1°C 63% 23.0 mph WSW37.0 kmh WSW 28.0 mph45.1 kmh 29.86 in1011.2 mb 0.00 in0.0 mm 0.00 in0.0 mm 0.00 in0.0 mm
02:31 PM 53.4°F11.9°C 41.1°F5.1°C 63% 17.0 mph WNW27.4 kmh WNW 26.0 mph41.8 kmh 29.86 in1011.2 mb 0.00 in0.0 mm 0.00 in0.0 mm 0.00 in0.0 mm
02:32 PM 53.4°F11.9°C 41.1°F5.1°C 63% 11.0 mph SW17.7 kmh SW 26.0 mph41.8 kmh 29.86 in1011.2 mb 0.00 in0.0 mm 0.00 in0.0 mm 0.00 in0.0 mm
02:33 PM 53.4°F11.9°C 41.1°F5.1°C 63% 18.0 mph W29.0 kmh W 26.0 mph41.8 kmh 29.86 in1011.2 mb 0.00 in0.0 mm 0.00 in0.0 mm 0.00 in0.0 mm
02:34 PM 53.4°F11.9°C 41.1°F5.1°C 63% 14.0 mph W22.5 kmh W 26.0 mph41.8 kmh 29.86 in1011.2 mb 0.00 in0.0 mm 0.00 in0.0 mm 0.00 in0.0 mm
02:35 PM 53.4°F11.9°C 41.1°F5.1°C 63% 20.0 mph WSW32.2 kmh WSW 30.0 mph48.3 kmh 29.86 in1011.2 mb 0.00 in0.0 mm 0.00 in0.0 mm 0.00 in0.0 mm
02:36 PM 53.5°F11.9°C 41.2°F5.1°C 63% 24.0 mph WNW38.6 kmh WNW 30.0 mph48.3 kmh 29.86 in1011.2 mb 0.00 in0.0 mm 0.00 in0.0 mm 0.00 in0.0 mm
02:37 PM 53.5°F11.9°C 41.2°F5.1°C 63% 12.0 mph WSW19.3 kmh WSW 30.0 mph48.3 kmh 29.86 in1011.2 mb 0.00 in0.0 mm 0.00 in0.0 mm 0.00 in0.0 mm
02:38 PM 53.5°F11.9°C 41.2°F5.1°C 63% 13.0 mph WSW20.9 kmh WSW 30.0 mph48.3 kmh 29.86 in1011.2 mb 0.00 in0.0 mm 0.00 in0.0 mm 0.00 in0.0 mm
02:39 PM 53.6°F12.0°C 41.3°F5.2°C 63% 15.0 mph W24.1 kmh W 30.0 mph48.3 kmh 29.86 in1011.2 mb 0.00 in0.0 mm 0.00 in0.0 mm 0.00 in0.0 mm
02:40 PM 53.6°F12.0°C 41.3°F5.2°C 63% 12.0 mph N19.3 kmh N 30.0 mph48.3 kmh 29.86 in1011.2 mb 0.00 in0.0 mm 0.00 in0.0 mm 0.00 in0.0 mm
02:41 PM 53.6°F12.0°C 41.7°F5.4°C 64% 13.0 mph WSW20.9 kmh WSW 30.0 mph48.3 kmh 29.86 in1011.2 mb 0.00 in0.0 mm 0.00 in0.0 mm 0.00 in0.0 mm
02:42 PM 53.6°F12.0°C 41.7°F5.4°C 64% 25.0 mph W40.2 kmh W 30.0 mph48.3 kmh 29.86 in1011.2 mb 0.00 in0.0 mm 0.00 in0.0 mm 0.00 in0.0 mm
02:43 PM 53.6°F12.0°C 41.7°F5.4°C 64% 11.0 mph WSW17.7 kmh WSW 30.0 mph48.3 kmh 29.86 in1011.2 mb 0.00 in0.0 mm 0.00 in0.0 mm 0.00 in0.0 mm
02:44 PM 53.7°F12.1°C 41.8°F5.4°C 64% 15.0 mph SW24.1 kmh SW 30.0 mph48.3 kmh 29.85 in1010.8 mb 0.00 in0.0 mm 0.00 in0.0 mm 0.00 in0.0 mm
02:45 PM 53.7°F12.1°C 41.8°F5.4°C 64% 19.0 mph WSW30.6 kmh WSW 34.0 mph54.7 kmh 29.85 in1010.8 mb 0.00 in0.0 mm 0.00 in0.0 mm 0.00 in0.0 mm
02:46 PM 53.7°F12.1°C 42.2°F5.7°C 65% 21.0 mph WSW33.8 kmh WSW 34.0 mph54.7 kmh 29.85 in1010.8 mb 0.00 in0.0 mm 0.00 in0.0 mm 0.00 in0.0 mm
02:47 PM 53.7°F12.1°C 42.6°F5.9°C 66% 21.0 mph W33.8 kmh W 34.0 mph54.7 kmh 29.85 in1010.8 mb 0.00 in0.0 mm 0.00 in0.0 mm 0.00 in0.0 mm
02:48 PM 53.8°F12.1°C 42.3°F5.7°C 65% 19.0 mph E30.6 kmh E 34.0 mph54.7 kmh 29.85 in1010.8 mb 0.00 in0.0 mm 0.00 in0.0 mm 0.00 in0.0 mm
02:49 PM 53.9°F12.2°C 42.8°F6.0°C 66% 21.0 mph W33.8 kmh W 34.0 mph54.7 kmh 29.85 in1010.8 mb 0.00 in0.0 mm 0.00 in0.0 mm 0.00 in0.0 mm
02:50 PM 53.9°F12.2°C 42.8°F6.0°C 66% 8.0 mph W12.9 kmh W 34.0 mph54.7 kmh 29.85 in1010.8 mb 0.00 in0.0 mm 0.00 in0.0 mm 0.00 in0.0 mm
02:51 PM 54.0°F12.2°C 42.9°F6.1°C 66% 16.0 mph WSW25.7 kmh WSW 34.0 mph54.7 kmh 29.85 in1010.8 mb 0.00 in0.0 mm 0.00 in0.0 mm 0.00 in0.0 mm
02:52 PM 54.0°F12.2°C 42.9°F6.1°C 66% 6.0 mph W9.7 kmh W 34.0 mph54.7 kmh 29.85 in1010.8 mb 0.00 in0.0 mm 0.00 in0.0 mm 0.00 in0.0 mm
02:53 PM 54.0°F12.2°C 42.9°F6.1°C 66% 12.0 mph W19.3 kmh W 34.0 mph54.7 kmh 29.85 in1010.8 mb 0.00 in0.0 mm 0.00 in0.0 mm 0.00 in0.0 mm
02:54 PM 54.0°F12.2°C 42.9°F6.1°C 66% 19.0 mph WSW30.6 kmh WSW 32.0 mph51.5 kmh 29.85 in1010.8 mb 0.00 in0.0 mm 0.00 in0.0 mm 0.00 in0.0 mm
02:55 PM 54.0°F12.2°C 42.9°F6.1°C 66% 26.0 mph WSW41.8 kmh WSW 27.0 mph43.5 kmh 29.85 in1010.8 mb 0.00 in0.0 mm 0.00 in0.0 mm 0.00 in0.0 mm
02:56 PM 53.9°F12.2°C 42.4°F5.8°C 65% 20.0 mph W32.2 kmh W 28.0 mph45.1 kmh 29.85 in1010.8 mb 0.00 in0.0 mm 0.00 in0.0 mm 0.00 in0.0 mm
02:57 PM 53.9°F12.2°C 42.8°F6.0°C 66% 17.0 mph WSW27.4 kmh WSW 28.0 mph45.1 kmh 29.85 in1010.8 mb 0.00 in0.0 mm 0.00 in0.0 mm 0.00 in0.0 mm
02:58 PM 53.8°F12.1°C 42.3°F5.7°C 65% 23.0 mph WSW37.0 kmh WSW 31.0 mph49.9 kmh 29.85 in1010.8 mb 0.00 in0.0 mm 0.00 in0.0 mm 0.00 in0.0 mm
02:59 PM 53.8°F12.1°C 42.7°F5.9°C 66% 27.0 mph SW43.5 kmh SW 31.0 mph49.9 kmh 29.85 in1010.8 mb 0.00 in0.0 mm 0.00 in0.0 mm 0.00 in0.0 mm
03:00 PM 53.7°F12.1°C 42.6°F5.9°C 66% 16.0 mph WSW25.7 kmh WSW 31.0 mph49.9 kmh 29.85 in1010.8 mb 0.00 in0.0 mm 0.00 in0.0 mm 0.00 in0.0 mm
03:01 PM 53.7°F12.1°C 42.6°F5.9°C 66% 11.0 mph W17.7 kmh W 31.0 mph49.9 kmh 29.85 in1010.8 mb 0.00 in0.0 mm 0.00 in0.0 mm 0.00 in0.0 mm
03:02 PM 53.7°F12.1°C 43.0°F6.1°C 67% 17.0 mph SW27.4 kmh SW 31.0 mph49.9 kmh 29.85 in1010.8 mb 0.00 in0.0 mm 0.00 in0.0 mm 0.00 in0.0 mm
03:03 PM 53.7°F12.1°C 43.0°F6.1°C 67% 21.0 mph W33.8 kmh W 31.0 mph49.9 kmh 29.85 in1010.8 mb 0.00 in0.0 mm 0.00 in0.0 mm 0.00 in0.0 mm
03:04 PM 53.6°F12.0°C 42.9°F6.1°C 67% 15.0 mph WSW24.1 kmh WSW 31.0 mph49.9 kmh 29.85 in1010.8 mb 0.00 in0.0 mm 0.00 in0.0 mm 0.00 in0.0 mm
03:05 PM 53.6°F12.0°C 42.9°F6.1°C 67% 12.0 mph SW19.3 kmh SW 31.0 mph49.9 kmh 29.85 in1010.8 mb 0.00 in0.0 mm 0.00 in0.0 mm 0.00 in0.0 mm
03:06 PM 53.5°F11.9°C 43.2°F6.2°C 68% 9.0 mph WSW14.5 kmh WSW 31.0 mph49.9 kmh 29.85 in1010.8 mb 0.00 in0.0 mm 0.00 in0.0 mm 0.00 in0.0 mm
03:07 PM 53.5°F11.9°C 43.2°F6.2°C 68% 20.0 mph WSW32.2 kmh WSW 31.0 mph49.9 kmh 29.85 in1010.8 mb 0.00 in0.0 mm 0.00 in0.0 mm 0.00 in0.0 mm
03:08 PM 53.4°F11.9°C 43.1°F6.2°C 68% 17.0 mph WSW27.4 kmh WSW 26.0 mph41.8 kmh 29.84 in1010.5 mb 0.00 in0.0 mm 0.00 in0.0 mm 0.00 in0.0 mm
03:09 PM 53.4°F11.9°C 43.5°F6.4°C 69% 15.0 mph SW24.1 kmh SW 30.0 mph48.3 kmh 29.84 in1010.5 mb 0.00 in0.0 mm 0.00 in0.0 mm 0.00 in0.0 mm
03:10 PM 53.3°F11.8°C 43.4°F6.3°C 69% 14.0 mph SW22.5 kmh SW 30.0 mph48.3 kmh 29.84 in1010.5 mb 0.00 in0.0 mm 0.00 in0.0 mm 0.00 in0.0 mm
03:11 PM 53.2°F11.8°C 43.3°F6.3°C 69% 20.0 mph SW32.2 kmh SW 30.0 mph48.3 kmh 29.84 in1010.5 mb 0.00 in0.0 mm 0.00 in0.0 mm 0.00 in0.0 mm
03:12 PM 53.1°F11.7°C 43.6°F6.4°C 70% 11.0 mph SW17.7 kmh SW 30.0 mph48.3 kmh 29.84 in1010.5 mb 0.00 in0.0 mm 0.00 in0.0 mm 0.00 in0.0 mm
03:13 PM 52.9°F11.6°C 43.8°F6.6°C 71% 17.0 mph WSW27.4 kmh WSW 30.0 mph48.3 kmh 29.84 in1010.5 mb 0.00 in0.0 mm 0.00 in0.0 mm 0.00 in0.0 mm
03:14 PM 52.7°F11.5°C 43.6°F6.4°C 71% 13.0 mph W20.9 kmh W 30.0 mph48.3 kmh 29.84 in1010.5 mb 0.00 in0.0 mm 0.00 in0.0 mm 0.00 in0.0 mm
03:15 PM 52.4°F11.3°C 43.6°F6.4°C 72% 11.0 mph SW17.7 kmh SW 30.0 mph48.3 kmh 29.84 in1010.5 mb 0.00 in0.0 mm 0.00 in0.0 mm 0.00 in0.0 mm
03:16 PM 52.1°F11.2°C 43.4°F6.3°C 72% 16.0 mph W25.7 kmh W 30.0 mph48.3 kmh 29.84 in1010.5 mb 0.00 in0.0 mm 0.00 in0.0 mm 0.00 in0.0 mm
03:17 PM 51.7°F10.9°C 43.3°F6.3°C 73% 15.0 mph WSW24.1 kmh WSW 30.0 mph48.3 kmh 29.84 in1010.5 mb 0.00 in0.0 mm 0.00 in0.0 mm 0.00 in0.0 mm
03:18 PM 51.5°F10.8°C 43.5°F6.4°C 74% 16.0 mph W25.7 kmh W 25.0 mph40.2 kmh 29.84 in1010.5 mb 0.00 in0.0 mm 0.00 in0.0 mm 0.00 in0.0 mm
03:19 PM 51.3°F10.7°C 44.0°F6.7°C 76% 18.0 mph WSW29.0 kmh WSW 25.0 mph40.2 kmh 29.84 in1010.5 mb 0.00 in0.0 mm 0.00 in0.0 mm 0.01 in0.3 mm
03:20 PM 51.2°F10.7°C 43.9°F6.6°C 76% 9.0 mph NW14.5 kmh NW 25.0 mph40.2 kmh 29.84 in1010.5 mb 0.00 in0.0 mm 0.00 in0.0 mm 0.01 in0.3 mm
03:21 PM 51.0°F10.6°C 44.0°F6.7°C 77% 6.0 mph WSW9.7 kmh WSW 25.0 mph40.2 kmh 29.84 in1010.5 mb 0.00 in0.0 mm 0.00 in0.0 mm 0.01 in0.3 mm
03:22 PM 50.9°F10.5°C 44.3°F6.8°C 78% 9.0 mph NW14.5 kmh NW 25.0 mph40.2 kmh 29.84 in1010.5 mb 0.00 in0.0 mm 0.00 in0.0 mm 0.01 in0.3 mm
03:23 PM 50.8°F10.4°C 44.2°F6.8°C 78% 7.0 mph SW11.3 kmh SW 25.0 mph40.2 kmh 29.84 in1010.5 mb 0.00 in0.0 mm 0.00 in0.0 mm 0.01 in0.3 mm
03:24 PM 50.8°F10.4°C 44.5°F6.9°C 79% 11.0 mph SW17.7 kmh SW 25.0 mph40.2 kmh 29.84 in1010.5 mb 0.00 in0.0 mm 0.00 in0.0 mm 0.01 in0.3 mm
03:25 PM 50.7°F10.4°C 44.8°F7.1°C 80% 6.0 mph WSW9.7 kmh WSW 24.0 mph38.6 kmh 29.84 in1010.5 mb 0.00 in0.0 mm 0.00 in0.0 mm 0.01 in0.3 mm
03:26 PM 50.6°F10.3°C 44.7°F7.1°C 80% 11.0 mph SSW17.7 kmh SSW 24.0 mph38.6 kmh 29.84 in1010.5 mb 0.00 in0.0 mm 0.00 in0.0 mm 0.01 in0.3 mm
03:27 PM 50.6°F10.3°C 45.0°F7.2°C 81% 8.0 mph W12.9 kmh W 24.0 mph38.6 kmh 29.84 in1010.5 mb 0.00 in0.0 mm 0.00 in0.0 mm 0.01 in0.3 mm
03:28 PM 50.5°F10.3°C 44.9°F7.2°C 81% 9.0 mph WSW14.5 kmh WSW 18.0 mph29.0 kmh 29.84 in1010.5 mb 0.00 in0.0 mm 0.00 in0.0 mm 0.01 in0.3 mm
03:29 PM 50.4°F10.2°C 44.8°F7.1°C 81% 16.0 mph WSW25.7 kmh WSW 22.0 mph35.4 kmh 29.84 in1010.5 mb 0.05 in1.3 mm 3.00 in76.2 mm 0.02 in0.5 mm
03:30 PM 50.3°F10.2°C 44.7°F7.1°C 81% 13.0 mph WSW20.9 kmh WSW 21.0 mph33.8 kmh 29.84 in1010.5 mb 0.05 in1.3 mm 0.00 in0.0 mm 0.02 in0.5 mm
03:31 PM 50.4°F10.2°C 44.8°F7.1°C 81% 7.0 mph WSW11.3 kmh WSW 21.0 mph33.8 kmh 29.84 in1010.5 mb 0.05 in1.3 mm 0.00 in0.0 mm 0.02 in0.5 mm
03:32 PM 50.4°F10.2°C 44.8°F7.1°C 81% 7.0 mph SSW11.3 kmh SSW 21.0 mph33.8 kmh 29.83 in1010.2 mb 0.05 in1.3 mm 0.00 in0.0 mm 0.02 in0.5 mm
03:33 PM 50.3°F10.2°C 44.7°F7.1°C 81% 12.0 mph WSW19.3 kmh WSW 21.0 mph33.8 kmh 29.84 in1010.5 mb 0.05 in1.3 mm 0.00 in0.0 mm 0.02 in0.5 mm
03:34 PM 50.3°F10.2°C 44.7°F7.1°C 81% 10.0 mph SE16.1 kmh SE 26.0 mph41.8 kmh 29.84 in1010.5 mb 0.05 in1.3 mm 0.00 in0.0 mm 0.02 in0.5 mm
03:35 PM 50.2°F10.1°C 44.6°F7.0°C 81% 11.0 mph W17.7 kmh W 26.0 mph41.8 kmh 29.84 in1010.5 mb 0.05 in1.3 mm 0.00 in0.0 mm 0.02 in0.5 mm
03:36 PM 50.2°F10.1°C 44.9°F7.2°C 82% 18.0 mph WSW29.0 kmh WSW 26.0 mph41.8 kmh 29.84 in1010.5 mb 0.05 in1.3 mm 0.00 in0.0 mm 0.02 in0.5 mm
03:37 PM 50.0°F10.0°C 44.7°F7.1°C 82% 21.0 mph W33.8 kmh W 28.0 mph45.1 kmh 29.83 in1010.2 mb 0.06 in1.5 mm 0.60 in15.2 mm 0.02 in0.5 mm
03:38 PM 49.8°F9.9°C 44.5°F6.9°C 82% 22.0 mph W35.4 kmh W 28.0 mph45.1 kmh 29.83 in1010.2 mb 0.06 in1.5 mm 0.00 in0.0 mm 0.02 in0.5 mm
03:39 PM 49.7°F9.8°C 44.7°F7.1°C 83% 17.0 mph WSW27.4 kmh WSW 28.0 mph45.1 kmh 29.83 in1010.2 mb 0.06 in1.5 mm 0.00 in0.0 mm 0.02 in0.5 mm
03:40 PM 49.5°F9.7°C 44.6°F7.0°C 83% 13.0 mph WSW20.9 kmh WSW 28.0 mph45.1 kmh 29.83 in1010.2 mb 0.06 in1.5 mm 0.00 in0.0 mm 0.02 in0.5 mm
03:41 PM 49.4°F9.7°C 44.8°F7.1°C 84% 4.0 mph WNW6.4 kmh WNW 28.0 mph45.1 kmh 29.83 in1010.2 mb 0.06 in1.5 mm 0.00 in0.0 mm 0.02 in0.5 mm
03:42 PM 49.3°F9.6°C 45.0°F7.2°C 85% 7.0 mph WNW11.3 kmh WNW 28.0 mph45.1 kmh 29.83 in1010.2 mb 0.06 in1.5 mm 0.00 in0.0 mm 0.02 in0.5 mm
03:43 PM 49.3°F9.6°C 45.3°F7.4°C 86% 6.0 mph WSW9.7 kmh WSW 28.0 mph45.1 kmh 29.83 in1010.2 mb 0.06 in1.5 mm 0.00 in0.0 mm 0.02 in0.5 mm
03:44 PM 49.2°F9.6°C 45.2°F7.3°C 86% 6.0 mph W9.7 kmh W 28.0 mph45.1 kmh 29.83 in1010.2 mb 0.06 in1.5 mm 0.00 in0.0 mm 0.02 in0.5 mm
03:45 PM 49.1°F9.5°C 45.1°F7.3°C 86% 5.0 mph WSW8.0 kmh WSW 28.0 mph45.1 kmh 29.83 in1010.2 mb 0.06 in1.5 mm 0.00 in0.0 mm 0.02 in0.5 mm
03:46 PM 49.1°F9.5°C 45.4°F7.4°C 87% 6.0 mph SW9.7 kmh SW 27.0 mph43.5 kmh 29.83 in1010.2 mb 0.06 in1.5 mm 0.00 in0.0 mm 0.03 in0.8 mm
03:47 PM 49.1°F9.5°C 45.4°F7.4°C 87% 6.0 mph WSW9.7 kmh WSW 24.0 mph38.6 kmh 29.83 in1010.2 mb 0.06 in1.5 mm 0.00 in0.0 mm 0.03 in0.8 mm
03:48 PM 49.1°F9.5°C 45.4°F7.4°C 87% 3.0 mph WSW4.8 kmh WSW 17.0 mph27.4 kmh 29.83 in1010.2 mb 0.06 in1.5 mm 0.00 in0.0 mm 0.03 in0.8 mm
03:49 PM 49.1°F9.5°C 45.4°F7.4°C 87% 11.0 mph WSW17.7 kmh WSW 15.0 mph24.1 kmh 29.83 in1010.2 mb 0.06 in1.5 mm 0.00 in0.0 mm 0.03 in0.8 mm
03:50 PM 49.1°F9.5°C 45.4°F7.4°C 87% 4.0 mph SE6.4 kmh SE 13.0 mph20.9 kmh 29.83 in1010.2 mb 0.06 in1.5 mm 0.00 in0.0 mm 0.03 in0.8 mm
03:51 PM 49.1°F9.5°C 45.4°F7.4°C 87% Calm Calm 13.0 mph20.9 kmh 29.83 in1010.2 mb 0.06 in1.5 mm 0.00 in0.0 mm 0.03 in0.8 mm
03:52 PM 49.2°F9.6°C 45.5°F7.5°C 87% 9.0 mph WSW14.5 kmh WSW 12.0 mph19.3 kmh 29.83 in1010.2 mb 0.06 in1.5 mm 0.00 in0.0 mm 0.03 in0.8 mm
03:53 PM 49.2°F9.6°C 45.5°F7.5°C 87% 7.0 mph SSE11.3 kmh SSE 14.0 mph22.5 kmh 29.83 in1010.2 mb 0.06 in1.5 mm 0.00 in0.0 mm 0.03 in0.8 mm
03:54 PM 49.2°F9.6°C 45.5°F7.5°C 87% 11.0 mph WNW17.7 kmh WNW 14.0 mph22.5 kmh 29.83 in1010.2 mb 0.06 in1.5 mm 0.00 in0.0 mm 0.03 in0.8 mm
03:55 PM 49.2°F9.6°C 45.2°F7.3°C 86% 12.0 mph SW19.3 kmh SW 20.0 mph32.2 kmh 29.83 in1010.2 mb 0.05 in1.3 mm 0.00 in0.0 mm 0.04 in1.0 mm
03:56 PM 49.2°F9.6°C 45.2°F7.3°C 86% 12.0 mph SW19.3 kmh SW 20.0 mph32.2 kmh 29.83 in1010.2 mb 0.05 in1.3 mm 0.00 in0.0 mm 0.04 in1.0 mm
03:57 PM 49.2°F9.6°C 45.2°F7.3°C 86% 8.0 mph SW12.9 kmh SW 20.0 mph32.2 kmh 29.83 in1010.2 mb 0.05 in1.3 mm 0.00 in0.0 mm 0.04 in1.0 mm
03:58 PM 49.2°F9.6°C 45.2°F7.3°C 86% 12.0 mph SSW19.3 kmh SSW 20.0 mph32.2 kmh 29.83 in1010.2 mb 0.05 in1.3 mm 0.00 in0.0 mm 0.04 in1.0 mm
03:59 PM 49.2°F9.6°C 45.2°F7.3°C 86% 8.0 mph W12.9 kmh W 20.0 mph32.2 kmh 29.83 in1010.2 mb 0.05 in1.3 mm 0.00 in0.0 mm 0.04 in1.0 mm
04:00 PM 49.2°F9.6°C 45.2°F7.3°C 86% 11.0 mph WSW17.7 kmh WSW 20.0 mph32.2 kmh 29.83 in1010.2 mb 0.05 in1.3 mm 0.00 in0.0 mm 0.04 in1.0 mm
04:01 PM 49.1°F9.5°C 45.1°F7.3°C 86% 10.0 mph WSW16.1 kmh WSW 21.0 mph33.8 kmh 29.82 in1009.8 mb 0.07 in1.8 mm 1.20 in30.5 mm 0.05 in1.3 mm
04:02 PM 49.1°F9.5°C 45.1°F7.3°C 86% 17.0 mph WSW27.4 kmh WSW 20.0 mph32.2 kmh 29.82 in1009.8 mb 0.07 in1.8 mm 0.00 in0.0 mm 0.05 in1.3 mm
04:03 PM 48.9°F9.4°C 44.9°F7.2°C 86% 9.0 mph NNW14.5 kmh NNW 20.0 mph32.2 kmh 29.82 in1009.8 mb 0.07 in1.8 mm 0.00 in0.0 mm 0.05 in1.3 mm
04:04 PM 48.8°F9.3°C 45.4°F7.4°C 88% 10.0 mph WSW16.1 kmh WSW 20.0 mph32.2 kmh 29.82 in1009.8 mb 0.07 in1.8 mm 0.00 in0.0 mm 0.05 in1.3 mm
04:05 PM 48.5°F9.2°C 45.4°F7.4°C 89% 8.0 mph SW12.9 kmh SW 20.0 mph32.2 kmh 29.82 in1009.8 mb 0.07 in1.8 mm 0.00 in0.0 mm 0.05 in1.3 mm
04:06 PM 48.4°F9.1°C 45.6°F7.6°C 90% 10.0 mph SW16.1 kmh SW 20.0 mph32.2 kmh 29.82 in1009.8 mb 0.07 in1.8 mm 0.00 in0.0 mm 0.05 in1.3 mm
04:07 PM 48.2°F9.0°C 45.4°F7.4°C 90% 7.0 mph SW11.3 kmh SW 20.0 mph32.2 kmh 29.82 in1009.8 mb 0.08 in2.0 mm 0.60 in15.2 mm 0.06 in1.5 mm
04:08 PM 48.1°F8.9°C 45.3°F7.4°C 90% 11.0 mph SSW17.7 kmh SSW 20.0 mph32.2 kmh 29.82 in1009.8 mb 0.08 in2.0 mm 0.00 in0.0 mm 0.06 in1.5 mm
04:09 PM 47.9°F8.8°C 45.4°F7.4°C 91% 8.0 mph WSW12.9 kmh WSW 20.0 mph32.2 kmh 29.82 in1009.8 mb 0.08 in2.0 mm 0.00 in0.0 mm 0.06 in1.5 mm
04:10 PM 47.8°F8.8°C 45.3°F7.4°C 91% 15.0 mph SW24.1 kmh SW 20.0 mph32.2 kmh 29.82 in1009.8 mb 0.08 in2.0 mm 0.00 in0.0 mm 0.06 in1.5 mm
04:11 PM 47.7°F8.7°C 45.5°F7.5°C 92% 6.0 mph SW9.7 kmh SW 20.0 mph32.2 kmh 29.82 in1009.8 mb 0.08 in2.0 mm 0.00 in0.0 mm 0.06 in1.5 mm
04:12 PM 47.7°F8.7°C 45.5°F7.5°C 92% 14.0 mph SW22.5 kmh SW 20.0 mph32.2 kmh 29.82 in1009.8 mb 0.10 in2.5 mm 1.20 in30.5 mm 0.06 in1.5 mm
04:13 PM 47.6°F8.7°C 45.4°F7.4°C 92% 16.0 mph SW25.7 kmh SW 20.0 mph32.2 kmh 29.82 in1009.8 mb 0.10 in2.5 mm 0.00 in0.0 mm 0.06 in1.5 mm
04:14 PM 47.6°F8.7°C 45.4°F7.4°C 92% 9.0 mph SSW14.5 kmh SSW 20.0 mph32.2 kmh 29.82 in1009.8 mb 0.20 in5.1 mm 6.00 in152.4 mm 0.07 in1.8 mm
04:15 PM 47.5°F8.6°C 45.6°F7.6°C 93% 13.0 mph SW20.9 kmh SW 21.0 mph33.8 kmh 29.82 in1009.8 mb 0.20 in5.1 mm 0.00 in0.0 mm 0.07 in1.8 mm
04:16 PM 47.5°F8.6°C 45.6°F7.6°C 93% 8.0 mph SW12.9 kmh SW 21.0 mph33.8 kmh 29.82 in1009.8 mb 0.20 in5.1 mm 0.00 in0.0 mm 0.07 in1.8 mm
04:17 PM 47.4°F8.6°C 45.5°F7.5°C 93% 11.0 mph SW17.7 kmh SW 21.0 mph33.8 kmh 29.82 in1009.8 mb 0.14 in3.6 mm 0.00 in0.0 mm 0.07 in1.8 mm
04:18 PM 47.4°F8.6°C 45.5°F7.5°C 93% 4.0 mph SW6.4 kmh SW 21.0 mph33.8 kmh 29.82 in1009.8 mb 0.11 in2.8 mm 0.00 in0.0 mm 0.07 in1.8 mm
04:19 PM 47.3°F8.5°C 45.4°F7.4°C 93% 11.0 mph SW17.7 kmh SW 21.0 mph33.8 kmh 29.82 in1009.8 mb 0.10 in2.5 mm 0.00 in0.0 mm 0.08 in2.0 mm
04:20 PM 47.3°F8.5°C 45.4°F7.4°C 93% 12.0 mph W19.3 kmh W 21.0 mph33.8 kmh 29.82 in1009.8 mb 0.10 in2.5 mm 0.00 in0.0 mm 0.08 in2.0 mm
04:21 PM 47.3°F8.5°C 45.4°F7.4°C 93% 3.0 mph WSW4.8 kmh WSW 21.0 mph33.8 kmh 29.81 in1009.5 mb 0.10 in2.5 mm 0.00 in0.0 mm 0.08 in2.0 mm
04:22 PM 47.2°F8.4°C 45.3°F7.4°C 93% 12.0 mph SW19.3 kmh SW 21.0 mph33.8 kmh 29.81 in1009.5 mb 0.14 in3.6 mm 2.40 in61.0 mm 0.09 in2.3 mm
04:23 PM 47.2°F8.4°C 45.3°F7.4°C 93% 9.0 mph SW14.5 kmh SW 21.0 mph33.8 kmh 29.81 in1009.5 mb 0.14 in3.6 mm 0.00 in0.0 mm 0.09 in2.3 mm
04:24 PM 47.2°F8.4°C 45.6°F7.6°C 94% 10.0 mph SW16.1 kmh SW 17.0 mph27.4 kmh 29.81 in1009.5 mb 0.14 in3.6 mm 0.00 in0.0 mm 0.09 in2.3 mm
04:25 PM 47.2°F8.4°C 45.6°F7.6°C 94% 4.0 mph SW6.4 kmh SW 17.0 mph27.4 kmh 29.81 in1009.5 mb 0.13 in3.3 mm 0.00 in0.0 mm 0.09 in2.3 mm
04:26 PM 47.2°F8.4°C 45.6°F7.6°C 94% 9.0 mph SW14.5 kmh SW 17.0 mph27.4 kmh 29.81 in1009.5 mb 0.13 in3.3 mm 0.00 in0.0 mm 0.09 in2.3 mm
04:27 PM 47.2°F8.4°C 45.6°F7.6°C 94% 13.0 mph WSW20.9 kmh WSW 17.0 mph27.4 kmh 29.81 in1009.5 mb 0.13 in3.3 mm 0.00 in0.0 mm 0.09 in2.3 mm
04:28 PM 47.2°F8.4°C 45.6°F7.6°C 94% 8.0 mph SW12.9 kmh SW 17.0 mph27.4 kmh 29.81 in1009.5 mb 0.13 in3.3 mm 0.00 in0.0 mm 0.09 in2.3 mm
04:29 PM 47.2°F8.4°C 45.6°F7.6°C 94% 19.0 mph SW30.6 kmh SW 19.0 mph30.6 kmh 29.81 in1009.5 mb 0.14 in3.6 mm 0.60 in15.2 mm 0.10 in2.5 mm
04:30 PM 47.1°F8.4°C 45.5°F7.5°C 94% 10.0 mph SSW16.1 kmh SSW 21.0 mph33.8 kmh 29.81 in1009.5 mb 0.14 in3.6 mm 0.00 in0.0 mm 0.10 in2.5 mm
04:31 PM 47.1°F8.4°C 45.5°F7.5°C 94% 6.0 mph SSW9.7 kmh SSW 21.0 mph33.8 kmh 29.81 in1009.5 mb 0.14 in3.6 mm 0.00 in0.0 mm 0.10 in2.5 mm
04:32 PM 47.1°F8.4°C 45.5°F7.5°C 94% 9.0 mph SW14.5 kmh SW 21.0 mph33.8 kmh 29.81 in1009.5 mb 0.14 in3.6 mm 0.00 in0.0 mm 0.10 in2.5 mm
04:33 PM 47.1°F8.4°C 45.5°F7.5°C 94% 7.0 mph W11.3 kmh W 21.0 mph33.8 kmh 29.81 in1009.5 mb 0.11 in2.8 mm 0.00 in0.0 mm 0.10 in2.5 mm
04:34 PM 47.1°F8.4°C 45.5°F7.5°C 94% 9.0 mph WSW14.5 kmh WSW 21.0 mph33.8 kmh 29.81 in1009.5 mb 0.11 in2.8 mm 0.00 in0.0 mm 0.11 in2.8 mm
04:35 PM 47.1°F8.4°C 45.5°F7.5°C 94% 12.0 mph WSW19.3 kmh WSW 21.0 mph33.8 kmh 29.81 in1009.5 mb 0.11 in2.8 mm 0.00 in0.0 mm 0.11 in2.8 mm
04:36 PM 47.1°F8.4°C 45.5°F7.5°C 94% 7.0 mph WSW11.3 kmh WSW 21.0 mph33.8 kmh 29.81 in1009.5 mb 0.20 in5.1 mm 5.40 in137.2 mm 0.12 in3.0 mm
04:37 PM 47.1°F8.4°C 45.5°F7.5°C 94% 7.0 mph WSW11.3 kmh WSW 21.0 mph33.8 kmh 29.81 in1009.5 mb 0.20 in5.1 mm 0.00 in0.0 mm 0.12 in3.0 mm
04:38 PM 47.1°F8.4°C 45.5°F7.5°C 94% 5.0 mph SW8.0 kmh SW 21.0 mph33.8 kmh 29.81 in1009.5 mb 0.17 in4.3 mm 0.00 in0.0 mm 0.12 in3.0 mm
04:39 PM 47.1°F8.4°C 45.5°F7.5°C 94% 16.0 mph WSW25.7 kmh WSW 19.0 mph30.6 kmh 29.81 in1009.5 mb 0.13 in3.3 mm 0.00 in0.0 mm 0.12 in3.0 mm
04:40 PM 47.1°F8.4°C 45.5°F7.5°C 94% 9.0 mph WSW14.5 kmh WSW 19.0 mph30.6 kmh 29.81 in1009.5 mb 0.10 in2.5 mm 0.00 in0.0 mm 0.12 in3.0 mm
04:41 PM 47.1°F8.4°C 45.5°F7.5°C 94% 10.0 mph SW16.1 kmh SW 19.0 mph30.6 kmh 29.81 in1009.5 mb 0.10 in2.5 mm 0.00 in0.0 mm 0.13 in3.3 mm
04:42 PM 47.1°F8.4°C 45.5°F7.5°C 94% 6.0 mph W9.7 kmh W 19.0 mph30.6 kmh 29.81 in1009.5 mb 0.10 in2.5 mm 0.00 in0.0 mm 0.13 in3.3 mm
04:43 PM 47.1°F8.4°C 45.7°F7.6°C 95% 13.0 mph SW20.9 kmh SW 19.0 mph30.6 kmh 29.81 in1009.5 mb 0.10 in2.5 mm 0.00 in0.0 mm 0.13 in3.3 mm
04:44 PM 47.1°F8.4°C 45.7°F7.6°C 95% 10.0 mph WSW16.1 kmh WSW 19.0 mph30.6 kmh 29.81 in1009.5 mb 0.12 in3.0 mm 1.20 in30.5 mm 0.13 in3.3 mm
04:45 PM 47.1°F8.4°C 45.7°F7.6°C 95% 4.0 mph S6.4 kmh S 19.0 mph30.6 kmh 29.81 in1009.5 mb 0.12 in3.0 mm 0.00 in0.0 mm 0.13 in3.3 mm
04:46 PM 47.1°F8.4°C 45.7°F7.6°C 95% 15.0 mph SW24.1 kmh SW 19.0 mph30.6 kmh 29.81 in1009.5 mb 0.12 in3.0 mm 0.00 in0.0 mm 0.13 in3.3 mm
04:47 PM 47.1°F8.4°C 45.7°F7.6°C 95% 8.0 mph WSW12.9 kmh WSW 19.0 mph30.6 kmh 29.81 in1009.5 mb 0.12 in3.0 mm 0.00 in0.0 mm 0.13 in3.3 mm
04:48 PM 47.1°F8.4°C 45.7°F7.6°C 95% 14.0 mph WSW22.5 kmh WSW 16.0 mph25.7 kmh 29.81 in1009.5 mb 0.12 in3.0 mm 0.00 in0.0 mm 0.13 in3.3 mm
04:49 PM 47.1°F8.4°C 45.7°F7.6°C 95% 8.0 mph SW12.9 kmh SW 16.0 mph25.7 kmh 29.81 in1009.5 mb 0.10 in2.5 mm 0.00 in0.0 mm 0.13 in3.3 mm
04:50 PM 47.1°F8.4°C 45.7°F7.6°C 95% 10.0 mph WSW16.1 kmh WSW 16.0 mph25.7 kmh 29.81 in1009.5 mb 0.10 in2.5 mm 0.00 in0.0 mm 0.14 in3.6 mm
04:51 PM 47.1°F8.4°C 45.7°F7.6°C 95% 14.0 mph WSW22.5 kmh WSW 16.0 mph25.7 kmh 29.81 in1009.5 mb 0.10 in2.5 mm 0.00 in0.0 mm 0.14 in3.6 mm
04:52 PM 47.1°F8.4°C 45.7°F7.6°C 95% 10.0 mph WSW16.1 kmh WSW 16.0 mph25.7 kmh 29.81 in1009.5 mb 0.19 in4.8 mm 5.40 in137.2 mm 0.15 in3.8 mm
04:53 PM 47.1°F8.4°C 45.7°F7.6°C 95% 10.0 mph SSE16.1 kmh SSE 16.0 mph25.7 kmh 29.81 in1009.5 mb 0.19 in4.8 mm 0.00 in0.0 mm 0.15 in3.8 mm
04:54 PM 47.1°F8.4°C 45.7°F7.6°C 95% 15.0 mph WSW24.1 kmh WSW 17.0 mph27.4 kmh 29.81 in1009.5 mb 0.21 in5.3 mm 1.20 in30.5 mm 0.16 in4.1 mm
04:55 PM 47.1°F8.4°C 45.7°F7.6°C 95% 10.0 mph WSW16.1 kmh WSW 16.0 mph25.7 kmh 29.80 in1009.1 mb 0.21 in5.3 mm 0.00 in0.0 mm 0.16 in4.1 mm
04:56 PM 47.1°F8.4°C 45.7°F7.6°C 95% 5.0 mph SE8.0 kmh SE 16.0 mph25.7 kmh 29.80 in1009.1 mb 0.19 in4.8 mm 0.00 in0.0 mm 0.16 in4.1 mm
04:57 PM 47.1°F8.4°C 45.7°F7.6°C 95% 11.0 mph WSW17.7 kmh WSW 16.0 mph25.7 kmh 29.80 in1009.1 mb 0.17 in4.3 mm 0.00 in0.0 mm 0.17 in4.3 mm
04:58 PM 47.1°F8.4°C 45.7°F7.6°C 95% 12.0 mph WSW19.3 kmh WSW 16.0 mph25.7 kmh 29.80 in1009.1 mb 0.17 in4.3 mm 0.00 in0.0 mm 0.17 in4.3 mm
04:59 PM 47.1°F8.4°C 45.7°F7.6°C 95% 11.0 mph WSW17.7 kmh WSW 16.0 mph25.7 kmh 29.80 in1009.1 mb 0.17 in4.3 mm 0.00 in0.0 mm 0.17 in4.3 mm
05:00 PM 47.1°F8.4°C 45.7°F7.6°C 95% 9.0 mph S14.5 kmh S 16.0 mph25.7 kmh 29.80 in1009.1 mb 0.17 in4.3 mm 0.00 in0.0 mm 0.17 in4.3 mm
05:01 PM 47.1°F8.4°C 45.7°F7.6°C 95% 8.0 mph WSW12.9 kmh WSW 16.0 mph25.7 kmh 29.80 in1009.1 mb 0.17 in4.3 mm 0.00 in0.0 mm 0.17 in4.3 mm
05:02 PM 47.1°F8.4°C 45.7°F7.6°C 95% 6.0 mph SW9.7 kmh SW 16.0 mph25.7 kmh 29.80 in1009.1 mb 0.20 in5.1 mm 1.80 in45.7 mm 0.18 in4.6 mm
05:03 PM 47.1°F8.4°C 45.7°F7.6°C 95% 5.0 mph SSW8.0 kmh SSW 15.0 mph24.1 kmh 29.80 in1009.1 mb 0.20 in5.1 mm 0.00 in0.0 mm 0.18 in4.6 mm
05:04 PM 47.1°F8.4°C 45.7°F7.6°C 95% 11.0 mph SW17.7 kmh SW 15.0 mph24.1 kmh 29.80 in1009.1 mb 0.19 in4.8 mm 0.00 in0.0 mm 0.18 in4.6 mm
05:05 PM 47.1°F8.4°C 45.7°F7.6°C 95% 6.0 mph WSW9.7 kmh WSW 15.0 mph24.1 kmh 29.80 in1009.1 mb 0.18 in4.6 mm 0.00 in0.0 mm 0.19 in4.8 mm
05:06 PM 47.1°F8.4°C 45.7°F7.6°C 95% 11.0 mph WSW17.7 kmh WSW 15.0 mph24.1 kmh 29.80 in1009.1 mb 0.18 in4.6 mm 0.00 in0.0 mm 0.19 in4.8 mm
05:07 PM 47.1°F8.4°C 45.7°F7.6°C 95% 8.0 mph SW12.9 kmh SW 15.0 mph24.1 kmh 29.80 in1009.1 mb 0.23 in5.8 mm 3.00 in76.2 mm 0.20 in5.1 mm
05:08 PM 47.1°F8.4°C 45.7°F7.6°C 95% 9.0 mph SW14.5 kmh SW 15.0 mph24.1 kmh 29.79 in1008.8 mb 0.23 in5.8 mm 0.00 in0.0 mm 0.20 in5.1 mm
05:09 PM 47.1°F8.4°C 45.7°F7.6°C 95% 10.0 mph SW16.1 kmh SW 15.0 mph24.1 kmh 29.80 in1009.1 mb 0.18 in4.6 mm 0.00 in0.0 mm 0.20 in5.1 mm
05:10 PM 47.1°F8.4°C 45.7°F7.6°C 95% 4.0 mph SSW6.4 kmh SSW 15.0 mph24.1 kmh 29.80 in1009.1 mb 0.18 in4.6 mm 0.00 in0.0 mm 0.20 in5.1 mm
05:11 PM 47.2°F8.4°C 45.8°F7.7°C 95% 6.0 mph SW9.7 kmh SW 15.0 mph24.1 kmh 29.79 in1008.8 mb 0.18 in4.6 mm 0.00 in0.0 mm 0.20 in5.1 mm
05:12 PM 47.2°F8.4°C 45.8°F7.7°C 95% 8.0 mph SW12.9 kmh SW 14.0 mph22.5 kmh 29.79 in1008.8 mb 0.18 in4.6 mm 0.00 in0.0 mm 0.21 in5.3 mm
05:13 PM 47.2°F8.4°C 45.8°F7.7°C 95% 8.0 mph WSW12.9 kmh WSW 14.0 mph22.5 kmh 29.79 in1008.8 mb 0.18 in4.6 mm 0.00 in0.0 mm 0.21 in5.3 mm
05:14 PM 47.2°F8.4°C 45.8°F7.7°C 95% 7.0 mph SW11.3 kmh SW 14.0 mph22.5 kmh 29.79 in1008.8 mb 0.20 in5.1 mm 1.20 in30.5 mm 0.22 in5.6 mm
05:15 PM 47.2°F8.4°C 45.8°F7.7°C 95% 6.0 mph WSW9.7 kmh WSW 13.0 mph20.9 kmh 29.79 in1008.8 mb 0.20 in5.1 mm 0.00 in0.0 mm 0.22 in5.6 mm
05:16 PM 47.2°F8.4°C 46.1°F7.8°C 96% 5.0 mph SW8.0 kmh SW 13.0 mph20.9 kmh 29.79 in1008.8 mb 0.20 in5.1 mm 0.00 in0.0 mm 0.22 in5.6 mm
05:17 PM 47.2°F8.4°C 46.1°F7.8°C 96% 5.0 mph SW8.0 kmh SW 13.0 mph20.9 kmh 29.79 in1008.8 mb 0.20 in5.1 mm 0.00 in0.0 mm 0.23 in5.8 mm
05:18 PM 47.2°F8.4°C 46.1°F7.8°C 96% 5.0 mph SW8.0 kmh SW 13.0 mph20.9 kmh 29.79 in1008.8 mb 0.20 in5.1 mm 0.00 in0.0 mm 0.23 in5.8 mm
05:19 PM 47.2°F8.4°C 46.1°F7.8°C 96% 7.0 mph SW11.3 kmh SW 12.0 mph19.3 kmh 29.79 in1008.8 mb 0.17 in4.3 mm 0.00 in0.0 mm 0.23 in5.8 mm
05:20 PM 47.2°F8.4°C 46.1°F7.8°C 96% 5.0 mph WSW8.0 kmh WSW 12.0 mph19.3 kmh 29.79 in1008.8 mb 0.14 in3.6 mm 0.00 in0.0 mm 0.24 in6.1 mm
05:21 PM 47.2°F8.4°C 46.1°F7.8°C 96% 5.0 mph WSW8.0 kmh WSW 11.0 mph17.7 kmh 29.79 in1008.8 mb 0.14 in3.6 mm 0.00 in0.0 mm 0.24 in6.1 mm
05:22 PM 47.2°F8.4°C 46.1°F7.8°C 96% 10.0 mph WSW16.1 kmh WSW 11.0 mph17.7 kmh 29.79 in1008.8 mb 0.14 in3.6 mm 0.00 in0.0 mm 0.24 in6.1 mm
05:23 PM 47.3°F8.5°C 46.2°F7.9°C 96% 6.0 mph SW9.7 kmh SW 11.0 mph17.7 kmh 29.79 in1008.8 mb 0.17 in4.3 mm 1.80 in45.7 mm 0.24 in6.1 mm
05:24 PM 47.3°F8.5°C 46.2°F7.9°C 96% 5.0 mph SW8.0 kmh SW 14.0 mph22.5 kmh 29.79 in1008.8 mb 0.17 in4.3 mm 0.00 in0.0 mm 0.24 in6.1 mm
05:25 PM 47.3°F8.5°C 46.2°F7.9°C 96% 6.0 mph WSW9.7 kmh WSW 14.0 mph22.5 kmh 29.79 in1008.8 mb 0.22 in5.6 mm 3.00 in76.2 mm 0.25 in6.4 mm
05:26 PM 47.3°F8.5°C 46.2°F7.9°C 96% 5.0 mph SW8.0 kmh SW 14.0 mph22.5 kmh 29.79 in1008.8 mb 0.22 in5.6 mm 0.00 in0.0 mm 0.25 in6.4 mm
05:27 PM 47.3°F8.5°C 46.2°F7.9°C 96% 7.0 mph SW11.3 kmh SW 14.0 mph22.5 kmh 29.79 in1008.8 mb 0.19 in4.8 mm 0.00 in0.0 mm 0.25 in6.4 mm
05:28 PM 47.3°F8.5°C 46.2°F7.9°C 96% 5.0 mph S8.0 kmh S 14.0 mph22.5 kmh 29.79 in1008.8 mb 0.16 in4.1 mm 0.00 in0.0 mm 0.26 in6.6 mm
05:29 PM 47.3°F8.5°C 46.2°F7.9°C 96% 4.0 mph SW6.4 kmh SW 14.0 mph22.5 kmh 29.79 in1008.8 mb 0.16 in4.1 mm 0.00 in0.0 mm 0.26 in6.6 mm
05:30 PM 47.3°F8.5°C 46.2°F7.9°C 96% 6.0 mph SSW9.7 kmh SSW 14.0 mph22.5 kmh 29.79 in1008.8 mb 0.16 in4.1 mm 0.00 in0.0 mm 0.26 in6.6 mm
05:31 PM 47.2°F8.4°C 46.1°F7.8°C 96% 5.0 mph SSW8.0 kmh SSW 14.0 mph22.5 kmh 29.79 in1008.8 mb 0.18 in4.6 mm 1.20 in30.5 mm 0.27 in6.9 mm
05:32 PM 47.1°F8.4°C 46.0°F7.8°C 96% 5.0 mph S8.0 kmh S 14.0 mph22.5 kmh 29.79 in1008.8 mb 0.18 in4.6 mm 0.00 in0.0 mm 0.27 in6.9 mm
05:33 PM 46.9°F8.3°C 45.8°F7.7°C 96% 7.0 mph S11.3 kmh S 12.0 mph19.3 kmh 29.79 in1008.8 mb 0.20 in5.1 mm 1.20 in30.5 mm 0.28 in7.1 mm
05:34 PM 46.8°F8.2°C 45.4°F7.4°C 95% 8.0 mph S12.9 kmh S 12.0 mph19.3 kmh 29.79 in1008.8 mb 0.20 in5.1 mm 0.00 in0.0 mm 0.28 in7.1 mm
05:35 PM 46.7°F8.2°C 45.3°F7.4°C 95% 5.0 mph SE8.0 kmh SE 12.0 mph19.3 kmh 29.79 in1008.8 mb 0.24 in6.1 mm 2.40 in61.0 mm 0.28 in7.1 mm
05:36 PM 46.6°F8.1°C 45.2°F7.3°C 95% 6.0 mph S9.7 kmh S 12.0 mph19.3 kmh 29.79 in1008.8 mb 0.41 in10.4 mm 10.20 in259.1 mm 0.29 in7.4 mm
05:37 PM 46.5°F8.1°C 45.1°F7.3°C 95% 9.0 mph SSW14.5 kmh SSW 12.0 mph19.3 kmh 29.79 in1008.8 mb 0.36 in9.1 mm 0.00 in0.0 mm 0.29 in7.4 mm
05:38 PM 46.4°F8.0°C 45.0°F7.2°C 95% 6.0 mph SSE9.7 kmh SSE 12.0 mph19.3 kmh 29.79 in1008.8 mb 0.32 in8.1 mm 0.00 in0.0 mm 0.30 in7.6 mm
05:39 PM 46.3°F7.9°C 44.9°F7.2°C 95% 8.0 mph SSW12.9 kmh SSW 12.0 mph19.3 kmh 29.79 in1008.8 mb 0.46 in11.7 mm 8.40 in213.4 mm 0.31 in7.9 mm
05:40 PM 46.3°F7.9°C 44.9°F7.2°C 95% 6.0 mph S9.7 kmh S 11.0 mph17.7 kmh 29.79 in1008.8 mb 0.46 in11.7 mm 0.00 in0.0 mm 0.31 in7.9 mm
05:41 PM 46.2°F7.9°C 44.8°F7.1°C 95% 7.0 mph S11.3 kmh S 11.0 mph17.7 kmh 29.78 in1008.5 mb 0.40 in10.2 mm 0.00 in0.0 mm 0.32 in8.1 mm
05:42 PM 46.1°F7.8°C 44.7°F7.1°C 95% 8.0 mph SSW12.9 kmh SSW 11.0 mph17.7 kmh 29.78 in1008.5 mb 0.31 in7.9 mm 0.00 in0.0 mm 0.33 in8.4 mm
05:43 PM 46.0°F7.8°C 44.6°F7.0°C 95% 6.0 mph SSW9.7 kmh SSW 11.0 mph17.7 kmh 29.78 in1008.5 mb 0.31 in7.9 mm 0.00 in0.0 mm 0.33 in8.4 mm
05:44 PM 46.0°F7.8°C 44.6°F7.0°C 95% 13.0 mph S20.9 kmh S 15.0 mph24.1 kmh 29.78 in1008.5 mb 0.27 in6.9 mm 0.00 in0.0 mm 0.34 in8.6 mm
05:45 PM 45.9°F7.7°C 44.5°F6.9°C 95% 12.0 mph SSE19.3 kmh SSE 17.0 mph27.4 kmh 29.78 in1008.5 mb 0.43 in10.9 mm 9.60 in243.8 mm 0.35 in8.9 mm
05:46 PM 45.9°F7.7°C 44.5°F6.9°C 95% 8.0 mph S12.9 kmh S 17.0 mph27.4 kmh 29.78 in1008.5 mb 0.73 in18.5 mm 18.00 in457.2 mm 0.35 in8.9 mm
05:47 PM 45.8°F7.7°C 44.5°F6.9°C 95% 7.0 mph SSE11.3 kmh SSE 17.0 mph27.4 kmh 29.78 in1008.5 mb 0.61 in15.5 mm 0.00 in0.0 mm 0.37 in9.4 mm
05:48 PM 45.7°F7.6°C 44.4°F6.9°C 95% 14.0 mph S22.5 kmh S 17.0 mph27.4 kmh 29.79 in1008.8 mb 0.40 in10.2 mm 0.00 in0.0 mm 0.37 in9.4 mm
05:49 PM 45.7°F7.6°C 44.4°F6.9°C 95% 9.0 mph SE14.5 kmh SE 17.0 mph27.4 kmh 29.78 in1008.5 mb 0.53 in13.5 mm 7.80 in198.1 mm 0.39 in9.9 mm
05:50 PM 45.6°F7.6°C 44.3°F6.8°C 95% 9.0 mph S14.5 kmh S 17.0 mph27.4 kmh 29.78 in1008.5 mb 0.43 in10.9 mm 0.00 in0.0 mm 0.39 in9.9 mm
05:51 PM 45.6°F7.6°C 44.3°F6.8°C 95% 6.0 mph SSE9.7 kmh SSE 17.0 mph27.4 kmh 29.78 in1008.5 mb 0.40 in10.2 mm 0.00 in0.0 mm 0.39 in9.9 mm
05:52 PM 45.5°F7.5°C 44.4°F6.9°C 96% 5.0 mph SSW8.0 kmh SSW 17.0 mph27.4 kmh 29.78 in1008.5 mb 0.39 in9.9 mm 0.00 in0.0 mm 0.40 in10.2 mm
05:53 PM 45.5°F7.5°C 44.4°F6.9°C 96% 7.0 mph S11.3 kmh S 17.0 mph27.4 kmh 29.78 in1008.5 mb 0.48 in12.2 mm 5.40 in137.2 mm 0.41 in10.4 mm
05:54 PM 45.5°F7.5°C 44.4°F6.9°C 96% 4.0 mph SSW6.4 kmh SSW 15.0 mph24.1 kmh 29.78 in1008.5 mb 0.44 in11.2 mm 0.00 in0.0 mm 0.42 in10.7 mm
05:55 PM 45.5°F7.5°C 44.4°F6.9°C 96% 4.0 mph S6.4 kmh S 15.0 mph24.1 kmh 29.78 in1008.5 mb 0.53 in13.5 mm 5.40 in137.2 mm 0.43 in10.9 mm
05:56 PM 45.5°F7.5°C 44.4°F6.9°C 96% 7.0 mph SSE11.3 kmh SSE 15.0 mph24.1 kmh 29.78 in1008.5 mb 0.32 in8.1 mm 0.00 in0.0 mm 0.43 in10.9 mm
05:57 PM 45.5°F7.5°C 44.4°F6.9°C 96% 10.0 mph S16.1 kmh S 14.0 mph22.5 kmh 29.78 in1008.5 mb 0.32 in8.1 mm 0.00 in0.0 mm 0.43 in10.9 mm
05:58 PM 45.4°F7.4°C 44.3°F6.8°C 96% 6.0 mph S9.7 kmh S 14.0 mph22.5 kmh 29.78 in1008.5 mb 0.38 in9.7 mm 3.60 in91.4 mm 0.44 in11.2 mm
05:59 PM 45.4°F7.4°C 44.3°F6.8°C 96% 3.0 mph S4.8 kmh S 12.0 mph19.3 kmh 29.78 in1008.5 mb 0.33 in8.4 mm 0.00 in0.0 mm 0.45 in11.4 mm
06:00 PM 45.4°F7.4°C 44.3°F6.8°C 96% 3.0 mph S4.8 kmh S 12.0 mph19.3 kmh 29.78 in1008.5 mb 0.44 in11.2 mm 0.11 in2.8 mm 0.46 in11.7 mm
06:01 PM 45.4°F7.4°C 44.3°F6.8°C 96% 1.0 mph SW1.6 kmh SW 12.0 mph19.3 kmh 29.78 in1008.5 mb 0.58 in14.7 mm 8.40 in213.4 mm 0.46 in11.7 mm
06:02 PM 45.4°F7.4°C 44.3°F6.8°C 96% 7.0 mph SW11.3 kmh SW 12.0 mph19.3 kmh 29.78 in1008.5 mb 0.35 in8.9 mm 0.00 in0.0 mm 0.47 in11.9 mm
06:03 PM 45.4°F7.4°C 44.3°F6.8°C 96% 8.0 mph SSW12.9 kmh SSW 12.0 mph19.3 kmh 29.78 in1008.5 mb 0.39 in9.9 mm 2.40 in61.0 mm 0.48 in12.2 mm
06:04 PM 45.4°F7.4°C 44.3°F6.8°C 96% 8.0 mph S12.9 kmh S 13.0 mph20.9 kmh 29.78 in1008.5 mb 0.39 in9.9 mm 0.00 in0.0 mm 0.48 in12.2 mm
06:05 PM 45.4°F7.4°C 44.3°F6.8°C 96% 4.0 mph S6.4 kmh S 14.0 mph22.5 kmh 29.77 in1008.1 mb 0.28 in7.1 mm 0.00 in0.0 mm 0.49 in12.4 mm
06:06 PM 45.3°F7.4°C 44.2°F6.8°C 96% 6.0 mph SW9.7 kmh SW 14.0 mph22.5 kmh 29.78 in1008.5 mb 0.28 in7.1 mm 0.00 in0.0 mm 0.49 in12.4 mm
06:07 PM 45.4°F7.4°C 44.3°F6.8°C 96% 7.0 mph SSW11.3 kmh SSW 14.0 mph22.5 kmh 29.78 in1008.5 mb 0.20 in5.1 mm 0.00 in0.0 mm 0.49 in12.4 mm
06:08 PM 45.4°F7.4°C 44.3°F6.8°C 96% 4.0 mph SW6.4 kmh SW 14.0 mph22.5 kmh 29.79 in1008.8 mb 0.20 in5.1 mm 0.00 in0.0 mm 0.50 in12.7 mm
06:09 PM 45.4°F7.4°C 44.3°F6.8°C 96% 7.0 mph SW11.3 kmh SW 14.0 mph22.5 kmh 29.79 in1008.8 mb 0.24 in6.1 mm 2.40 in61.0 mm 0.50 in12.7 mm
06:10 PM 45.4°F7.4°C 44.3°F6.8°C 96% 2.0 mph SSW3.2 kmh SSW 14.0 mph22.5 kmh 29.78 in1008.5 mb 0.24 in6.1 mm 0.00 in0.0 mm 0.50 in12.7 mm
06:11 PM 45.4°F7.4°C 44.3°F6.8°C 96% 7.0 mph S11.3 kmh S 14.0 mph22.5 kmh 29.78 in1008.5 mb 0.28 in7.1 mm 2.40 in61.0 mm 0.51 in13.0 mm
06:12 PM 45.4°F7.4°C 44.3°F6.8°C 96% 11.0 mph SSW17.7 kmh SSW 14.0 mph22.5 kmh 29.78 in1008.5 mb 0.28 in7.1 mm 0.00 in0.0 mm 0.51 in13.0 mm
06:13 PM 45.3°F7.4°C 44.2°F6.8°C 96% 7.0 mph W11.3 kmh W 13.0 mph20.9 kmh 29.78 in1008.5 mb 0.31 in7.9 mm 1.80 in45.7 mm 0.52 in13.2 mm
06:14 PM 45.3°F7.4°C 44.2°F6.8°C 96% 5.0 mph SW8.0 kmh SW 13.0 mph20.9 kmh 29.78 in1008.5 mb 0.38 in9.7 mm 4.20 in106.7 mm 0.53 in13.5 mm
06:15 PM 45.3°F7.4°C 44.2°F6.8°C 96% 13.0 mph SW20.9 kmh SW 13.0 mph20.9 kmh 29.79 in1008.8 mb 0.35 in8.9 mm 0.00 in0.0 mm 0.53 in13.5 mm
06:16 PM 45.2°F7.3°C 44.1°F6.7°C 96% 10.0 mph SSW16.1 kmh SSW 16.0 mph25.7 kmh 29.78 in1008.5 mb 0.35 in8.9 mm 0.00 in0.0 mm 0.54 in13.7 mm
06:17 PM 45.2°F7.3°C 44.1°F6.7°C 96% 7.0 mph S11.3 kmh S 16.0 mph25.7 kmh 29.78 in1008.5 mb 0.31 in7.9 mm 0.00 in0.0 mm 0.54 in13.7 mm
06:18 PM 45.1°F7.3°C 44.0°F6.7°C 96% 6.0 mph SSW9.7 kmh SSW 16.0 mph25.7 kmh 29.78 in1008.5 mb 0.31 in7.9 mm 0.00 in0.0 mm 0.54 in13.7 mm
06:19 PM 45.0°F7.2°C 43.9°F6.6°C 96% 8.0 mph S12.9 kmh S 16.0 mph25.7 kmh 29.78 in1008.5 mb 0.27 in6.9 mm 0.00 in0.0 mm 0.55 in14.0 mm
06:20 PM 45.0°F7.2°C 43.9°F6.6°C 96% 7.0 mph SSW11.3 kmh SSW 16.0 mph25.7 kmh 29.78 in1008.5 mb 0.26 in6.6 mm 0.00 in0.0 mm 0.55 in14.0 mm
06:21 PM 44.9°F7.2°C 43.8°F6.6°C 96% 16.0 mph SSW25.7 kmh SSW 18.0 mph29.0 kmh 29.78 in1008.5 mb 0.21 in5.3 mm 0.00 in0.0 mm 0.56 in14.2 mm
06:22 PM 44.9°F7.2°C 43.8°F6.6°C 96% 8.0 mph SSW12.9 kmh SSW 18.0 mph29.0 kmh 29.78 in1008.5 mb 0.21 in5.3 mm 0.00 in0.0 mm 0.56 in14.2 mm
06:23 PM 44.8°F7.1°C 43.7°F6.5°C 96% 11.0 mph SSW17.7 kmh SSW 18.0 mph29.0 kmh 29.78 in1008.5 mb 0.20 in5.1 mm 0.00 in0.0 mm 0.56 in14.2 mm
06:24 PM 44.8°F7.1°C 43.7°F6.5°C 96% 11.0 mph S17.7 kmh S 18.0 mph29.0 kmh 29.78 in1008.5 mb 0.20 in5.1 mm 0.00 in0.0 mm 0.57 in14.5 mm
06:25 PM 44.8°F7.1°C 43.7°F6.5°C 96% 8.0 mph SW12.9 kmh SW 18.0 mph29.0 kmh 29.78 in1008.5 mb 0.20 in5.1 mm 0.00 in0.0 mm 0.57 in14.5 mm
06:26 PM 44.7°F7.1°C 43.6°F6.4°C 96% 12.0 mph WSW19.3 kmh WSW 18.0 mph29.0 kmh 29.78 in1008.5 mb 0.20 in5.1 mm 0.00 in0.0 mm 0.57 in14.5 mm
06:27 PM 44.7°F7.1°C 43.6°F6.4°C 96% 9.0 mph S14.5 kmh S 18.0 mph29.0 kmh 29.78 in1008.5 mb 0.20 in5.1 mm 0.00 in0.0 mm 0.57 in14.5 mm
06:28 PM 44.7°F7.1°C 43.6°F6.4°C 96% 7.0 mph SSE11.3 kmh SSE 18.0 mph29.0 kmh 29.78 in1008.5 mb 0.19 in4.8 mm 0.00 in0.0 mm 0.58 in14.7 mm
06:29 PM 44.7°F7.1°C 43.6°F6.4°C 96% 11.0 mph S17.7 kmh S 18.0 mph29.0 kmh 29.78 in1008.5 mb 0.19 in4.8 mm 0.00 in0.0 mm 0.58 in14.7 mm
06:30 PM 44.7°F7.1°C 43.6°F6.4°C 96% 5.0 mph SSW8.0 kmh SSW 18.0 mph29.0 kmh 29.78 in1008.5 mb 0.19 in4.8 mm 0.00 in0.0 mm 0.58 in14.7 mm
06:31 PM 44.7°F7.1°C 43.6°F6.4°C 96% 9.0 mph SSW14.5 kmh SSW 16.0 mph25.7 kmh 29.77 in1008.1 mb 0.18 in4.6 mm 0.00 in0.0 mm 0.59 in15.0 mm
06:32 PM 44.6°F7.0°C 43.5°F6.4°C 96% 10.0 mph SSW16.1 kmh SSW 16.0 mph25.7 kmh 29.77 in1008.1 mb 0.18 in4.6 mm 0.00 in0.0 mm 0.59 in15.0 mm
06:33 PM 44.6°F7.0°C 43.5°F6.4°C 96% 8.0 mph SSW12.9 kmh SSW 16.0 mph25.7 kmh 29.78 in1008.5 mb 0.18 in4.6 mm 0.00 in0.0 mm 0.59 in15.0 mm
06:34 PM 44.6°F7.0°C 43.5°F6.4°C 96% 6.0 mph SW9.7 kmh SW 16.0 mph25.7 kmh 29.78 in1008.5 mb 0.18 in4.6 mm 0.00 in0.0 mm 0.60 in15.2 mm
06:35 PM 44.6°F7.0°C 43.5°F6.4°C 96% 10.0 mph S16.1 kmh S 16.0 mph25.7 kmh 29.78 in1008.5 mb 0.18 in4.6 mm 0.00 in0.0 mm 0.60 in15.2 mm
06:36 PM 44.6°F7.0°C 43.5°F6.4°C 96% 9.0 mph S14.5 kmh S 16.0 mph25.7 kmh 29.78 in1008.5 mb 0.19 in4.8 mm 0.60 in15.2 mm 0.61 in15.5 mm
06:37 PM 44.6°F7.0°C 43.5°F6.4°C 96% 10.0 mph S16.1 kmh S 17.0 mph27.4 kmh 29.78 in1008.5 mb 0.19 in4.8 mm 0.00 in0.0 mm 0.61 in15.5 mm
06:38 PM 44.6°F7.0°C 43.5°F6.4°C 96% 7.0 mph S11.3 kmh S 17.0 mph27.4 kmh 29.78 in1008.5 mb 0.19 in4.8 mm 0.00 in0.0 mm 0.61 in15.5 mm
06:39 PM 44.6°F7.0°C 43.5°F6.4°C 96% 15.0 mph SW24.1 kmh SW 17.0 mph27.4 kmh 29.78 in1008.5 mb 0.17 in4.3 mm 0.00 in0.0 mm 0.61 in15.5 mm
06:40 PM 44.6°F7.0°C 43.5°F6.4°C 96% 7.0 mph S11.3 kmh S 17.0 mph27.4 kmh 29.78 in1008.5 mb 0.17 in4.3 mm 0.00 in0.0 mm 0.61 in15.5 mm
06:41 PM 44.6°F7.0°C 43.5°F6.4°C 96% 8.0 mph S12.9 kmh S 17.0 mph27.4 kmh 29.78 in1008.5 mb 0.17 in4.3 mm 0.00 in0.0 mm 0.61 in15.5 mm
06:42 PM 44.5°F6.9°C 43.4°F6.3°C 96% 7.0 mph SSW11.3 kmh SSW 17.0 mph27.4 kmh 29.78 in1008.5 mb 0.15 in3.8 mm 0.00 in0.0 mm 0.62 in15.7 mm
06:43 PM 44.5°F6.9°C 43.4°F6.3°C 96% 7.0 mph SW11.3 kmh SW 17.0 mph27.4 kmh 29.78 in1008.5 mb 0.15 in3.8 mm 0.00 in0.0 mm 0.62 in15.7 mm
06:44 PM 44.5°F6.9°C 43.4°F6.3°C 96% 10.0 mph S16.1 kmh S 17.0 mph27.4 kmh 29.78 in1008.5 mb 0.15 in3.8 mm 0.00 in0.0 mm 0.62 in15.7 mm
06:45 PM 44.5°F6.9°C 43.4°F6.3°C 96% 5.0 mph SSW8.0 kmh SSW 16.0 mph25.7 kmh 29.78 in1008.5 mb 0.17 in4.3 mm 1.20 in30.5 mm 0.63 in16.0 mm
06:46 PM 44.5°F6.9°C 43.4°F6.3°C 96% 10.0 mph S16.1 kmh S 14.0 mph22.5 kmh 29.78 in1008.5 mb 0.17 in4.3 mm 0.00 in0.0 mm 0.63 in16.0 mm
06:47 PM 44.5°F6.9°C 43.4°F6.3°C 96% 8.0 mph SSW12.9 kmh SSW 14.0 mph22.5 kmh 29.78 in1008.5 mb 0.17 in4.3 mm 0.00 in0.0 mm 0.63 in16.0 mm
06:48 PM 44.5°F6.9°C 43.4°F6.3°C 96% 5.0 mph SSW8.0 kmh SSW 14.0 mph22.5 kmh 29.77 in1008.1 mb 0.13 in3.3 mm 0.00 in0.0 mm 0.63 in16.0 mm
06:49 PM 44.5°F6.9°C 43.4°F6.3°C 96% 12.0 mph S19.3 kmh S 14.0 mph22.5 kmh 29.77 in1008.1 mb 0.13 in3.3 mm 0.00 in0.0 mm 0.64 in16.3 mm
06:50 PM 44.5°F6.9°C 43.4°F6.3°C 96% 9.0 mph SW14.5 kmh SW 14.0 mph22.5 kmh 29.77 in1008.1 mb 0.13 in3.3 mm 0.00 in0.0 mm 0.64 in16.3 mm
06:51 PM 44.5°F6.9°C 43.4°F6.3°C 96% 6.0 mph S9.7 kmh S 14.0 mph22.5 kmh 29.78 in1008.5 mb 0.13 in3.3 mm 0.00 in0.0 mm 0.64 in16.3 mm
06:52 PM 44.5°F6.9°C 43.4°F6.3°C 96% 8.0 mph SW12.9 kmh SW 14.0 mph22.5 kmh 29.78 in1008.5 mb 0.14 in3.6 mm 0.60 in15.2 mm 0.65 in16.5 mm
06:53 PM 44.5°F6.9°C 43.4°F6.3°C 96% 6.0 mph SW9.7 kmh SW 14.0 mph22.5 kmh 29.78 in1008.5 mb 0.14 in3.6 mm 0.00 in0.0 mm 0.65 in16.5 mm
06:54 PM 44.5°F6.9°C 43.4°F6.3°C 96% 6.0 mph SW9.7 kmh SW 14.0 mph22.5 kmh 29.78 in1008.5 mb 0.14 in3.6 mm 0.00 in0.0 mm 0.65 in16.5 mm
06:55 PM 44.5°F6.9°C 43.4°F6.3°C 96% 10.0 mph SW16.1 kmh SW 13.0 mph20.9 kmh 29.77 in1008.1 mb 0.15 in3.8 mm 0.60 in15.2 mm 0.65 in16.5 mm
06:56 PM 44.5°F6.9°C 43.4°F6.3°C 96% 12.0 mph SSW19.3 kmh SSW 14.0 mph22.5 kmh 29.77 in1008.1 mb 0.15 in3.8 mm 0.00 in0.0 mm 0.65 in16.5 mm
06:57 PM 44.5°F6.9°C 43.4°F6.3°C 96% 12.0 mph SSW19.3 kmh SSW 14.0 mph22.5 kmh 29.77 in1008.1 mb 0.15 in3.8 mm 0.00 in0.0 mm 0.65 in16.5 mm
06:58 PM 44.5°F6.9°C 43.4°F6.3°C 96% 10.0 mph S16.1 kmh S 14.0 mph22.5 kmh 29.77 in1008.1 mb 0.14 in3.6 mm 0.00 in0.0 mm 0.65 in16.5 mm
06:59 PM 44.5°F6.9°C 43.4°F6.3°C 96% 8.0 mph SW12.9 kmh SW 14.0 mph22.5 kmh 29.77 in1008.1 mb 0.10 in2.5 mm 0.00 in0.0 mm 0.65 in16.5 mm
07:00 PM 44.6°F7.0°C 43.5°F6.4°C 96% 9.0 mph SW14.5 kmh SW 14.0 mph22.5 kmh 29.77 in1008.1 mb 0.09 in2.3 mm 0.00 in0.0 mm 0.66 in16.8 mm
07:01 PM 44.6°F7.0°C 43.5°F6.4°C 96% 5.0 mph SW8.0 kmh SW 14.0 mph22.5 kmh 29.77 in1008.1 mb 0.09 in2.3 mm 0.00 in0.0 mm 0.66 in16.8 mm
07:02 PM 44.6°F7.0°C 43.5°F6.4°C 96% 4.0 mph S6.4 kmh S 14.0 mph22.5 kmh 29.77 in1008.1 mb 0.09 in2.3 mm 0.00 in0.0 mm 0.66 in16.8 mm
07:03 PM 44.6°F7.0°C 43.5°F6.4°C 96% 9.0 mph SW14.5 kmh SW 14.0 mph22.5 kmh 29.77 in1008.1 mb 0.09 in2.3 mm 0.00 in0.0 mm 0.66 in16.8 mm
07:04 PM 44.6°F7.0°C 43.5°F6.4°C 96% 6.0 mph S9.7 kmh S 14.0 mph22.5 kmh 29.77 in1008.1 mb 0.09 in2.3 mm 0.00 in0.0 mm 0.66 in16.8 mm
07:05 PM 44.6°F7.0°C 43.5°F6.4°C 96% 9.0 mph S14.5 kmh S 14.0 mph22.5 kmh 29.77 in1008.1 mb 0.09 in2.3 mm 0.00 in0.0 mm 0.66 in16.8 mm
07:06 PM 44.6°F7.0°C 43.5°F6.4°C 96% 7.0 mph S11.3 kmh S 15.0 mph24.1 kmh 29.77 in1008.1 mb 0.09 in2.3 mm 0.00 in0.0 mm 0.67 in17.0 mm
07:07 PM 44.6°F7.0°C 43.5°F6.4°C 96% 7.0 mph SSE11.3 kmh SSE 15.0 mph24.1 kmh 29.77 in1008.1 mb 0.09 in2.3 mm 0.00 in0.0 mm 0.67 in17.0 mm
07:08 PM 44.6°F7.0°C 43.5°F6.4°C 96% 8.0 mph S12.9 kmh S 15.0 mph24.1 kmh 29.77 in1008.1 mb 0.09 in2.3 mm 0.00 in0.0 mm 0.67 in17.0 mm
07:09 PM 44.6°F7.0°C 43.5°F6.4°C 96% 4.0 mph S6.4 kmh S 15.0 mph24.1 kmh 29.77 in1008.1 mb 0.09 in2.3 mm 0.00 in0.0 mm 0.67 in17.0 mm
07:10 PM 44.6°F7.0°C 43.5°F6.4°C 96% 7.0 mph SSW11.3 kmh SSW 15.0 mph24.1 kmh 29.77 in1008.1 mb 0.10 in2.5 mm 0.60 in15.2 mm 0.68 in17.3 mm
07:11 PM 44.6°F7.0°C 43.5°F6.4°C 96% 9.0 mph S14.5 kmh S 15.0 mph24.1 kmh 29.77 in1008.1 mb 0.10 in2.5 mm 0.00 in0.0 mm 0.68 in17.3 mm
07:12 PM 44.6°F7.0°C 43.5°F6.4°C 96% 7.0 mph SSW11.3 kmh SSW 15.0 mph24.1 kmh 29.77 in1008.1 mb 0.10 in2.5 mm 0.00 in0.0 mm 0.68 in17.3 mm
07:13 PM 44.6°F7.0°C 43.5°F6.4°C 96% 8.0 mph SSW12.9 kmh SSW 15.0 mph24.1 kmh 29.77 in1008.1 mb 0.10 in2.5 mm 0.00 in0.0 mm 0.68 in17.3 mm
07:14 PM 44.6°F7.0°C 43.5°F6.4°C 96% 6.0 mph SSW9.7 kmh SSW 13.0 mph20.9 kmh 29.77 in1008.1 mb 0.10 in2.5 mm 0.00 in0.0 mm 0.68 in17.3 mm
07:15 PM 44.6°F7.0°C 43.5°F6.4°C 96% 4.0 mph SSW6.4 kmh SSW 13.0 mph20.9 kmh 29.77 in1008.1 mb 0.09 in2.3 mm 0.00 in0.0 mm 0.68 in17.3 mm
07:16 PM 44.6°F7.0°C 43.5°F6.4°C 96% 5.0 mph SSW8.0 kmh SSW 13.0 mph20.9 kmh 29.76 in1007.8 mb 0.09 in2.3 mm 0.00 in0.0 mm 0.69 in17.5 mm
07:17 PM 44.6°F7.0°C 43.5°F6.4°C 96% 6.0 mph S9.7 kmh S 13.0 mph20.9 kmh 29.76 in1007.8 mb 0.09 in2.3 mm 0.00 in0.0 mm 0.69 in17.5 mm
07:18 PM 44.6°F7.0°C 43.5°F6.4°C 96% 3.0 mph S4.8 kmh S 13.0 mph20.9 kmh 29.76 in1007.8 mb 0.09 in2.3 mm 0.00 in0.0 mm 0.69 in17.5 mm
07:19 PM 44.6°F7.0°C 43.5°F6.4°C 96% 8.0 mph SSW12.9 kmh SSW 13.0 mph20.9 kmh 29.76 in1007.8 mb 0.09 in2.3 mm 0.00 in0.0 mm 0.69 in17.5 mm
07:20 PM 44.6°F7.0°C 43.5°F6.4°C 96% 4.0 mph S6.4 kmh S 11.0 mph17.7 kmh 29.76 in1007.8 mb 0.10 in2.5 mm 0.60 in15.2 mm 0.69 in17.5 mm
07:21 PM 44.6°F7.0°C 43.5°F6.4°C 96% 8.0 mph SSE12.9 kmh SSE 11.0 mph17.7 kmh 29.76 in1007.8 mb 0.10 in2.5 mm 0.00 in0.0 mm 0.69 in17.5 mm
07:22 PM 44.6°F7.0°C 43.5°F6.4°C 96% 3.0 mph S4.8 kmh S 12.0 mph19.3 kmh 29.77 in1008.1 mb 0.10 in2.5 mm 0.00 in0.0 mm 0.69 in17.5 mm
07:23 PM 44.6°F7.0°C 43.5°F6.4°C 96% 6.0 mph S9.7 kmh S 12.0 mph19.3 kmh 29.76 in1007.8 mb 0.10 in2.5 mm 0.00 in0.0 mm 0.69 in17.5 mm
07:24 PM 44.6°F7.0°C 43.5°F6.4°C 96% 6.0 mph S9.7 kmh S 12.0 mph19.3 kmh 29.76 in1007.8 mb 0.10 in2.5 mm 0.00 in0.0 mm 0.69 in17.5 mm
07:25 PM 44.6°F7.0°C 43.5°F6.4°C 96% 7.0 mph S11.3 kmh S 12.0 mph19.3 kmh 29.76 in1007.8 mb 0.09 in2.3 mm 0.00 in0.0 mm 0.69 in17.5 mm
07:26 PM 44.6°F7.0°C 43.5°F6.4°C 96% 4.0 mph S6.4 kmh S 12.0 mph19.3 kmh 29.76 in1007.8 mb 0.07 in1.8 mm 0.00 in0.0 mm 0.69 in17.5 mm
07:27 PM 44.6°F7.0°C 43.5°F6.4°C 96% 5.0 mph SE8.0 kmh SE 12.0 mph19.3 kmh 29.76 in1007.8 mb 0.06 in1.5 mm 0.00 in0.0 mm 0.69 in17.5 mm
07:28 PM 44.6°F7.0°C 43.5°F6.4°C 96% 6.0 mph SSE9.7 kmh SSE 12.0 mph19.3 kmh 29.76 in1007.8 mb 0.06 in1.5 mm 0.00 in0.0 mm 0.69 in17.5 mm
07:29 PM 44.6°F7.0°C 43.5°F6.4°C 96% 7.0 mph SSE11.3 kmh SSE 12.0 mph19.3 kmh 29.76 in1007.8 mb 0.06 in1.5 mm 0.00 in0.0 mm 0.70 in17.8 mm
07:30 PM 44.6°F7.0°C 43.5°F6.4°C 96% 4.0 mph SE6.4 kmh SE 9.0 mph14.5 kmh 29.76 in1007.8 mb 0.06 in1.5 mm 0.00 in0.0 mm 0.70 in17.8 mm
07:31 PM 44.6°F7.0°C 43.5°F6.4°C 96% 4.0 mph SE6.4 kmh SE 9.0 mph14.5 kmh 29.76 in1007.8 mb 0.06 in1.5 mm 0.00 in0.0 mm 0.70 in17.8 mm
07:32 PM 44.6°F7.0°C 43.5°F6.4°C 96% 4.0 mph S6.4 kmh S 9.0 mph14.5 kmh 29.76 in1007.8 mb 0.06 in1.5 mm 0.00 in0.0 mm 0.70 in17.8 mm
07:33 PM 44.7°F7.1°C 43.6°F6.4°C 96% 5.0 mph SSE8.0 kmh SSE 9.0 mph14.5 kmh 29.76 in1007.8 mb 0.06 in1.5 mm 0.00 in0.0 mm 0.70 in17.8 mm
07:34 PM 44.6°F7.0°C 43.5°F6.4°C 96% 5.0 mph SE8.0 kmh SE 9.0 mph14.5 kmh 29.76 in1007.8 mb 0.06 in1.5 mm 0.00 in0.0 mm 0.70 in17.8 mm
07:35 PM 44.6°F7.0°C 43.5°F6.4°C 96% 6.0 mph S9.7 kmh S 9.0 mph14.5 kmh 29.76 in1007.8 mb 0.06 in1.5 mm 0.00 in0.0 mm 0.70 in17.8 mm
07:36 PM 44.6°F7.0°C 43.5°F6.4°C 96% 9.0 mph SSE14.5 kmh SSE 9.0 mph14.5 kmh 29.76 in1007.8 mb 0.06 in1.5 mm 0.00 in0.0 mm 0.70 in17.8 mm
07:37 PM 44.6°F7.0°C 43.5°F6.4°C 96% 5.0 mph SE8.0 kmh SE 9.0 mph14.5 kmh 29.75 in1007.5 mb 0.06 in1.5 mm 0.00 in0.0 mm 0.70 in17.8 mm
07:38 PM 44.6°F7.0°C 43.5°F6.4°C 96% 8.0 mph SSE12.9 kmh SSE 10.0 mph16.1 kmh 29.75 in1007.5 mb 0.05 in1.3 mm 0.00 in0.0 mm 0.71 in18.0 mm
07:39 PM 44.6°F7.0°C 43.5°F6.4°C 96% 7.0 mph SSE11.3 kmh SSE 10.0 mph16.1 kmh 29.76 in1007.8 mb 0.05 in1.3 mm 0.00 in0.0 mm 0.71 in18.0 mm
07:40 PM 44.5°F6.9°C 43.4°F6.3°C 96% 6.0 mph SSE9.7 kmh SSE 10.0 mph16.1 kmh 29.75 in1007.5 mb 0.05 in1.3 mm 0.00 in0.0 mm 0.71 in18.0 mm
07:41 PM 44.5°F6.9°C 43.4°F6.3°C 96% 8.0 mph SE12.9 kmh SE 10.0 mph16.1 kmh 29.75 in1007.5 mb 0.05 in1.3 mm 0.00 in0.0 mm 0.71 in18.0 mm
07:42 PM 44.5°F6.9°C 43.4°F6.3°C 96% 7.0 mph SE11.3 kmh SE 10.0 mph16.1 kmh 29.75 in1007.5 mb 0.05 in1.3 mm 0.00 in0.0 mm 0.71 in18.0 mm
07:43 PM 44.5°F6.9°C 43.4°F6.3°C 96% 9.0 mph SSE14.5 kmh SSE 10.0 mph16.1 kmh 29.75 in1007.5 mb 0.05 in1.3 mm 0.00 in0.0 mm 0.71 in18.0 mm
07:44 PM 44.5°F6.9°C 43.4°F6.3°C 96% 5.0 mph SSW8.0 kmh SSW